<?xml version="1.0" encoding="UTF-8" standalone="no" ?>
<gpx xmlns="http://www.topografix.com/GPX/1/1" xmlns:xsi="http://www.w3.org/2001/XMLSchema-instance" xsi:schemaLocation="http://www.topografix.com/GPX/1/1 http://www.topografix.com/GPX/1/1/gpx.xsd" version="1.1" creator="VisuGPX - https://www.visugpx.com">
  <metadata>
    <name>Samu's Cup 2019</name>
    <desc><![CDATA[régate des SAMU de France
port de Saint Mandrier sur mer
cagnard 16 Garches 2
embarcation Dufour 410
équipage Bruno Fred Cécile Coralyne Sophie Jean Marc Christian
belle météo sur la semaine 
1 BMS 28/05 pas de sortie
14ème/26
détail samuscup.fr]]></desc>
  </metadata>
  <trk>
    <name><![CDATA[Tracé actuel: 27 MAI 2019 09:41]]></name>
    <trkseg>
      <trkpt lat="43.07984" lon="5.92552">
        <ele>-105.61</ele>
        <time>2019-05-27T07:41:52Z</time>
      </trkpt>
      <trkpt lat="43.07979" lon="5.92557">
        <ele>-106.57</ele>
        <time>2019-05-27T07:42:04Z</time>
      </trkpt>
      <trkpt lat="43.07979" lon="5.92558">
        <ele>-108.49</ele>
        <time>2019-05-27T07:42:19Z</time>
      </trkpt>
      <trkpt lat="43.07979" lon="5.92558">
        <ele>-108.49</ele>
        <time>2019-05-27T07:42:23Z</time>
      </trkpt>
      <trkpt lat="43.07979" lon="5.92559">
        <ele>-110.89</ele>
        <time>2019-05-27T07:42:37Z</time>
      </trkpt>
      <trkpt lat="43.07979" lon="5.92559">
        <ele>-111.38</ele>
        <time>2019-05-27T07:42:53Z</time>
      </trkpt>
      <trkpt lat="43.0798" lon="5.92557">
        <ele>-110.89</ele>
        <time>2019-05-27T07:43:05Z</time>
      </trkpt>
      <trkpt lat="43.07978" lon="5.92557">
        <ele>-111.86</ele>
        <time>2019-05-27T07:43:16Z</time>
      </trkpt>
      <trkpt lat="43.07966" lon="5.9248">
        <ele>-84.46</ele>
        <time>2019-05-27T07:43:34Z</time>
      </trkpt>
      <trkpt lat="43.07989" lon="5.92464">
        <ele>-33.03</ele>
        <time>2019-05-27T07:44:02Z</time>
      </trkpt>
      <trkpt lat="43.08013" lon="5.92455">
        <ele>-13.32</ele>
        <time>2019-05-27T07:44:25Z</time>
      </trkpt>
      <trkpt lat="43.0802" lon="5.92452">
        <ele>-7.55</ele>
        <time>2019-05-27T07:44:42Z</time>
      </trkpt>
      <trkpt lat="43.0802" lon="5.92463">
        <ele>-5.15</ele>
        <time>2019-05-27T07:44:56Z</time>
      </trkpt>
      <trkpt lat="43.08033" lon="5.92495">
        <ele>-3.23</ele>
        <time>2019-05-27T07:45:21Z</time>
      </trkpt>
      <trkpt lat="43.08069" lon="5.92501">
        <ele>2.54</ele>
        <time>2019-05-27T07:45:44Z</time>
      </trkpt>
      <trkpt lat="43.08107" lon="5.92506">
        <ele>2.06</ele>
        <time>2019-05-27T07:46:10Z</time>
      </trkpt>
      <trkpt lat="43.0815" lon="5.92507">
        <ele>2.06</ele>
        <time>2019-05-27T07:46:39Z</time>
      </trkpt>
      <trkpt lat="43.08197" lon="5.92512">
        <ele>2.06</ele>
        <time>2019-05-27T07:47:10Z</time>
      </trkpt>
      <trkpt lat="43.08238" lon="5.92527">
        <ele>1.1</ele>
        <time>2019-05-27T07:47:37Z</time>
      </trkpt>
      <trkpt lat="43.08278" lon="5.92541">
        <ele>2.06</ele>
        <time>2019-05-27T07:48:01Z</time>
      </trkpt>
      <trkpt lat="43.08321" lon="5.92566">
        <ele>1.58</ele>
        <time>2019-05-27T07:48:27Z</time>
      </trkpt>
      <trkpt lat="43.08357" lon="5.92596">
        <ele>1.58</ele>
        <time>2019-05-27T07:48:51Z</time>
      </trkpt>
      <trkpt lat="43.08377" lon="5.92625">
        <ele>1.58</ele>
        <time>2019-05-27T07:49:07Z</time>
      </trkpt>
      <trkpt lat="43.08401" lon="5.92656">
        <ele>2.54</ele>
        <time>2019-05-27T07:49:25Z</time>
      </trkpt>
      <trkpt lat="43.08435" lon="5.92693">
        <ele>2.06</ele>
        <time>2019-05-27T07:49:46Z</time>
      </trkpt>
      <trkpt lat="43.08471" lon="5.92739">
        <ele>2.06</ele>
        <time>2019-05-27T07:50:08Z</time>
      </trkpt>
      <trkpt lat="43.08505" lon="5.92779">
        <ele>3.02</ele>
        <time>2019-05-27T07:50:28Z</time>
      </trkpt>
      <trkpt lat="43.08524" lon="5.92805">
        <ele>3.02</ele>
        <time>2019-05-27T07:50:40Z</time>
      </trkpt>
      <trkpt lat="43.08548" lon="5.92838">
        <ele>3.5</ele>
        <time>2019-05-27T07:50:55Z</time>
      </trkpt>
      <trkpt lat="43.0858" lon="5.92871">
        <ele>3.02</ele>
        <time>2019-05-27T07:51:13Z</time>
      </trkpt>
      <trkpt lat="43.08621" lon="5.92905">
        <ele>2.54</ele>
        <time>2019-05-27T07:51:34Z</time>
      </trkpt>
      <trkpt lat="43.08654" lon="5.92939">
        <ele>3.5</ele>
        <time>2019-05-27T07:51:54Z</time>
      </trkpt>
      <trkpt lat="43.08681" lon="5.92966">
        <ele>3.02</ele>
        <time>2019-05-27T07:52:12Z</time>
      </trkpt>
      <trkpt lat="43.08706" lon="5.92994">
        <ele>3.02</ele>
        <time>2019-05-27T07:52:31Z</time>
      </trkpt>
      <trkpt lat="43.08732" lon="5.93021">
        <ele>3.02</ele>
        <time>2019-05-27T07:52:51Z</time>
      </trkpt>
      <trkpt lat="43.08754" lon="5.93043">
        <ele>2.54</ele>
        <time>2019-05-27T07:53:09Z</time>
      </trkpt>
      <trkpt lat="43.08778" lon="5.9307">
        <ele>2.54</ele>
        <time>2019-05-27T07:53:29Z</time>
      </trkpt>
      <trkpt lat="43.08805" lon="5.93101">
        <ele>2.06</ele>
        <time>2019-05-27T07:53:53Z</time>
      </trkpt>
      <trkpt lat="43.0883" lon="5.93134">
        <ele>2.06</ele>
        <time>2019-05-27T07:54:15Z</time>
      </trkpt>
      <trkpt lat="43.08853" lon="5.93176">
        <ele>3.02</ele>
        <time>2019-05-27T07:54:39Z</time>
      </trkpt>
      <trkpt lat="43.08872" lon="5.93211">
        <ele>3.02</ele>
        <time>2019-05-27T07:54:59Z</time>
      </trkpt>
      <trkpt lat="43.08889" lon="5.93254">
        <ele>2.54</ele>
        <time>2019-05-27T07:55:21Z</time>
      </trkpt>
      <trkpt lat="43.08906" lon="5.93299">
        <ele>2.06</ele>
        <time>2019-05-27T07:55:44Z</time>
      </trkpt>
      <trkpt lat="43.08925" lon="5.93361">
        <ele>1.58</ele>
        <time>2019-05-27T07:56:15Z</time>
      </trkpt>
      <trkpt lat="43.08941" lon="5.93423">
        <ele>2.54</ele>
        <time>2019-05-27T07:56:45Z</time>
      </trkpt>
      <trkpt lat="43.08958" lon="5.93475">
        <ele>1.1</ele>
        <time>2019-05-27T07:57:11Z</time>
      </trkpt>
      <trkpt lat="43.08979" lon="5.93502">
        <ele>1.1</ele>
        <time>2019-05-27T07:57:29Z</time>
      </trkpt>
      <trkpt lat="43.09007" lon="5.93533">
        <ele>2.06</ele>
        <time>2019-05-27T07:57:52Z</time>
      </trkpt>
      <trkpt lat="43.09037" lon="5.93564">
        <ele>2.06</ele>
        <time>2019-05-27T07:58:15Z</time>
      </trkpt>
      <trkpt lat="43.09062" lon="5.93602">
        <ele>1.1</ele>
        <time>2019-05-27T07:58:36Z</time>
      </trkpt>
      <trkpt lat="43.0909" lon="5.93662">
        <ele>0.62</ele>
        <time>2019-05-27T07:59:03Z</time>
      </trkpt>
      <trkpt lat="43.09122" lon="5.9373">
        <ele>1.1</ele>
        <time>2019-05-27T07:59:32Z</time>
      </trkpt>
      <trkpt lat="43.09147" lon="5.93787">
        <ele>1.58</ele>
        <time>2019-05-27T07:59:56Z</time>
      </trkpt>
      <trkpt lat="43.09173" lon="5.93834">
        <ele>1.1</ele>
        <time>2019-05-27T08:00:17Z</time>
      </trkpt>
      <trkpt lat="43.09203" lon="5.93893">
        <ele>1.58</ele>
        <time>2019-05-27T08:00:43Z</time>
      </trkpt>
      <trkpt lat="43.09235" lon="5.93944">
        <ele>2.54</ele>
        <time>2019-05-27T08:01:07Z</time>
      </trkpt>
      <trkpt lat="43.09273" lon="5.93996">
        <ele>1.58</ele>
        <time>2019-05-27T08:01:34Z</time>
      </trkpt>
      <trkpt lat="43.09313" lon="5.94036">
        <ele>0.14</ele>
        <time>2019-05-27T08:01:59Z</time>
      </trkpt>
      <trkpt lat="43.09353" lon="5.94063">
        <ele>0.14</ele>
        <time>2019-05-27T08:02:21Z</time>
      </trkpt>
      <trkpt lat="43.09393" lon="5.94095">
        <ele>-0.34</ele>
        <time>2019-05-27T08:02:44Z</time>
      </trkpt>
      <trkpt lat="43.09438" lon="5.94127">
        <ele>0.14</ele>
        <time>2019-05-27T08:03:09Z</time>
      </trkpt>
      <trkpt lat="43.0948" lon="5.94155">
        <ele>0.62</ele>
        <time>2019-05-27T08:03:33Z</time>
      </trkpt>
      <trkpt lat="43.09512" lon="5.9418">
        <ele>0.62</ele>
        <time>2019-05-27T08:03:52Z</time>
      </trkpt>
      <trkpt lat="43.09554" lon="5.94215">
        <ele>1.58</ele>
        <time>2019-05-27T08:04:17Z</time>
      </trkpt>
      <trkpt lat="43.09596" lon="5.94239">
        <ele>1.1</ele>
        <time>2019-05-27T08:04:40Z</time>
      </trkpt>
      <trkpt lat="43.09629" lon="5.94259">
        <ele>1.58</ele>
        <time>2019-05-27T08:04:59Z</time>
      </trkpt>
      <trkpt lat="43.09671" lon="5.94283">
        <ele>2.06</ele>
        <time>2019-05-27T08:05:23Z</time>
      </trkpt>
      <trkpt lat="43.09716" lon="5.94317">
        <ele>1.1</ele>
        <time>2019-05-27T08:05:50Z</time>
      </trkpt>
      <trkpt lat="43.09747" lon="5.9434">
        <ele>1.1</ele>
        <time>2019-05-27T08:06:09Z</time>
      </trkpt>
      <trkpt lat="43.09785" lon="5.94369">
        <ele>1.1</ele>
        <time>2019-05-27T08:06:32Z</time>
      </trkpt>
      <trkpt lat="43.0983" lon="5.94408">
        <ele>1.58</ele>
        <time>2019-05-27T08:07:00Z</time>
      </trkpt>
      <trkpt lat="43.09866" lon="5.94443">
        <ele>1.1</ele>
        <time>2019-05-27T08:07:23Z</time>
      </trkpt>
      <trkpt lat="43.09903" lon="5.94482">
        <ele>0.14</ele>
        <time>2019-05-27T08:07:48Z</time>
      </trkpt>
      <trkpt lat="43.09938" lon="5.94528">
        <ele>0.62</ele>
        <time>2019-05-27T08:08:14Z</time>
      </trkpt>
      <trkpt lat="43.09967" lon="5.94573">
        <ele>0.62</ele>
        <time>2019-05-27T08:08:37Z</time>
      </trkpt>
      <trkpt lat="43.10001" lon="5.94631">
        <ele>0.14</ele>
        <time>2019-05-27T08:09:06Z</time>
      </trkpt>
      <trkpt lat="43.10033" lon="5.94682">
        <ele>1.1</ele>
        <time>2019-05-27T08:09:32Z</time>
      </trkpt>
      <trkpt lat="43.10061" lon="5.94724">
        <ele>1.1</ele>
        <time>2019-05-27T08:09:54Z</time>
      </trkpt>
      <trkpt lat="43.10097" lon="5.94781">
        <ele>0.62</ele>
        <time>2019-05-27T08:10:23Z</time>
      </trkpt>
      <trkpt lat="43.10127" lon="5.94834">
        <ele>0.62</ele>
        <time>2019-05-27T08:10:49Z</time>
      </trkpt>
      <trkpt lat="43.10156" lon="5.94886">
        <ele>0.62</ele>
        <time>2019-05-27T08:11:14Z</time>
      </trkpt>
      <trkpt lat="43.1018" lon="5.94936">
        <ele>1.1</ele>
        <time>2019-05-27T08:11:37Z</time>
      </trkpt>
      <trkpt lat="43.10189" lon="5.94988">
        <ele>1.1</ele>
        <time>2019-05-27T08:11:59Z</time>
      </trkpt>
      <trkpt lat="43.10205" lon="5.95018">
        <ele>1.58</ele>
        <time>2019-05-27T08:12:17Z</time>
      </trkpt>
      <trkpt lat="43.10227" lon="5.95044">
        <ele>1.58</ele>
        <time>2019-05-27T08:12:38Z</time>
      </trkpt>
      <trkpt lat="43.10256" lon="5.9507">
        <ele>1.58</ele>
        <time>2019-05-27T08:13:04Z</time>
      </trkpt>
      <trkpt lat="43.10263" lon="5.95102">
        <ele>1.58</ele>
        <time>2019-05-27T08:13:23Z</time>
      </trkpt>
      <trkpt lat="43.10271" lon="5.95148">
        <ele>2.06</ele>
        <time>2019-05-27T08:13:51Z</time>
      </trkpt>
      <trkpt lat="43.10296" lon="5.95171">
        <ele>1.58</ele>
        <time>2019-05-27T08:14:15Z</time>
      </trkpt>
      <trkpt lat="43.10325" lon="5.95187">
        <ele>1.1</ele>
        <time>2019-05-27T08:14:40Z</time>
      </trkpt>
      <trkpt lat="43.1035" lon="5.95196">
        <ele>2.06</ele>
        <time>2019-05-27T08:15:00Z</time>
      </trkpt>
      <trkpt lat="43.10356" lon="5.95194">
        <ele>2.06</ele>
        <time>2019-05-27T08:15:05Z</time>
      </trkpt>
      <trkpt lat="43.10365" lon="5.95183">
        <ele>2.54</ele>
        <time>2019-05-27T08:15:15Z</time>
      </trkpt>
      <trkpt lat="43.10361" lon="5.95156">
        <ele>3.5</ele>
        <time>2019-05-27T08:15:37Z</time>
      </trkpt>
      <trkpt lat="43.10343" lon="5.95162">
        <ele>3.5</ele>
        <time>2019-05-27T08:15:56Z</time>
      </trkpt>
      <trkpt lat="43.10317" lon="5.95201">
        <ele>2.54</ele>
        <time>2019-05-27T08:16:17Z</time>
      </trkpt>
      <trkpt lat="43.10282" lon="5.95255">
        <ele>2.54</ele>
        <time>2019-05-27T08:16:38Z</time>
      </trkpt>
      <trkpt lat="43.10249" lon="5.95306">
        <ele>3.02</ele>
        <time>2019-05-27T08:16:57Z</time>
      </trkpt>
      <trkpt lat="43.10219" lon="5.95382">
        <ele>2.06</ele>
        <time>2019-05-27T08:17:19Z</time>
      </trkpt>
      <trkpt lat="43.10183" lon="5.95464">
        <ele>1.58</ele>
        <time>2019-05-27T08:17:43Z</time>
      </trkpt>
      <trkpt lat="43.1014" lon="5.95536">
        <ele>2.54</ele>
        <time>2019-05-27T08:18:06Z</time>
      </trkpt>
      <trkpt lat="43.10101" lon="5.95577">
        <ele>3.02</ele>
        <time>2019-05-27T08:18:23Z</time>
      </trkpt>
      <trkpt lat="43.10054" lon="5.95639">
        <ele>3.5</ele>
        <time>2019-05-27T08:18:44Z</time>
      </trkpt>
      <trkpt lat="43.09998" lon="5.95712">
        <ele>3.5</ele>
        <time>2019-05-27T08:19:12Z</time>
      </trkpt>
      <trkpt lat="43.09943" lon="5.95783">
        <ele>3.02</ele>
        <time>2019-05-27T08:19:43Z</time>
      </trkpt>
      <trkpt lat="43.09896" lon="5.95839">
        <ele>3.5</ele>
        <time>2019-05-27T08:20:09Z</time>
      </trkpt>
      <trkpt lat="43.09843" lon="5.95885">
        <ele>2.54</ele>
        <time>2019-05-27T08:20:35Z</time>
      </trkpt>
      <trkpt lat="43.09797" lon="5.95925">
        <ele>3.02</ele>
        <time>2019-05-27T08:20:57Z</time>
      </trkpt>
      <trkpt lat="43.09758" lon="5.95958">
        <ele>3.5</ele>
        <time>2019-05-27T08:21:16Z</time>
      </trkpt>
      <trkpt lat="43.09714" lon="5.95997">
        <ele>3.02</ele>
        <time>2019-05-27T08:21:38Z</time>
      </trkpt>
      <trkpt lat="43.09668" lon="5.9605">
        <ele>3.5</ele>
        <time>2019-05-27T08:22:03Z</time>
      </trkpt>
      <trkpt lat="43.09623" lon="5.96105">
        <ele>3.98</ele>
        <time>2019-05-27T08:22:28Z</time>
      </trkpt>
      <trkpt lat="43.09572" lon="5.96168">
        <ele>3.5</ele>
        <time>2019-05-27T08:22:56Z</time>
      </trkpt>
      <trkpt lat="43.09527" lon="5.96228">
        <ele>3.02</ele>
        <time>2019-05-27T08:23:22Z</time>
      </trkpt>
      <trkpt lat="43.09487" lon="5.96281">
        <ele>3.02</ele>
        <time>2019-05-27T08:23:45Z</time>
      </trkpt>
      <trkpt lat="43.09447" lon="5.96334">
        <ele>3.02</ele>
        <time>2019-05-27T08:24:08Z</time>
      </trkpt>
      <trkpt lat="43.094" lon="5.96396">
        <ele>2.54</ele>
        <time>2019-05-27T08:24:35Z</time>
      </trkpt>
      <trkpt lat="43.09354" lon="5.96456">
        <ele>2.54</ele>
        <time>2019-05-27T08:25:01Z</time>
      </trkpt>
      <trkpt lat="43.09309" lon="5.96517">
        <ele>3.02</ele>
        <time>2019-05-27T08:25:27Z</time>
      </trkpt>
      <trkpt lat="43.09264" lon="5.96578">
        <ele>3.02</ele>
        <time>2019-05-27T08:25:53Z</time>
      </trkpt>
      <trkpt lat="43.09216" lon="5.96644">
        <ele>2.54</ele>
        <time>2019-05-27T08:26:20Z</time>
      </trkpt>
      <trkpt lat="43.09173" lon="5.96707">
        <ele>3.02</ele>
        <time>2019-05-27T08:26:43Z</time>
      </trkpt>
      <trkpt lat="43.09131" lon="5.96773">
        <ele>3.02</ele>
        <time>2019-05-27T08:27:06Z</time>
      </trkpt>
      <trkpt lat="43.09086" lon="5.96851">
        <ele>2.54</ele>
        <time>2019-05-27T08:27:32Z</time>
      </trkpt>
      <trkpt lat="43.09039" lon="5.96936">
        <ele>2.54</ele>
        <time>2019-05-27T08:28:00Z</time>
      </trkpt>
      <trkpt lat="43.09003" lon="5.97001">
        <ele>2.54</ele>
        <time>2019-05-27T08:28:21Z</time>
      </trkpt>
      <trkpt lat="43.08968" lon="5.97062">
        <ele>2.06</ele>
        <time>2019-05-27T08:28:41Z</time>
      </trkpt>
      <trkpt lat="43.08929" lon="5.97133">
        <ele>2.06</ele>
        <time>2019-05-27T08:29:04Z</time>
      </trkpt>
      <trkpt lat="43.08895" lon="5.97195">
        <ele>2.06</ele>
        <time>2019-05-27T08:29:24Z</time>
      </trkpt>
      <trkpt lat="43.08861" lon="5.97256">
        <ele>3.02</ele>
        <time>2019-05-27T08:29:44Z</time>
      </trkpt>
      <trkpt lat="43.08837" lon="5.97299">
        <ele>2.54</ele>
        <time>2019-05-27T08:29:58Z</time>
      </trkpt>
      <trkpt lat="43.08804" lon="5.97357">
        <ele>2.06</ele>
        <time>2019-05-27T08:30:17Z</time>
      </trkpt>
      <trkpt lat="43.08771" lon="5.97416">
        <ele>2.06</ele>
        <time>2019-05-27T08:30:36Z</time>
      </trkpt>
      <trkpt lat="43.08742" lon="5.97468">
        <ele>2.06</ele>
        <time>2019-05-27T08:30:53Z</time>
      </trkpt>
      <trkpt lat="43.08713" lon="5.97521">
        <ele>1.58</ele>
        <time>2019-05-27T08:31:10Z</time>
      </trkpt>
      <trkpt lat="43.08681" lon="5.97577">
        <ele>2.06</ele>
        <time>2019-05-27T08:31:28Z</time>
      </trkpt>
      <trkpt lat="43.0865" lon="5.97632">
        <ele>2.54</ele>
        <time>2019-05-27T08:31:46Z</time>
      </trkpt>
      <trkpt lat="43.08617" lon="5.97692">
        <ele>1.58</ele>
        <time>2019-05-27T08:32:05Z</time>
      </trkpt>
      <trkpt lat="43.08581" lon="5.97753">
        <ele>2.06</ele>
        <time>2019-05-27T08:32:25Z</time>
      </trkpt>
      <trkpt lat="43.08543" lon="5.97821">
        <ele>2.06</ele>
        <time>2019-05-27T08:32:47Z</time>
      </trkpt>
      <trkpt lat="43.085" lon="5.97895">
        <ele>2.06</ele>
        <time>2019-05-27T08:33:11Z</time>
      </trkpt>
      <trkpt lat="43.08469" lon="5.97951">
        <ele>2.06</ele>
        <time>2019-05-27T08:33:29Z</time>
      </trkpt>
      <trkpt lat="43.08438" lon="5.98007">
        <ele>2.54</ele>
        <time>2019-05-27T08:33:47Z</time>
      </trkpt>
      <trkpt lat="43.0841" lon="5.98056">
        <ele>2.06</ele>
        <time>2019-05-27T08:34:03Z</time>
      </trkpt>
      <trkpt lat="43.08376" lon="5.98116">
        <ele>2.54</ele>
        <time>2019-05-27T08:34:22Z</time>
      </trkpt>
      <trkpt lat="43.08348" lon="5.98166">
        <ele>3.02</ele>
        <time>2019-05-27T08:34:38Z</time>
      </trkpt>
      <trkpt lat="43.08314" lon="5.98227">
        <ele>3.02</ele>
        <time>2019-05-27T08:34:58Z</time>
      </trkpt>
      <trkpt lat="43.08282" lon="5.98282">
        <ele>3.02</ele>
        <time>2019-05-27T08:35:16Z</time>
      </trkpt>
      <trkpt lat="43.08245" lon="5.98347">
        <ele>2.54</ele>
        <time>2019-05-27T08:35:37Z</time>
      </trkpt>
      <trkpt lat="43.08216" lon="5.98399">
        <ele>2.54</ele>
        <time>2019-05-27T08:35:54Z</time>
      </trkpt>
      <trkpt lat="43.08184" lon="5.98454">
        <ele>3.02</ele>
        <time>2019-05-27T08:36:12Z</time>
      </trkpt>
      <trkpt lat="43.08147" lon="5.98517">
        <ele>2.54</ele>
        <time>2019-05-27T08:36:33Z</time>
      </trkpt>
      <trkpt lat="43.0812" lon="5.98563">
        <ele>3.02</ele>
        <time>2019-05-27T08:36:48Z</time>
      </trkpt>
      <trkpt lat="43.08084" lon="5.98625">
        <ele>2.54</ele>
        <time>2019-05-27T08:37:09Z</time>
      </trkpt>
      <trkpt lat="43.08054" lon="5.98676">
        <ele>2.06</ele>
        <time>2019-05-27T08:37:26Z</time>
      </trkpt>
      <trkpt lat="43.08017" lon="5.98739">
        <ele>2.06</ele>
        <time>2019-05-27T08:37:47Z</time>
      </trkpt>
      <trkpt lat="43.07981" lon="5.98798">
        <ele>1.58</ele>
        <time>2019-05-27T08:38:07Z</time>
      </trkpt>
      <trkpt lat="43.07951" lon="5.98849">
        <ele>1.58</ele>
        <time>2019-05-27T08:38:24Z</time>
      </trkpt>
      <trkpt lat="43.07923" lon="5.98898">
        <ele>1.58</ele>
        <time>2019-05-27T08:38:40Z</time>
      </trkpt>
      <trkpt lat="43.07894" lon="5.98946">
        <ele>1.58</ele>
        <time>2019-05-27T08:38:56Z</time>
      </trkpt>
      <trkpt lat="43.0786" lon="5.99003">
        <ele>1.58</ele>
        <time>2019-05-27T08:39:15Z</time>
      </trkpt>
      <trkpt lat="43.0783" lon="5.99054">
        <ele>2.54</ele>
        <time>2019-05-27T08:39:32Z</time>
      </trkpt>
      <trkpt lat="43.07798" lon="5.99108">
        <ele>2.06</ele>
        <time>2019-05-27T08:39:50Z</time>
      </trkpt>
      <trkpt lat="43.07766" lon="5.99161">
        <ele>2.06</ele>
        <time>2019-05-27T08:40:08Z</time>
      </trkpt>
      <trkpt lat="43.07735" lon="5.99216">
        <ele>1.58</ele>
        <time>2019-05-27T08:40:26Z</time>
      </trkpt>
      <trkpt lat="43.07705" lon="5.99267">
        <ele>1.58</ele>
        <time>2019-05-27T08:40:43Z</time>
      </trkpt>
      <trkpt lat="43.07674" lon="5.99321">
        <ele>0.62</ele>
        <time>2019-05-27T08:41:01Z</time>
      </trkpt>
      <trkpt lat="43.07639" lon="5.99382">
        <ele>0.62</ele>
        <time>2019-05-27T08:41:21Z</time>
      </trkpt>
      <trkpt lat="43.07607" lon="5.99439">
        <ele>1.1</ele>
        <time>2019-05-27T08:41:40Z</time>
      </trkpt>
      <trkpt lat="43.07576" lon="5.99493">
        <ele>1.1</ele>
        <time>2019-05-27T08:41:58Z</time>
      </trkpt>
      <trkpt lat="43.07545" lon="5.99547">
        <ele>1.1</ele>
        <time>2019-05-27T08:42:16Z</time>
      </trkpt>
      <trkpt lat="43.07511" lon="5.99607">
        <ele>1.1</ele>
        <time>2019-05-27T08:42:36Z</time>
      </trkpt>
      <trkpt lat="43.07484" lon="5.99656">
        <ele>1.1</ele>
        <time>2019-05-27T08:42:52Z</time>
      </trkpt>
      <trkpt lat="43.07447" lon="5.99721">
        <ele>0.62</ele>
        <time>2019-05-27T08:43:13Z</time>
      </trkpt>
      <trkpt lat="43.07413" lon="5.99782">
        <ele>0.62</ele>
        <time>2019-05-27T08:43:33Z</time>
      </trkpt>
      <trkpt lat="43.07378" lon="5.99842">
        <ele>0.62</ele>
        <time>2019-05-27T08:43:53Z</time>
      </trkpt>
      <trkpt lat="43.07347" lon="5.99898">
        <ele>1.1</ele>
        <time>2019-05-27T08:44:11Z</time>
      </trkpt>
      <trkpt lat="43.07316" lon="5.99954">
        <ele>1.1</ele>
        <time>2019-05-27T08:44:29Z</time>
      </trkpt>
      <trkpt lat="43.07284" lon="6.0001">
        <ele>1.58</ele>
        <time>2019-05-27T08:44:47Z</time>
      </trkpt>
      <trkpt lat="43.07251" lon="6.00069">
        <ele>1.58</ele>
        <time>2019-05-27T08:45:06Z</time>
      </trkpt>
      <trkpt lat="43.07218" lon="6.00128">
        <ele>1.58</ele>
        <time>2019-05-27T08:45:25Z</time>
      </trkpt>
      <trkpt lat="43.07182" lon="6.00193">
        <ele>1.58</ele>
        <time>2019-05-27T08:45:46Z</time>
      </trkpt>
      <trkpt lat="43.07152" lon="6.00246">
        <ele>1.58</ele>
        <time>2019-05-27T08:46:03Z</time>
      </trkpt>
      <trkpt lat="43.07124" lon="6.00296">
        <ele>1.58</ele>
        <time>2019-05-27T08:46:19Z</time>
      </trkpt>
      <trkpt lat="43.07091" lon="6.00356">
        <ele>1.58</ele>
        <time>2019-05-27T08:46:38Z</time>
      </trkpt>
      <trkpt lat="43.07065" lon="6.00402">
        <ele>1.58</ele>
        <time>2019-05-27T08:46:53Z</time>
      </trkpt>
      <trkpt lat="43.07037" lon="6.00455">
        <ele>1.1</ele>
        <time>2019-05-27T08:47:10Z</time>
      </trkpt>
      <trkpt lat="43.06995" lon="6.0053">
        <ele>2.06</ele>
        <time>2019-05-27T08:47:34Z</time>
      </trkpt>
      <trkpt lat="43.06961" lon="6.00591">
        <ele>2.06</ele>
        <time>2019-05-27T08:47:54Z</time>
      </trkpt>
      <trkpt lat="43.06931" lon="6.00644">
        <ele>2.06</ele>
        <time>2019-05-27T08:48:11Z</time>
      </trkpt>
      <trkpt lat="43.06901" lon="6.00696">
        <ele>2.06</ele>
        <time>2019-05-27T08:48:28Z</time>
      </trkpt>
      <trkpt lat="43.06871" lon="6.00753">
        <ele>2.06</ele>
        <time>2019-05-27T08:48:46Z</time>
      </trkpt>
      <trkpt lat="43.06838" lon="6.00811">
        <ele>1.58</ele>
        <time>2019-05-27T08:49:05Z</time>
      </trkpt>
      <trkpt lat="43.06802" lon="6.00879">
        <ele>1.58</ele>
        <time>2019-05-27T08:49:27Z</time>
      </trkpt>
      <trkpt lat="43.06769" lon="6.00937">
        <ele>2.06</ele>
        <time>2019-05-27T08:49:46Z</time>
      </trkpt>
      <trkpt lat="43.0674" lon="6.00989">
        <ele>3.02</ele>
        <time>2019-05-27T08:50:03Z</time>
      </trkpt>
      <trkpt lat="43.06709" lon="6.01044">
        <ele>2.54</ele>
        <time>2019-05-27T08:50:21Z</time>
      </trkpt>
      <trkpt lat="43.0668" lon="6.011">
        <ele>2.54</ele>
        <time>2019-05-27T08:50:39Z</time>
      </trkpt>
      <trkpt lat="43.06654" lon="6.01149">
        <ele>2.06</ele>
        <time>2019-05-27T08:50:55Z</time>
      </trkpt>
      <trkpt lat="43.06628" lon="6.01198">
        <ele>2.06</ele>
        <time>2019-05-27T08:51:11Z</time>
      </trkpt>
      <trkpt lat="43.06604" lon="6.01244">
        <ele>1.58</ele>
        <time>2019-05-27T08:51:26Z</time>
      </trkpt>
      <trkpt lat="43.06577" lon="6.01297">
        <ele>1.58</ele>
        <time>2019-05-27T08:51:43Z</time>
      </trkpt>
      <trkpt lat="43.06553" lon="6.01343">
        <ele>1.58</ele>
        <time>2019-05-27T08:51:58Z</time>
      </trkpt>
      <trkpt lat="43.06519" lon="6.01408">
        <ele>2.06</ele>
        <time>2019-05-27T08:52:19Z</time>
      </trkpt>
      <trkpt lat="43.06487" lon="6.01469">
        <ele>2.06</ele>
        <time>2019-05-27T08:52:39Z</time>
      </trkpt>
      <trkpt lat="43.06457" lon="6.01529">
        <ele>1.58</ele>
        <time>2019-05-27T08:52:58Z</time>
      </trkpt>
      <trkpt lat="43.06433" lon="6.01576">
        <ele>2.06</ele>
        <time>2019-05-27T08:53:13Z</time>
      </trkpt>
      <trkpt lat="43.06402" lon="6.01636">
        <ele>2.06</ele>
        <time>2019-05-27T08:53:32Z</time>
      </trkpt>
      <trkpt lat="43.0637" lon="6.01696">
        <ele>2.06</ele>
        <time>2019-05-27T08:53:51Z</time>
      </trkpt>
      <trkpt lat="43.06341" lon="6.01757">
        <ele>2.54</ele>
        <time>2019-05-27T08:54:10Z</time>
      </trkpt>
      <trkpt lat="43.06318" lon="6.01801">
        <ele>3.02</ele>
        <time>2019-05-27T08:54:24Z</time>
      </trkpt>
      <trkpt lat="43.06292" lon="6.01851">
        <ele>3.02</ele>
        <time>2019-05-27T08:54:40Z</time>
      </trkpt>
      <trkpt lat="43.06261" lon="6.01911">
        <ele>3.02</ele>
        <time>2019-05-27T08:54:59Z</time>
      </trkpt>
      <trkpt lat="43.06227" lon="6.01977">
        <ele>2.54</ele>
        <time>2019-05-27T08:55:20Z</time>
      </trkpt>
      <trkpt lat="43.06199" lon="6.02031">
        <ele>2.54</ele>
        <time>2019-05-27T08:55:37Z</time>
      </trkpt>
      <trkpt lat="43.06164" lon="6.02101">
        <ele>2.54</ele>
        <time>2019-05-27T08:55:59Z</time>
      </trkpt>
      <trkpt lat="43.06135" lon="6.02159">
        <ele>2.06</ele>
        <time>2019-05-27T08:56:17Z</time>
      </trkpt>
      <trkpt lat="43.06103" lon="6.02222">
        <ele>2.54</ele>
        <time>2019-05-27T08:56:37Z</time>
      </trkpt>
      <trkpt lat="43.06078" lon="6.02273">
        <ele>2.54</ele>
        <time>2019-05-27T08:56:53Z</time>
      </trkpt>
      <trkpt lat="43.0605" lon="6.02326">
        <ele>2.54</ele>
        <time>2019-05-27T08:57:10Z</time>
      </trkpt>
      <trkpt lat="43.06028" lon="6.0237">
        <ele>2.54</ele>
        <time>2019-05-27T08:57:24Z</time>
      </trkpt>
      <trkpt lat="43.06005" lon="6.02417">
        <ele>3.02</ele>
        <time>2019-05-27T08:57:39Z</time>
      </trkpt>
      <trkpt lat="43.05974" lon="6.02477">
        <ele>2.54</ele>
        <time>2019-05-27T08:57:58Z</time>
      </trkpt>
      <trkpt lat="43.05939" lon="6.02546">
        <ele>1.58</ele>
        <time>2019-05-27T08:58:20Z</time>
      </trkpt>
      <trkpt lat="43.0591" lon="6.02599">
        <ele>2.06</ele>
        <time>2019-05-27T08:58:37Z</time>
      </trkpt>
      <trkpt lat="43.05882" lon="6.02656">
        <ele>2.06</ele>
        <time>2019-05-27T08:58:55Z</time>
      </trkpt>
      <trkpt lat="43.05853" lon="6.02717">
        <ele>2.06</ele>
        <time>2019-05-27T08:59:14Z</time>
      </trkpt>
      <trkpt lat="43.05827" lon="6.02768">
        <ele>2.54</ele>
        <time>2019-05-27T08:59:29Z</time>
      </trkpt>
      <trkpt lat="43.05802" lon="6.02816">
        <ele>2.54</ele>
        <time>2019-05-27T08:59:43Z</time>
      </trkpt>
      <trkpt lat="43.05771" lon="6.02877">
        <ele>2.54</ele>
        <time>2019-05-27T09:00:00Z</time>
      </trkpt>
      <trkpt lat="43.05744" lon="6.02933">
        <ele>2.06</ele>
        <time>2019-05-27T09:00:16Z</time>
      </trkpt>
      <trkpt lat="43.05709" lon="6.02999">
        <ele>2.54</ele>
        <time>2019-05-27T09:00:35Z</time>
      </trkpt>
      <trkpt lat="43.0568" lon="6.03054">
        <ele>2.54</ele>
        <time>2019-05-27T09:00:51Z</time>
      </trkpt>
      <trkpt lat="43.05654" lon="6.03108">
        <ele>2.54</ele>
        <time>2019-05-27T09:01:06Z</time>
      </trkpt>
      <trkpt lat="43.05627" lon="6.03161">
        <ele>2.06</ele>
        <time>2019-05-27T09:01:21Z</time>
      </trkpt>
      <trkpt lat="43.05601" lon="6.03211">
        <ele>2.54</ele>
        <time>2019-05-27T09:01:35Z</time>
      </trkpt>
      <trkpt lat="43.05575" lon="6.03264">
        <ele>2.06</ele>
        <time>2019-05-27T09:01:50Z</time>
      </trkpt>
      <trkpt lat="43.05547" lon="6.03322">
        <ele>1.58</ele>
        <time>2019-05-27T09:02:06Z</time>
      </trkpt>
      <trkpt lat="43.05518" lon="6.03378">
        <ele>0.62</ele>
        <time>2019-05-27T09:02:22Z</time>
      </trkpt>
      <trkpt lat="43.05485" lon="6.03444">
        <ele>-0.34</ele>
        <time>2019-05-27T09:02:41Z</time>
      </trkpt>
      <trkpt lat="43.05453" lon="6.03508">
        <ele>-0.82</ele>
        <time>2019-05-27T09:02:59Z</time>
      </trkpt>
      <trkpt lat="43.05422" lon="6.03568">
        <ele>-1.79</ele>
        <time>2019-05-27T09:03:16Z</time>
      </trkpt>
      <trkpt lat="43.05391" lon="6.03629">
        <ele>-1.79</ele>
        <time>2019-05-27T09:03:33Z</time>
      </trkpt>
      <trkpt lat="43.05366" lon="6.03678">
        <ele>-1.79</ele>
        <time>2019-05-27T09:03:46Z</time>
      </trkpt>
      <trkpt lat="43.05337" lon="6.03734">
        <ele>-1.3</ele>
        <time>2019-05-27T09:04:02Z</time>
      </trkpt>
      <trkpt lat="43.0531" lon="6.03786">
        <ele>-0.82</ele>
        <time>2019-05-27T09:04:17Z</time>
      </trkpt>
      <trkpt lat="43.05282" lon="6.03842">
        <ele>-0.82</ele>
        <time>2019-05-27T09:04:33Z</time>
      </trkpt>
      <trkpt lat="43.0525" lon="6.03904">
        <ele>-0.82</ele>
        <time>2019-05-27T09:04:51Z</time>
      </trkpt>
      <trkpt lat="43.05218" lon="6.03966">
        <ele>-1.3</ele>
        <time>2019-05-27T09:05:09Z</time>
      </trkpt>
      <trkpt lat="43.05184" lon="6.04036">
        <ele>-0.82</ele>
        <time>2019-05-27T09:05:29Z</time>
      </trkpt>
      <trkpt lat="43.05152" lon="6.04098">
        <ele>-1.3</ele>
        <time>2019-05-27T09:05:47Z</time>
      </trkpt>
      <trkpt lat="43.05124" lon="6.04153">
        <ele>-0.34</ele>
        <time>2019-05-27T09:06:03Z</time>
      </trkpt>
      <trkpt lat="43.0509" lon="6.0422">
        <ele>-0.34</ele>
        <time>2019-05-27T09:06:22Z</time>
      </trkpt>
      <trkpt lat="43.0506" lon="6.0428">
        <ele>-0.82</ele>
        <time>2019-05-27T09:06:39Z</time>
      </trkpt>
      <trkpt lat="43.05028" lon="6.04342">
        <ele>-0.82</ele>
        <time>2019-05-27T09:06:57Z</time>
      </trkpt>
      <trkpt lat="43.04996" lon="6.04405">
        <ele>-0.34</ele>
        <time>2019-05-27T09:07:15Z</time>
      </trkpt>
      <trkpt lat="43.04969" lon="6.04456">
        <ele>-0.34</ele>
        <time>2019-05-27T09:07:30Z</time>
      </trkpt>
      <trkpt lat="43.04935" lon="6.04522">
        <ele>-0.34</ele>
        <time>2019-05-27T09:07:49Z</time>
      </trkpt>
      <trkpt lat="43.04909" lon="6.04571">
        <ele>-0.82</ele>
        <time>2019-05-27T09:08:03Z</time>
      </trkpt>
      <trkpt lat="43.04881" lon="6.04626">
        <ele>-0.82</ele>
        <time>2019-05-27T09:08:19Z</time>
      </trkpt>
      <trkpt lat="43.0485" lon="6.04685">
        <ele>-0.34</ele>
        <time>2019-05-27T09:08:36Z</time>
      </trkpt>
      <trkpt lat="43.04823" lon="6.04737">
        <ele>-0.82</ele>
        <time>2019-05-27T09:08:51Z</time>
      </trkpt>
      <trkpt lat="43.04797" lon="6.04789">
        <ele>0.14</ele>
        <time>2019-05-27T09:09:06Z</time>
      </trkpt>
      <trkpt lat="43.04766" lon="6.04848">
        <ele>-0.82</ele>
        <time>2019-05-27T09:09:23Z</time>
      </trkpt>
      <trkpt lat="43.04742" lon="6.04897">
        <ele>-0.34</ele>
        <time>2019-05-27T09:09:37Z</time>
      </trkpt>
      <trkpt lat="43.04715" lon="6.04948">
        <ele>-0.82</ele>
        <time>2019-05-27T09:09:52Z</time>
      </trkpt>
      <trkpt lat="43.04682" lon="6.05014">
        <ele>-1.79</ele>
        <time>2019-05-27T09:10:11Z</time>
      </trkpt>
      <trkpt lat="43.04654" lon="6.05069">
        <ele>-1.79</ele>
        <time>2019-05-27T09:10:27Z</time>
      </trkpt>
      <trkpt lat="43.04623" lon="6.05132">
        <ele>-1.79</ele>
        <time>2019-05-27T09:10:45Z</time>
      </trkpt>
      <trkpt lat="43.0459" lon="6.05197">
        <ele>-0.82</ele>
        <time>2019-05-27T09:11:04Z</time>
      </trkpt>
      <trkpt lat="43.0456" lon="6.05255">
        <ele>-0.82</ele>
        <time>2019-05-27T09:11:21Z</time>
      </trkpt>
      <trkpt lat="43.04537" lon="6.053">
        <ele>-0.82</ele>
        <time>2019-05-27T09:11:34Z</time>
      </trkpt>
      <trkpt lat="43.04506" lon="6.05363">
        <ele>-0.34</ele>
        <time>2019-05-27T09:11:52Z</time>
      </trkpt>
      <trkpt lat="43.04481" lon="6.05415">
        <ele>0.62</ele>
        <time>2019-05-27T09:12:07Z</time>
      </trkpt>
      <trkpt lat="43.04456" lon="6.05467">
        <ele>0.62</ele>
        <time>2019-05-27T09:12:22Z</time>
      </trkpt>
      <trkpt lat="43.0443" lon="6.05519">
        <ele>0.14</ele>
        <time>2019-05-27T09:12:37Z</time>
      </trkpt>
      <trkpt lat="43.04412" lon="6.05556">
        <ele>0.14</ele>
        <time>2019-05-27T09:12:48Z</time>
      </trkpt>
      <trkpt lat="43.0438" lon="6.05622">
        <ele>1.58</ele>
        <time>2019-05-27T09:13:07Z</time>
      </trkpt>
      <trkpt lat="43.04355" lon="6.05673">
        <ele>2.06</ele>
        <time>2019-05-27T09:13:22Z</time>
      </trkpt>
      <trkpt lat="43.04326" lon="6.05732">
        <ele>2.06</ele>
        <time>2019-05-27T09:13:39Z</time>
      </trkpt>
      <trkpt lat="43.043" lon="6.05782">
        <ele>2.06</ele>
        <time>2019-05-27T09:13:54Z</time>
      </trkpt>
      <trkpt lat="43.04277" lon="6.0583">
        <ele>3.02</ele>
        <time>2019-05-27T09:14:08Z</time>
      </trkpt>
      <trkpt lat="43.04249" lon="6.05887">
        <ele>3.5</ele>
        <time>2019-05-27T09:14:25Z</time>
      </trkpt>
      <trkpt lat="43.04225" lon="6.0594">
        <ele>3.98</ele>
        <time>2019-05-27T09:14:40Z</time>
      </trkpt>
      <trkpt lat="43.04202" lon="6.05986">
        <ele>3.02</ele>
        <time>2019-05-27T09:14:54Z</time>
      </trkpt>
      <trkpt lat="43.04182" lon="6.06026">
        <ele>3.02</ele>
        <time>2019-05-27T09:15:06Z</time>
      </trkpt>
      <trkpt lat="43.04154" lon="6.06084">
        <ele>3.5</ele>
        <time>2019-05-27T09:15:23Z</time>
      </trkpt>
      <trkpt lat="43.04127" lon="6.06139">
        <ele>3.5</ele>
        <time>2019-05-27T09:15:39Z</time>
      </trkpt>
      <trkpt lat="43.04103" lon="6.06186">
        <ele>2.54</ele>
        <time>2019-05-27T09:15:53Z</time>
      </trkpt>
      <trkpt lat="43.04082" lon="6.06227">
        <ele>2.54</ele>
        <time>2019-05-27T09:16:05Z</time>
      </trkpt>
      <trkpt lat="43.04055" lon="6.0628">
        <ele>3.02</ele>
        <time>2019-05-27T09:16:22Z</time>
      </trkpt>
      <trkpt lat="43.04027" lon="6.06337">
        <ele>3.02</ele>
        <time>2019-05-27T09:16:39Z</time>
      </trkpt>
      <trkpt lat="43.03993" lon="6.06404">
        <ele>2.06</ele>
        <time>2019-05-27T09:16:59Z</time>
      </trkpt>
      <trkpt lat="43.03964" lon="6.06462">
        <ele>2.06</ele>
        <time>2019-05-27T09:17:16Z</time>
      </trkpt>
      <trkpt lat="43.03935" lon="6.06522">
        <ele>2.06</ele>
        <time>2019-05-27T09:17:34Z</time>
      </trkpt>
      <trkpt lat="43.03905" lon="6.06578">
        <ele>1.58</ele>
        <time>2019-05-27T09:17:51Z</time>
      </trkpt>
      <trkpt lat="43.03875" lon="6.06639">
        <ele>2.06</ele>
        <time>2019-05-27T09:18:09Z</time>
      </trkpt>
      <trkpt lat="43.03848" lon="6.06694">
        <ele>1.58</ele>
        <time>2019-05-27T09:18:25Z</time>
      </trkpt>
      <trkpt lat="43.03819" lon="6.06751">
        <ele>2.06</ele>
        <time>2019-05-27T09:18:42Z</time>
      </trkpt>
      <trkpt lat="43.0379" lon="6.06812">
        <ele>2.06</ele>
        <time>2019-05-27T09:19:00Z</time>
      </trkpt>
      <trkpt lat="43.03763" lon="6.06866">
        <ele>2.06</ele>
        <time>2019-05-27T09:19:16Z</time>
      </trkpt>
      <trkpt lat="43.03738" lon="6.06916">
        <ele>1.58</ele>
        <time>2019-05-27T09:19:31Z</time>
      </trkpt>
      <trkpt lat="43.03708" lon="6.06972">
        <ele>1.58</ele>
        <time>2019-05-27T09:19:48Z</time>
      </trkpt>
      <trkpt lat="43.03686" lon="6.07014">
        <ele>1.1</ele>
        <time>2019-05-27T09:20:00Z</time>
      </trkpt>
      <trkpt lat="43.0366" lon="6.07063">
        <ele>1.1</ele>
        <time>2019-05-27T09:20:15Z</time>
      </trkpt>
      <trkpt lat="43.03628" lon="6.07124">
        <ele>1.1</ele>
        <time>2019-05-27T09:20:33Z</time>
      </trkpt>
      <trkpt lat="43.03597" lon="6.07183">
        <ele>0.62</ele>
        <time>2019-05-27T09:20:51Z</time>
      </trkpt>
      <trkpt lat="43.03564" lon="6.07242">
        <ele>0.62</ele>
        <time>2019-05-27T09:21:09Z</time>
      </trkpt>
      <trkpt lat="43.0354" lon="6.07284">
        <ele>1.1</ele>
        <time>2019-05-27T09:21:22Z</time>
      </trkpt>
      <trkpt lat="43.03513" lon="6.07335">
        <ele>1.58</ele>
        <time>2019-05-27T09:21:37Z</time>
      </trkpt>
      <trkpt lat="43.03479" lon="6.07397">
        <ele>1.1</ele>
        <time>2019-05-27T09:21:56Z</time>
      </trkpt>
      <trkpt lat="43.0345" lon="6.07451">
        <ele>1.1</ele>
        <time>2019-05-27T09:22:12Z</time>
      </trkpt>
      <trkpt lat="43.03426" lon="6.07498">
        <ele>1.1</ele>
        <time>2019-05-27T09:22:26Z</time>
      </trkpt>
      <trkpt lat="43.03404" lon="6.07538">
        <ele>1.1</ele>
        <time>2019-05-27T09:22:39Z</time>
      </trkpt>
      <trkpt lat="43.03375" lon="6.07589">
        <ele>0.14</ele>
        <time>2019-05-27T09:22:56Z</time>
      </trkpt>
      <trkpt lat="43.03349" lon="6.07638">
        <ele>0.62</ele>
        <time>2019-05-27T09:23:13Z</time>
      </trkpt>
      <trkpt lat="43.03326" lon="6.07681">
        <ele>1.58</ele>
        <time>2019-05-27T09:23:28Z</time>
      </trkpt>
      <trkpt lat="43.03307" lon="6.07717">
        <ele>0.62</ele>
        <time>2019-05-27T09:23:40Z</time>
      </trkpt>
      <trkpt lat="43.03284" lon="6.0776">
        <ele>1.1</ele>
        <time>2019-05-27T09:23:55Z</time>
      </trkpt>
      <trkpt lat="43.0326" lon="6.07803">
        <ele>1.58</ele>
        <time>2019-05-27T09:24:10Z</time>
      </trkpt>
      <trkpt lat="43.03237" lon="6.07848">
        <ele>1.58</ele>
        <time>2019-05-27T09:24:24Z</time>
      </trkpt>
      <trkpt lat="43.03211" lon="6.07898">
        <ele>1.58</ele>
        <time>2019-05-27T09:24:38Z</time>
      </trkpt>
      <trkpt lat="43.03185" lon="6.07949">
        <ele>1.1</ele>
        <time>2019-05-27T09:24:52Z</time>
      </trkpt>
      <trkpt lat="43.03155" lon="6.08004">
        <ele>1.1</ele>
        <time>2019-05-27T09:25:07Z</time>
      </trkpt>
      <trkpt lat="43.0313" lon="6.08053">
        <ele>1.1</ele>
        <time>2019-05-27T09:25:20Z</time>
      </trkpt>
      <trkpt lat="43.03107" lon="6.08096">
        <ele>2.06</ele>
        <time>2019-05-27T09:25:32Z</time>
      </trkpt>
      <trkpt lat="43.03084" lon="6.0814">
        <ele>2.54</ele>
        <time>2019-05-27T09:25:44Z</time>
      </trkpt>
      <trkpt lat="43.03056" lon="6.0819">
        <ele>1.58</ele>
        <time>2019-05-27T09:25:58Z</time>
      </trkpt>
      <trkpt lat="43.0303" lon="6.08241">
        <ele>1.58</ele>
        <time>2019-05-27T09:26:12Z</time>
      </trkpt>
      <trkpt lat="43.0301" lon="6.08278">
        <ele>1.58</ele>
        <time>2019-05-27T09:26:23Z</time>
      </trkpt>
      <trkpt lat="43.02982" lon="6.08332">
        <ele>1.58</ele>
        <time>2019-05-27T09:26:38Z</time>
      </trkpt>
      <trkpt lat="43.0295" lon="6.08394">
        <ele>2.06</ele>
        <time>2019-05-27T09:26:55Z</time>
      </trkpt>
      <trkpt lat="43.02924" lon="6.08448">
        <ele>2.06</ele>
        <time>2019-05-27T09:27:10Z</time>
      </trkpt>
      <trkpt lat="43.02899" lon="6.08504">
        <ele>3.02</ele>
        <time>2019-05-27T09:27:25Z</time>
      </trkpt>
      <trkpt lat="43.02879" lon="6.08549">
        <ele>2.54</ele>
        <time>2019-05-27T09:27:37Z</time>
      </trkpt>
      <trkpt lat="43.02856" lon="6.086">
        <ele>2.54</ele>
        <time>2019-05-27T09:27:50Z</time>
      </trkpt>
      <trkpt lat="43.02829" lon="6.0866">
        <ele>2.06</ele>
        <time>2019-05-27T09:28:06Z</time>
      </trkpt>
      <trkpt lat="43.02807" lon="6.0871">
        <ele>2.06</ele>
        <time>2019-05-27T09:28:19Z</time>
      </trkpt>
      <trkpt lat="43.02784" lon="6.08763">
        <ele>2.54</ele>
        <time>2019-05-27T09:28:33Z</time>
      </trkpt>
      <trkpt lat="43.02756" lon="6.08828">
        <ele>3.02</ele>
        <time>2019-05-27T09:28:50Z</time>
      </trkpt>
      <trkpt lat="43.0273" lon="6.08887">
        <ele>3.02</ele>
        <time>2019-05-27T09:29:06Z</time>
      </trkpt>
      <trkpt lat="43.02709" lon="6.08935">
        <ele>2.06</ele>
        <time>2019-05-27T09:29:19Z</time>
      </trkpt>
      <trkpt lat="43.02692" lon="6.08973">
        <ele>2.54</ele>
        <time>2019-05-27T09:29:29Z</time>
      </trkpt>
      <trkpt lat="43.02671" lon="6.09023">
        <ele>3.02</ele>
        <time>2019-05-27T09:29:42Z</time>
      </trkpt>
      <trkpt lat="43.02648" lon="6.09074">
        <ele>3.02</ele>
        <time>2019-05-27T09:29:56Z</time>
      </trkpt>
      <trkpt lat="43.02624" lon="6.09131">
        <ele>2.06</ele>
        <time>2019-05-27T09:30:11Z</time>
      </trkpt>
      <trkpt lat="43.02602" lon="6.09181">
        <ele>1.58</ele>
        <time>2019-05-27T09:30:24Z</time>
      </trkpt>
      <trkpt lat="43.02578" lon="6.09237">
        <ele>2.54</ele>
        <time>2019-05-27T09:30:39Z</time>
      </trkpt>
      <trkpt lat="43.02553" lon="6.09291">
        <ele>2.06</ele>
        <time>2019-05-27T09:30:53Z</time>
      </trkpt>
      <trkpt lat="43.0253" lon="6.09345">
        <ele>2.06</ele>
        <time>2019-05-27T09:31:07Z</time>
      </trkpt>
      <trkpt lat="43.02504" lon="6.09401">
        <ele>2.06</ele>
        <time>2019-05-27T09:31:22Z</time>
      </trkpt>
      <trkpt lat="43.02478" lon="6.09462">
        <ele>2.06</ele>
        <time>2019-05-27T09:31:38Z</time>
      </trkpt>
      <trkpt lat="43.02455" lon="6.09515">
        <ele>2.06</ele>
        <time>2019-05-27T09:31:52Z</time>
      </trkpt>
      <trkpt lat="43.02433" lon="6.09564">
        <ele>2.06</ele>
        <time>2019-05-27T09:32:05Z</time>
      </trkpt>
      <trkpt lat="43.0241" lon="6.09612">
        <ele>2.06</ele>
        <time>2019-05-27T09:32:18Z</time>
      </trkpt>
      <trkpt lat="43.02382" lon="6.09675">
        <ele>2.06</ele>
        <time>2019-05-27T09:32:35Z</time>
      </trkpt>
      <trkpt lat="43.02356" lon="6.09732">
        <ele>2.54</ele>
        <time>2019-05-27T09:32:50Z</time>
      </trkpt>
      <trkpt lat="43.0233" lon="6.09787">
        <ele>3.02</ele>
        <time>2019-05-27T09:33:05Z</time>
      </trkpt>
      <trkpt lat="43.02308" lon="6.09839">
        <ele>2.54</ele>
        <time>2019-05-27T09:33:18Z</time>
      </trkpt>
      <trkpt lat="43.02279" lon="6.09906">
        <ele>1.58</ele>
        <time>2019-05-27T09:33:36Z</time>
      </trkpt>
      <trkpt lat="43.02255" lon="6.09965">
        <ele>2.06</ele>
        <time>2019-05-27T09:33:51Z</time>
      </trkpt>
      <trkpt lat="43.02234" lon="6.1002">
        <ele>2.06</ele>
        <time>2019-05-27T09:34:05Z</time>
      </trkpt>
      <trkpt lat="43.02212" lon="6.10079">
        <ele>2.06</ele>
        <time>2019-05-27T09:34:20Z</time>
      </trkpt>
      <trkpt lat="43.02187" lon="6.10149">
        <ele>1.58</ele>
        <time>2019-05-27T09:34:37Z</time>
      </trkpt>
      <trkpt lat="43.02171" lon="6.10196">
        <ele>1.58</ele>
        <time>2019-05-27T09:34:49Z</time>
      </trkpt>
      <trkpt lat="43.02152" lon="6.10248">
        <ele>2.06</ele>
        <time>2019-05-27T09:35:02Z</time>
      </trkpt>
      <trkpt lat="43.02128" lon="6.10313">
        <ele>2.06</ele>
        <time>2019-05-27T09:35:18Z</time>
      </trkpt>
      <trkpt lat="43.02106" lon="6.1038">
        <ele>1.58</ele>
        <time>2019-05-27T09:35:35Z</time>
      </trkpt>
      <trkpt lat="43.02087" lon="6.10434">
        <ele>3.02</ele>
        <time>2019-05-27T09:35:48Z</time>
      </trkpt>
      <trkpt lat="43.02069" lon="6.10489">
        <ele>3.02</ele>
        <time>2019-05-27T09:36:02Z</time>
      </trkpt>
      <trkpt lat="43.02048" lon="6.10544">
        <ele>3.02</ele>
        <time>2019-05-27T09:36:16Z</time>
      </trkpt>
      <trkpt lat="43.02023" lon="6.10616">
        <ele>2.06</ele>
        <time>2019-05-27T09:36:34Z</time>
      </trkpt>
      <trkpt lat="43.01998" lon="6.10687">
        <ele>1.58</ele>
        <time>2019-05-27T09:36:52Z</time>
      </trkpt>
      <trkpt lat="43.01976" lon="6.10754">
        <ele>1.58</ele>
        <time>2019-05-27T09:37:09Z</time>
      </trkpt>
      <trkpt lat="43.01952" lon="6.10827">
        <ele>2.06</ele>
        <time>2019-05-27T09:37:27Z</time>
      </trkpt>
      <trkpt lat="43.01936" lon="6.10883">
        <ele>2.06</ele>
        <time>2019-05-27T09:37:41Z</time>
      </trkpt>
      <trkpt lat="43.01922" lon="6.10942">
        <ele>2.54</ele>
        <time>2019-05-27T09:37:55Z</time>
      </trkpt>
      <trkpt lat="43.01905" lon="6.11008">
        <ele>2.06</ele>
        <time>2019-05-27T09:38:11Z</time>
      </trkpt>
      <trkpt lat="43.0189" lon="6.11073">
        <ele>2.06</ele>
        <time>2019-05-27T09:38:27Z</time>
      </trkpt>
      <trkpt lat="43.01874" lon="6.11135">
        <ele>1.58</ele>
        <time>2019-05-27T09:38:42Z</time>
      </trkpt>
      <trkpt lat="43.01855" lon="6.11214">
        <ele>2.06</ele>
        <time>2019-05-27T09:39:01Z</time>
      </trkpt>
      <trkpt lat="43.0184" lon="6.11272">
        <ele>1.58</ele>
        <time>2019-05-27T09:39:15Z</time>
      </trkpt>
      <trkpt lat="43.01827" lon="6.1133">
        <ele>1.58</ele>
        <time>2019-05-27T09:39:29Z</time>
      </trkpt>
      <trkpt lat="43.01814" lon="6.11386">
        <ele>2.06</ele>
        <time>2019-05-27T09:39:43Z</time>
      </trkpt>
      <trkpt lat="43.01803" lon="6.11437">
        <ele>1.58</ele>
        <time>2019-05-27T09:39:55Z</time>
      </trkpt>
      <trkpt lat="43.01785" lon="6.11507">
        <ele>2.06</ele>
        <time>2019-05-27T09:40:12Z</time>
      </trkpt>
      <trkpt lat="43.01768" lon="6.11576">
        <ele>1.58</ele>
        <time>2019-05-27T09:40:29Z</time>
      </trkpt>
      <trkpt lat="43.01752" lon="6.11644">
        <ele>0.62</ele>
        <time>2019-05-27T09:40:45Z</time>
      </trkpt>
      <trkpt lat="43.01741" lon="6.11692">
        <ele>-0.34</ele>
        <time>2019-05-27T09:40:57Z</time>
      </trkpt>
      <trkpt lat="43.01724" lon="6.11763">
        <ele>0.62</ele>
        <time>2019-05-27T09:41:14Z</time>
      </trkpt>
      <trkpt lat="43.0171" lon="6.11825">
        <ele>1.58</ele>
        <time>2019-05-27T09:41:29Z</time>
      </trkpt>
      <trkpt lat="43.01692" lon="6.119">
        <ele>0.14</ele>
        <time>2019-05-27T09:41:47Z</time>
      </trkpt>
      <trkpt lat="43.01679" lon="6.11957">
        <ele>0.14</ele>
        <time>2019-05-27T09:42:01Z</time>
      </trkpt>
      <trkpt lat="43.01662" lon="6.12023">
        <ele>-0.34</ele>
        <time>2019-05-27T09:42:17Z</time>
      </trkpt>
      <trkpt lat="43.01648" lon="6.12085">
        <ele>0.62</ele>
        <time>2019-05-27T09:42:32Z</time>
      </trkpt>
      <trkpt lat="43.01635" lon="6.12147">
        <ele>0.14</ele>
        <time>2019-05-27T09:42:47Z</time>
      </trkpt>
      <trkpt lat="43.01618" lon="6.12215">
        <ele>0.62</ele>
        <time>2019-05-27T09:43:04Z</time>
      </trkpt>
      <trkpt lat="43.01604" lon="6.12273">
        <ele>1.1</ele>
        <time>2019-05-27T09:43:18Z</time>
      </trkpt>
      <trkpt lat="43.01589" lon="6.1234">
        <ele>0.62</ele>
        <time>2019-05-27T09:43:34Z</time>
      </trkpt>
      <trkpt lat="43.01573" lon="6.12404">
        <ele>1.1</ele>
        <time>2019-05-27T09:43:49Z</time>
      </trkpt>
      <trkpt lat="43.01558" lon="6.1248">
        <ele>0.14</ele>
        <time>2019-05-27T09:44:07Z</time>
      </trkpt>
      <trkpt lat="43.0154" lon="6.12551">
        <ele>0.14</ele>
        <time>2019-05-27T09:44:24Z</time>
      </trkpt>
      <trkpt lat="43.01528" lon="6.12604">
        <ele>0.14</ele>
        <time>2019-05-27T09:44:36Z</time>
      </trkpt>
      <trkpt lat="43.01517" lon="6.12654">
        <ele>-0.82</ele>
        <time>2019-05-27T09:44:48Z</time>
      </trkpt>
      <trkpt lat="43.01503" lon="6.12715">
        <ele>-0.34</ele>
        <time>2019-05-27T09:45:03Z</time>
      </trkpt>
      <trkpt lat="43.01488" lon="6.12776">
        <ele>-0.34</ele>
        <time>2019-05-27T09:45:18Z</time>
      </trkpt>
      <trkpt lat="43.01474" lon="6.12843">
        <ele>0.14</ele>
        <time>2019-05-27T09:45:34Z</time>
      </trkpt>
      <trkpt lat="43.01456" lon="6.12915">
        <ele>-0.34</ele>
        <time>2019-05-27T09:45:51Z</time>
      </trkpt>
      <trkpt lat="43.0144" lon="6.12986">
        <ele>0.14</ele>
        <time>2019-05-27T09:46:08Z</time>
      </trkpt>
      <trkpt lat="43.01423" lon="6.1306">
        <ele>0.14</ele>
        <time>2019-05-27T09:46:26Z</time>
      </trkpt>
      <trkpt lat="43.01409" lon="6.13125">
        <ele>0.62</ele>
        <time>2019-05-27T09:46:42Z</time>
      </trkpt>
      <trkpt lat="43.01394" lon="6.13185">
        <ele>0.14</ele>
        <time>2019-05-27T09:46:57Z</time>
      </trkpt>
      <trkpt lat="43.01383" lon="6.13232">
        <ele>0.14</ele>
        <time>2019-05-27T09:47:09Z</time>
      </trkpt>
      <trkpt lat="43.01369" lon="6.13284">
        <ele>-0.34</ele>
        <time>2019-05-27T09:47:22Z</time>
      </trkpt>
      <trkpt lat="43.01358" lon="6.13333">
        <ele>1.1</ele>
        <time>2019-05-27T09:47:35Z</time>
      </trkpt>
      <trkpt lat="43.01345" lon="6.13385">
        <ele>1.58</ele>
        <time>2019-05-27T09:47:48Z</time>
      </trkpt>
      <trkpt lat="43.01331" lon="6.13441">
        <ele>0.62</ele>
        <time>2019-05-27T09:48:03Z</time>
      </trkpt>
      <trkpt lat="43.01315" lon="6.13501">
        <ele>0.14</ele>
        <time>2019-05-27T09:48:19Z</time>
      </trkpt>
      <trkpt lat="43.01298" lon="6.13561">
        <ele>0.14</ele>
        <time>2019-05-27T09:48:35Z</time>
      </trkpt>
      <trkpt lat="43.01285" lon="6.13616">
        <ele>1.1</ele>
        <time>2019-05-27T09:48:49Z</time>
      </trkpt>
      <trkpt lat="43.01272" lon="6.1367">
        <ele>0.62</ele>
        <time>2019-05-27T09:49:03Z</time>
      </trkpt>
      <trkpt lat="43.01257" lon="6.13727">
        <ele>0.62</ele>
        <time>2019-05-27T09:49:18Z</time>
      </trkpt>
      <trkpt lat="43.01251" lon="6.13791">
        <ele>0.14</ele>
        <time>2019-05-27T09:49:34Z</time>
      </trkpt>
      <trkpt lat="43.01246" lon="6.13857">
        <ele>1.58</ele>
        <time>2019-05-27T09:49:51Z</time>
      </trkpt>
      <trkpt lat="43.01239" lon="6.13917">
        <ele>2.06</ele>
        <time>2019-05-27T09:50:06Z</time>
      </trkpt>
      <trkpt lat="43.01236" lon="6.13983">
        <ele>1.1</ele>
        <time>2019-05-27T09:50:23Z</time>
      </trkpt>
      <trkpt lat="43.01233" lon="6.14031">
        <ele>2.06</ele>
        <time>2019-05-27T09:50:35Z</time>
      </trkpt>
      <trkpt lat="43.01231" lon="6.14084">
        <ele>2.06</ele>
        <time>2019-05-27T09:50:48Z</time>
      </trkpt>
      <trkpt lat="43.01223" lon="6.14151">
        <ele>1.58</ele>
        <time>2019-05-27T09:51:05Z</time>
      </trkpt>
      <trkpt lat="43.01213" lon="6.14219">
        <ele>0.14</ele>
        <time>2019-05-27T09:51:22Z</time>
      </trkpt>
      <trkpt lat="43.01206" lon="6.14279">
        <ele>-0.34</ele>
        <time>2019-05-27T09:51:37Z</time>
      </trkpt>
      <trkpt lat="43.01194" lon="6.14332">
        <ele>-0.34</ele>
        <time>2019-05-27T09:51:51Z</time>
      </trkpt>
      <trkpt lat="43.01183" lon="6.14377">
        <ele>0.14</ele>
        <time>2019-05-27T09:52:03Z</time>
      </trkpt>
      <trkpt lat="43.01173" lon="6.14434">
        <ele>-0.82</ele>
        <time>2019-05-27T09:52:18Z</time>
      </trkpt>
      <trkpt lat="43.01163" lon="6.14493">
        <ele>0.14</ele>
        <time>2019-05-27T09:52:34Z</time>
      </trkpt>
      <trkpt lat="43.01154" lon="6.14547">
        <ele>-0.34</ele>
        <time>2019-05-27T09:52:48Z</time>
      </trkpt>
      <trkpt lat="43.01147" lon="6.14603">
        <ele>0.14</ele>
        <time>2019-05-27T09:53:02Z</time>
      </trkpt>
      <trkpt lat="43.0114" lon="6.14659">
        <ele>0.62</ele>
        <time>2019-05-27T09:53:17Z</time>
      </trkpt>
      <trkpt lat="43.0113" lon="6.14717">
        <ele>0.14</ele>
        <time>2019-05-27T09:53:33Z</time>
      </trkpt>
      <trkpt lat="43.0112" lon="6.14766">
        <ele>0.14</ele>
        <time>2019-05-27T09:53:47Z</time>
      </trkpt>
      <trkpt lat="43.01113" lon="6.14816">
        <ele>0.62</ele>
        <time>2019-05-27T09:54:01Z</time>
      </trkpt>
      <trkpt lat="43.01105" lon="6.14867">
        <ele>1.1</ele>
        <time>2019-05-27T09:54:15Z</time>
      </trkpt>
      <trkpt lat="43.01098" lon="6.14921">
        <ele>1.1</ele>
        <time>2019-05-27T09:54:30Z</time>
      </trkpt>
      <trkpt lat="43.01093" lon="6.14966">
        <ele>0.62</ele>
        <time>2019-05-27T09:54:42Z</time>
      </trkpt>
      <trkpt lat="43.01082" lon="6.15016">
        <ele>0.62</ele>
        <time>2019-05-27T09:54:57Z</time>
      </trkpt>
      <trkpt lat="43.0107" lon="6.15057">
        <ele>0.62</ele>
        <time>2019-05-27T09:55:09Z</time>
      </trkpt>
      <trkpt lat="43.01061" lon="6.15108">
        <ele>0.14</ele>
        <time>2019-05-27T09:55:23Z</time>
      </trkpt>
      <trkpt lat="43.01057" lon="6.15153">
        <ele>0.14</ele>
        <time>2019-05-27T09:55:36Z</time>
      </trkpt>
      <trkpt lat="43.01053" lon="6.15197">
        <ele>0.62</ele>
        <time>2019-05-27T09:55:48Z</time>
      </trkpt>
      <trkpt lat="43.01048" lon="6.1526">
        <ele>0.62</ele>
        <time>2019-05-27T09:56:05Z</time>
      </trkpt>
      <trkpt lat="43.01046" lon="6.15301">
        <ele>-0.34</ele>
        <time>2019-05-27T09:56:16Z</time>
      </trkpt>
      <trkpt lat="43.01038" lon="6.15354">
        <ele>-0.82</ele>
        <time>2019-05-27T09:56:31Z</time>
      </trkpt>
      <trkpt lat="43.0103" lon="6.15418">
        <ele>-1.79</ele>
        <time>2019-05-27T09:56:48Z</time>
      </trkpt>
      <trkpt lat="43.01025" lon="6.15481">
        <ele>-2.27</ele>
        <time>2019-05-27T09:57:05Z</time>
      </trkpt>
      <trkpt lat="43.01023" lon="6.15529">
        <ele>-2.75</ele>
        <time>2019-05-27T09:57:18Z</time>
      </trkpt>
      <trkpt lat="43.01017" lon="6.15601">
        <ele>-1.79</ele>
        <time>2019-05-27T09:57:37Z</time>
      </trkpt>
      <trkpt lat="43.0101" lon="6.15655">
        <ele>-1.3</ele>
        <time>2019-05-27T09:57:51Z</time>
      </trkpt>
      <trkpt lat="43.01" lon="6.15691">
        <ele>-1.79</ele>
        <time>2019-05-27T09:58:03Z</time>
      </trkpt>
      <trkpt lat="43.00987" lon="6.15731">
        <ele>-1.3</ele>
        <time>2019-05-27T09:58:16Z</time>
      </trkpt>
      <trkpt lat="43.00977" lon="6.1578">
        <ele>-0.82</ele>
        <time>2019-05-27T09:58:30Z</time>
      </trkpt>
      <trkpt lat="43.0097" lon="6.15835">
        <ele>-1.3</ele>
        <time>2019-05-27T09:58:46Z</time>
      </trkpt>
      <trkpt lat="43.00957" lon="6.15881">
        <ele>-0.82</ele>
        <time>2019-05-27T09:58:59Z</time>
      </trkpt>
      <trkpt lat="43.00939" lon="6.15944">
        <ele>-0.82</ele>
        <time>2019-05-27T09:59:16Z</time>
      </trkpt>
      <trkpt lat="43.00931" lon="6.16001">
        <ele>-0.34</ele>
        <time>2019-05-27T09:59:30Z</time>
      </trkpt>
      <trkpt lat="43.00928" lon="6.16052">
        <ele>-0.82</ele>
        <time>2019-05-27T09:59:43Z</time>
      </trkpt>
      <trkpt lat="43.00924" lon="6.16103">
        <ele>-2.27</ele>
        <time>2019-05-27T09:59:56Z</time>
      </trkpt>
      <trkpt lat="43.00911" lon="6.16143">
        <ele>-2.27</ele>
        <time>2019-05-27T10:00:08Z</time>
      </trkpt>
      <trkpt lat="43.0089" lon="6.16163">
        <ele>-0.82</ele>
        <time>2019-05-27T10:00:21Z</time>
      </trkpt>
      <trkpt lat="43.00873" lon="6.16182">
        <ele>-0.34</ele>
        <time>2019-05-27T10:00:34Z</time>
      </trkpt>
      <trkpt lat="43.00853" lon="6.1623">
        <ele>-0.34</ele>
        <time>2019-05-27T10:00:47Z</time>
      </trkpt>
      <trkpt lat="43.0084" lon="6.16294">
        <ele>-0.34</ele>
        <time>2019-05-27T10:01:01Z</time>
      </trkpt>
      <trkpt lat="43.00821" lon="6.16333">
        <ele>-0.34</ele>
        <time>2019-05-27T10:01:13Z</time>
      </trkpt>
      <trkpt lat="43.00798" lon="6.16345">
        <ele>-0.34</ele>
        <time>2019-05-27T10:01:25Z</time>
      </trkpt>
      <trkpt lat="43.00772" lon="6.16355">
        <ele>-0.82</ele>
        <time>2019-05-27T10:01:41Z</time>
      </trkpt>
      <trkpt lat="43.00748" lon="6.16377">
        <ele>-1.3</ele>
        <time>2019-05-27T10:01:56Z</time>
      </trkpt>
      <trkpt lat="43.00744" lon="6.16381">
        <ele>-0.82</ele>
        <time>2019-05-27T10:01:58Z</time>
      </trkpt>
      <trkpt lat="43.00719" lon="6.1639">
        <ele>-1.79</ele>
        <time>2019-05-27T10:02:10Z</time>
      </trkpt>
      <trkpt lat="43.00692" lon="6.16402">
        <ele>-1.3</ele>
        <time>2019-05-27T10:02:23Z</time>
      </trkpt>
      <trkpt lat="43.00658" lon="6.16422">
        <ele>-0.82</ele>
        <time>2019-05-27T10:02:40Z</time>
      </trkpt>
      <trkpt lat="43.00623" lon="6.16451">
        <ele>-1.3</ele>
        <time>2019-05-27T10:02:59Z</time>
      </trkpt>
      <trkpt lat="43.00594" lon="6.16483">
        <ele>-0.82</ele>
        <time>2019-05-27T10:03:16Z</time>
      </trkpt>
      <trkpt lat="43.00557" lon="6.16513">
        <ele>-0.82</ele>
        <time>2019-05-27T10:03:35Z</time>
      </trkpt>
      <trkpt lat="43.00527" lon="6.16544">
        <ele>-0.34</ele>
        <time>2019-05-27T10:03:52Z</time>
      </trkpt>
      <trkpt lat="43.00492" lon="6.16583">
        <ele>-0.34</ele>
        <time>2019-05-27T10:04:13Z</time>
      </trkpt>
      <trkpt lat="43.00462" lon="6.16601">
        <ele>-0.82</ele>
        <time>2019-05-27T10:04:33Z</time>
      </trkpt>
      <trkpt lat="43.00434" lon="6.16596">
        <ele>-1.79</ele>
        <time>2019-05-27T10:04:54Z</time>
      </trkpt>
      <trkpt lat="43.00419" lon="6.1658">
        <ele>-2.75</ele>
        <time>2019-05-27T10:05:11Z</time>
      </trkpt>
      <trkpt lat="43.00399" lon="6.16563">
        <ele>-2.27</ele>
        <time>2019-05-27T10:05:32Z</time>
      </trkpt>
      <trkpt lat="43.00376" lon="6.16545">
        <ele>-1.3</ele>
        <time>2019-05-27T10:05:56Z</time>
      </trkpt>
      <trkpt lat="43.00353" lon="6.16529">
        <ele>-1.3</ele>
        <time>2019-05-27T10:06:20Z</time>
      </trkpt>
      <trkpt lat="43.0035" lon="6.16528">
        <ele>-1.3</ele>
        <time>2019-05-27T10:06:40Z</time>
      </trkpt>
      <trkpt lat="43.00351" lon="6.1653">
        <ele>-1.79</ele>
        <time>2019-05-27T10:07:06Z</time>
      </trkpt>
      <trkpt lat="43.00352" lon="6.16533">
        <ele>-1.79</ele>
        <time>2019-05-27T10:07:32Z</time>
      </trkpt>
      <trkpt lat="43.00353" lon="6.16534">
        <ele>-1.3</ele>
        <time>2019-05-27T10:07:59Z</time>
      </trkpt>
      <trkpt lat="43.00352" lon="6.16535">
        <ele>-1.79</ele>
        <time>2019-05-27T10:08:22Z</time>
      </trkpt>
      <trkpt lat="43.00351" lon="6.16533">
        <ele>-1.79</ele>
        <time>2019-05-27T10:08:47Z</time>
      </trkpt>
      <trkpt lat="43.00351" lon="6.16532">
        <ele>-1.79</ele>
        <time>2019-05-27T10:09:08Z</time>
      </trkpt>
      <trkpt lat="43.0035" lon="6.16533">
        <ele>-1.3</ele>
        <time>2019-05-27T10:09:31Z</time>
      </trkpt>
      <trkpt lat="43.0035" lon="6.16535">
        <ele>-1.3</ele>
        <time>2019-05-27T10:09:55Z</time>
      </trkpt>
      <trkpt lat="43.0035" lon="6.16537">
        <ele>-1.3</ele>
        <time>2019-05-27T10:10:20Z</time>
      </trkpt>
      <trkpt lat="43.00348" lon="6.16539">
        <ele>-2.27</ele>
        <time>2019-05-27T10:10:42Z</time>
      </trkpt>
      <trkpt lat="43.00349" lon="6.1654">
        <ele>-2.27</ele>
        <time>2019-05-27T10:11:03Z</time>
      </trkpt>
      <trkpt lat="43.00349" lon="6.16541">
        <ele>-1.79</ele>
        <time>2019-05-27T10:11:30Z</time>
      </trkpt>
      <trkpt lat="43.00349" lon="6.1654">
        <ele>-0.82</ele>
        <time>2019-05-27T10:11:52Z</time>
      </trkpt>
      <trkpt lat="43.0035" lon="6.16539">
        <ele>-0.82</ele>
        <time>2019-05-27T10:12:17Z</time>
      </trkpt>
      <trkpt lat="43.0035" lon="6.16539">
        <ele>-0.82</ele>
        <time>2019-05-27T10:12:34Z</time>
      </trkpt>
      <trkpt lat="43.0035" lon="6.16539">
        <ele>-1.3</ele>
        <time>2019-05-27T10:12:53Z</time>
      </trkpt>
      <trkpt lat="43.0035" lon="6.16538">
        <ele>-0.82</ele>
        <time>2019-05-27T10:13:16Z</time>
      </trkpt>
      <trkpt lat="43.0035" lon="6.16537">
        <ele>-0.82</ele>
        <time>2019-05-27T10:13:42Z</time>
      </trkpt>
      <trkpt lat="43.00351" lon="6.16537">
        <ele>-0.82</ele>
        <time>2019-05-27T10:13:57Z</time>
      </trkpt>
      <trkpt lat="43.01353" lon="6.16646">
        <ele>2.06</ele>
        <time>2019-05-27T12:05:32Z</time>
      </trkpt>
      <trkpt lat="43.01379" lon="6.16655">
        <ele>2.54</ele>
        <time>2019-05-27T12:05:45Z</time>
      </trkpt>
      <trkpt lat="43.01412" lon="6.16656">
        <ele>1.58</ele>
        <time>2019-05-27T12:06:01Z</time>
      </trkpt>
      <trkpt lat="43.01452" lon="6.16668">
        <ele>1.1</ele>
        <time>2019-05-27T12:06:19Z</time>
      </trkpt>
      <trkpt lat="43.01486" lon="6.16671">
        <ele>1.1</ele>
        <time>2019-05-27T12:06:33Z</time>
      </trkpt>
      <trkpt lat="43.01519" lon="6.16678">
        <ele>1.1</ele>
        <time>2019-05-27T12:06:47Z</time>
      </trkpt>
      <trkpt lat="43.01553" lon="6.16679">
        <ele>0.62</ele>
        <time>2019-05-27T12:07:02Z</time>
      </trkpt>
      <trkpt lat="43.01584" lon="6.16692">
        <ele>1.1</ele>
        <time>2019-05-27T12:07:18Z</time>
      </trkpt>
      <trkpt lat="43.01621" lon="6.16708">
        <ele>1.1</ele>
        <time>2019-05-27T12:07:35Z</time>
      </trkpt>
      <trkpt lat="43.01662" lon="6.1674">
        <ele>2.06</ele>
        <time>2019-05-27T12:07:53Z</time>
      </trkpt>
      <trkpt lat="43.01701" lon="6.16765">
        <ele>1.58</ele>
        <time>2019-05-27T12:08:12Z</time>
      </trkpt>
      <trkpt lat="43.01732" lon="6.16778">
        <ele>1.1</ele>
        <time>2019-05-27T12:08:27Z</time>
      </trkpt>
      <trkpt lat="43.01758" lon="6.16787">
        <ele>1.58</ele>
        <time>2019-05-27T12:08:41Z</time>
      </trkpt>
      <trkpt lat="43.01784" lon="6.16771">
        <ele>2.06</ele>
        <time>2019-05-27T12:08:57Z</time>
      </trkpt>
      <trkpt lat="43.0181" lon="6.16753">
        <ele>1.1</ele>
        <time>2019-05-27T12:09:12Z</time>
      </trkpt>
      <trkpt lat="43.01833" lon="6.16739">
        <ele>1.1</ele>
        <time>2019-05-27T12:09:26Z</time>
      </trkpt>
      <trkpt lat="43.01854" lon="6.16723">
        <ele>1.1</ele>
        <time>2019-05-27T12:09:39Z</time>
      </trkpt>
      <trkpt lat="43.01873" lon="6.16696">
        <ele>1.1</ele>
        <time>2019-05-27T12:09:53Z</time>
      </trkpt>
      <trkpt lat="43.01897" lon="6.16669">
        <ele>1.1</ele>
        <time>2019-05-27T12:10:09Z</time>
      </trkpt>
      <trkpt lat="43.01923" lon="6.16642">
        <ele>0.62</ele>
        <time>2019-05-27T12:10:26Z</time>
      </trkpt>
      <trkpt lat="43.01941" lon="6.16616">
        <ele>0.62</ele>
        <time>2019-05-27T12:10:39Z</time>
      </trkpt>
      <trkpt lat="43.01963" lon="6.16587">
        <ele>1.1</ele>
        <time>2019-05-27T12:10:53Z</time>
      </trkpt>
      <trkpt lat="43.01988" lon="6.16559">
        <ele>1.1</ele>
        <time>2019-05-27T12:11:08Z</time>
      </trkpt>
      <trkpt lat="43.02018" lon="6.16532">
        <ele>0.62</ele>
        <time>2019-05-27T12:11:25Z</time>
      </trkpt>
      <trkpt lat="43.02042" lon="6.16523">
        <ele>1.1</ele>
        <time>2019-05-27T12:11:38Z</time>
      </trkpt>
      <trkpt lat="43.02069" lon="6.16511">
        <ele>2.06</ele>
        <time>2019-05-27T12:11:54Z</time>
      </trkpt>
      <trkpt lat="43.02098" lon="6.16495">
        <ele>1.58</ele>
        <time>2019-05-27T12:12:12Z</time>
      </trkpt>
      <trkpt lat="43.02125" lon="6.1647">
        <ele>1.58</ele>
        <time>2019-05-27T12:12:29Z</time>
      </trkpt>
      <trkpt lat="43.02154" lon="6.16454">
        <ele>1.58</ele>
        <time>2019-05-27T12:12:46Z</time>
      </trkpt>
      <trkpt lat="43.02189" lon="6.16446">
        <ele>1.58</ele>
        <time>2019-05-27T12:13:04Z</time>
      </trkpt>
      <trkpt lat="43.02223" lon="6.16441">
        <ele>2.06</ele>
        <time>2019-05-27T12:13:21Z</time>
      </trkpt>
      <trkpt lat="43.02256" lon="6.16448">
        <ele>1.58</ele>
        <time>2019-05-27T12:13:37Z</time>
      </trkpt>
      <trkpt lat="43.0229" lon="6.1646">
        <ele>1.58</ele>
        <time>2019-05-27T12:13:53Z</time>
      </trkpt>
      <trkpt lat="43.02323" lon="6.16465">
        <ele>1.58</ele>
        <time>2019-05-27T12:14:09Z</time>
      </trkpt>
      <trkpt lat="43.02348" lon="6.16474">
        <ele>1.58</ele>
        <time>2019-05-27T12:14:24Z</time>
      </trkpt>
      <trkpt lat="43.02375" lon="6.16497">
        <ele>1.1</ele>
        <time>2019-05-27T12:14:43Z</time>
      </trkpt>
      <trkpt lat="43.02405" lon="6.16526">
        <ele>1.58</ele>
        <time>2019-05-27T12:15:01Z</time>
      </trkpt>
      <trkpt lat="43.02447" lon="6.16571">
        <ele>2.06</ele>
        <time>2019-05-27T12:15:23Z</time>
      </trkpt>
      <trkpt lat="43.02482" lon="6.16625">
        <ele>2.06</ele>
        <time>2019-05-27T12:15:43Z</time>
      </trkpt>
      <trkpt lat="43.02507" lon="6.16673">
        <ele>3.02</ele>
        <time>2019-05-27T12:16:01Z</time>
      </trkpt>
      <trkpt lat="43.02527" lon="6.16724">
        <ele>2.06</ele>
        <time>2019-05-27T12:16:19Z</time>
      </trkpt>
      <trkpt lat="43.02554" lon="6.16784">
        <ele>2.06</ele>
        <time>2019-05-27T12:16:39Z</time>
      </trkpt>
      <trkpt lat="43.02579" lon="6.16841">
        <ele>2.54</ele>
        <time>2019-05-27T12:16:56Z</time>
      </trkpt>
      <trkpt lat="43.02605" lon="6.16889">
        <ele>2.54</ele>
        <time>2019-05-27T12:17:11Z</time>
      </trkpt>
      <trkpt lat="43.02637" lon="6.1694">
        <ele>2.06</ele>
        <time>2019-05-27T12:17:27Z</time>
      </trkpt>
      <trkpt lat="43.02668" lon="6.16976">
        <ele>1.58</ele>
        <time>2019-05-27T12:17:42Z</time>
      </trkpt>
      <trkpt lat="43.02701" lon="6.17001">
        <ele>0.62</ele>
        <time>2019-05-27T12:17:58Z</time>
      </trkpt>
      <trkpt lat="43.02741" lon="6.1704">
        <ele>0.62</ele>
        <time>2019-05-27T12:18:17Z</time>
      </trkpt>
      <trkpt lat="43.02777" lon="6.17075">
        <ele>1.1</ele>
        <time>2019-05-27T12:18:33Z</time>
      </trkpt>
      <trkpt lat="43.02796" lon="6.17128">
        <ele>1.58</ele>
        <time>2019-05-27T12:18:49Z</time>
      </trkpt>
      <trkpt lat="43.02794" lon="6.17197">
        <ele>2.54</ele>
        <time>2019-05-27T12:19:07Z</time>
      </trkpt>
      <trkpt lat="43.02793" lon="6.17256">
        <ele>3.02</ele>
        <time>2019-05-27T12:19:23Z</time>
      </trkpt>
      <trkpt lat="43.02791" lon="6.17317">
        <ele>3.98</ele>
        <time>2019-05-27T12:19:40Z</time>
      </trkpt>
      <trkpt lat="43.02791" lon="6.17366">
        <ele>4.94</ele>
        <time>2019-05-27T12:19:54Z</time>
      </trkpt>
      <trkpt lat="43.02798" lon="6.17409">
        <ele>5.42</ele>
        <time>2019-05-27T12:20:07Z</time>
      </trkpt>
      <trkpt lat="43.028" lon="6.17481">
        <ele>4.94</ele>
        <time>2019-05-27T12:20:25Z</time>
      </trkpt>
      <trkpt lat="43.0278" lon="6.17505">
        <ele>3.98</ele>
        <time>2019-05-27T12:20:36Z</time>
      </trkpt>
      <trkpt lat="43.02766" lon="6.17477">
        <ele>2.54</ele>
        <time>2019-05-27T12:20:50Z</time>
      </trkpt>
      <trkpt lat="43.02756" lon="6.17417">
        <ele>2.54</ele>
        <time>2019-05-27T12:21:05Z</time>
      </trkpt>
      <trkpt lat="43.02759" lon="6.17356">
        <ele>3.5</ele>
        <time>2019-05-27T12:21:18Z</time>
      </trkpt>
      <trkpt lat="43.02772" lon="6.17302">
        <ele>3.5</ele>
        <time>2019-05-27T12:21:33Z</time>
      </trkpt>
      <trkpt lat="43.02782" lon="6.17264">
        <ele>3.5</ele>
        <time>2019-05-27T12:21:46Z</time>
      </trkpt>
      <trkpt lat="43.0279" lon="6.17224">
        <ele>3.98</ele>
        <time>2019-05-27T12:22:00Z</time>
      </trkpt>
      <trkpt lat="43.028" lon="6.17191">
        <ele>3.5</ele>
        <time>2019-05-27T12:22:14Z</time>
      </trkpt>
      <trkpt lat="43.02805" lon="6.17151">
        <ele>4.46</ele>
        <time>2019-05-27T12:22:31Z</time>
      </trkpt>
      <trkpt lat="43.02803" lon="6.17103">
        <ele>4.46</ele>
        <time>2019-05-27T12:22:50Z</time>
      </trkpt>
      <trkpt lat="43.02797" lon="6.1704">
        <ele>3.5</ele>
        <time>2019-05-27T12:23:09Z</time>
      </trkpt>
      <trkpt lat="43.02799" lon="6.16965">
        <ele>3.5</ele>
        <time>2019-05-27T12:23:28Z</time>
      </trkpt>
      <trkpt lat="43.02809" lon="6.16913">
        <ele>3.5</ele>
        <time>2019-05-27T12:23:42Z</time>
      </trkpt>
      <trkpt lat="43.02803" lon="6.16859">
        <ele>2.06</ele>
        <time>2019-05-27T12:23:59Z</time>
      </trkpt>
      <trkpt lat="43.02787" lon="6.16872">
        <ele>1.58</ele>
        <time>2019-05-27T12:24:12Z</time>
      </trkpt>
      <trkpt lat="43.02776" lon="6.16922">
        <ele>2.06</ele>
        <time>2019-05-27T12:24:27Z</time>
      </trkpt>
      <trkpt lat="43.02764" lon="6.16975">
        <ele>2.54</ele>
        <time>2019-05-27T12:24:42Z</time>
      </trkpt>
      <trkpt lat="43.02754" lon="6.17036">
        <ele>2.54</ele>
        <time>2019-05-27T12:24:57Z</time>
      </trkpt>
      <trkpt lat="43.02753" lon="6.17096">
        <ele>2.54</ele>
        <time>2019-05-27T12:25:11Z</time>
      </trkpt>
      <trkpt lat="43.02748" lon="6.17168">
        <ele>2.06</ele>
        <time>2019-05-27T12:25:28Z</time>
      </trkpt>
      <trkpt lat="43.02754" lon="6.17235">
        <ele>2.06</ele>
        <time>2019-05-27T12:25:45Z</time>
      </trkpt>
      <trkpt lat="43.02766" lon="6.1729">
        <ele>1.58</ele>
        <time>2019-05-27T12:26:01Z</time>
      </trkpt>
      <trkpt lat="43.02777" lon="6.17325">
        <ele>2.06</ele>
        <time>2019-05-27T12:26:14Z</time>
      </trkpt>
      <trkpt lat="43.02808" lon="6.17333">
        <ele>3.02</ele>
        <time>2019-05-27T12:26:31Z</time>
      </trkpt>
      <trkpt lat="43.02835" lon="6.17322">
        <ele>1.1</ele>
        <time>2019-05-27T12:26:49Z</time>
      </trkpt>
      <trkpt lat="43.02859" lon="6.17307">
        <ele>0.14</ele>
        <time>2019-05-27T12:27:05Z</time>
      </trkpt>
      <trkpt lat="43.02889" lon="6.17295">
        <ele>0.62</ele>
        <time>2019-05-27T12:27:25Z</time>
      </trkpt>
      <trkpt lat="43.02917" lon="6.17285">
        <ele>0.14</ele>
        <time>2019-05-27T12:27:44Z</time>
      </trkpt>
      <trkpt lat="43.02939" lon="6.17277">
        <ele>-0.82</ele>
        <time>2019-05-27T12:27:59Z</time>
      </trkpt>
      <trkpt lat="43.02962" lon="6.17274">
        <ele>0.14</ele>
        <time>2019-05-27T12:28:14Z</time>
      </trkpt>
      <trkpt lat="43.02963" lon="6.173">
        <ele>1.1</ele>
        <time>2019-05-27T12:28:28Z</time>
      </trkpt>
      <trkpt lat="43.02948" lon="6.17326">
        <ele>1.58</ele>
        <time>2019-05-27T12:28:45Z</time>
      </trkpt>
      <trkpt lat="43.02924" lon="6.17358">
        <ele>2.54</ele>
        <time>2019-05-27T12:29:04Z</time>
      </trkpt>
      <trkpt lat="43.02904" lon="6.17375">
        <ele>2.06</ele>
        <time>2019-05-27T12:29:21Z</time>
      </trkpt>
      <trkpt lat="43.02888" lon="6.17385">
        <ele>1.58</ele>
        <time>2019-05-27T12:29:41Z</time>
      </trkpt>
      <trkpt lat="43.02886" lon="6.17383">
        <ele>1.58</ele>
        <time>2019-05-27T12:29:45Z</time>
      </trkpt>
      <trkpt lat="43.02882" lon="6.17348">
        <ele>4.46</ele>
        <time>2019-05-27T12:30:02Z</time>
      </trkpt>
      <trkpt lat="43.02888" lon="6.17311">
        <ele>4.46</ele>
        <time>2019-05-27T12:30:15Z</time>
      </trkpt>
      <trkpt lat="43.02902" lon="6.17269">
        <ele>4.94</ele>
        <time>2019-05-27T12:30:29Z</time>
      </trkpt>
      <trkpt lat="43.02919" lon="6.1722">
        <ele>5.42</ele>
        <time>2019-05-27T12:30:45Z</time>
      </trkpt>
      <trkpt lat="43.02927" lon="6.17164">
        <ele>6.39</ele>
        <time>2019-05-27T12:31:00Z</time>
      </trkpt>
      <trkpt lat="43.02945" lon="6.17124">
        <ele>6.87</ele>
        <time>2019-05-27T12:31:13Z</time>
      </trkpt>
      <trkpt lat="43.02969" lon="6.17098">
        <ele>4.46</ele>
        <time>2019-05-27T12:31:26Z</time>
      </trkpt>
      <trkpt lat="43.02974" lon="6.17056">
        <ele>4.94</ele>
        <time>2019-05-27T12:31:38Z</time>
      </trkpt>
      <trkpt lat="43.02972" lon="6.17004">
        <ele>4.46</ele>
        <time>2019-05-27T12:31:52Z</time>
      </trkpt>
      <trkpt lat="43.02959" lon="6.16951">
        <ele>2.06</ele>
        <time>2019-05-27T12:32:07Z</time>
      </trkpt>
      <trkpt lat="43.02949" lon="6.16886">
        <ele>2.06</ele>
        <time>2019-05-27T12:32:24Z</time>
      </trkpt>
      <trkpt lat="43.02934" lon="6.16829">
        <ele>2.06</ele>
        <time>2019-05-27T12:32:42Z</time>
      </trkpt>
      <trkpt lat="43.0292" lon="6.1678">
        <ele>0.62</ele>
        <time>2019-05-27T12:32:57Z</time>
      </trkpt>
      <trkpt lat="43.02897" lon="6.16736">
        <ele>1.58</ele>
        <time>2019-05-27T12:33:14Z</time>
      </trkpt>
      <trkpt lat="43.02891" lon="6.16694">
        <ele>0.62</ele>
        <time>2019-05-27T12:33:27Z</time>
      </trkpt>
      <trkpt lat="43.02895" lon="6.16656">
        <ele>1.58</ele>
        <time>2019-05-27T12:33:40Z</time>
      </trkpt>
      <trkpt lat="43.02884" lon="6.16621">
        <ele>1.1</ele>
        <time>2019-05-27T12:33:54Z</time>
      </trkpt>
      <trkpt lat="43.02869" lon="6.16573">
        <ele>0.62</ele>
        <time>2019-05-27T12:34:13Z</time>
      </trkpt>
      <trkpt lat="43.02855" lon="6.16531">
        <ele>0.14</ele>
        <time>2019-05-27T12:34:30Z</time>
      </trkpt>
      <trkpt lat="43.02854" lon="6.16527">
        <ele>0.14</ele>
        <time>2019-05-27T12:34:32Z</time>
      </trkpt>
      <trkpt lat="43.02859" lon="6.16487">
        <ele>0.62</ele>
        <time>2019-05-27T12:34:48Z</time>
      </trkpt>
      <trkpt lat="43.02835" lon="6.16457">
        <ele>-0.34</ele>
        <time>2019-05-27T12:35:06Z</time>
      </trkpt>
      <trkpt lat="43.02806" lon="6.16415">
        <ele>0.14</ele>
        <time>2019-05-27T12:35:23Z</time>
      </trkpt>
      <trkpt lat="43.0278" lon="6.1635">
        <ele>-0.34</ele>
        <time>2019-05-27T12:35:41Z</time>
      </trkpt>
      <trkpt lat="43.02752" lon="6.16282">
        <ele>-0.34</ele>
        <time>2019-05-27T12:35:59Z</time>
      </trkpt>
      <trkpt lat="43.0272" lon="6.16204">
        <ele>-0.34</ele>
        <time>2019-05-27T12:36:20Z</time>
      </trkpt>
      <trkpt lat="43.02684" lon="6.16128">
        <ele>-0.34</ele>
        <time>2019-05-27T12:36:40Z</time>
      </trkpt>
      <trkpt lat="43.0266" lon="6.16068">
        <ele>-0.82</ele>
        <time>2019-05-27T12:36:55Z</time>
      </trkpt>
      <trkpt lat="43.02639" lon="6.16002">
        <ele>-0.82</ele>
        <time>2019-05-27T12:37:12Z</time>
      </trkpt>
      <trkpt lat="43.0261" lon="6.15921">
        <ele>-0.34</ele>
        <time>2019-05-27T12:37:32Z</time>
      </trkpt>
      <trkpt lat="43.02584" lon="6.15851">
        <ele>-0.34</ele>
        <time>2019-05-27T12:37:49Z</time>
      </trkpt>
      <trkpt lat="43.02546" lon="6.15767">
        <ele>-0.34</ele>
        <time>2019-05-27T12:38:11Z</time>
      </trkpt>
      <trkpt lat="43.02503" lon="6.157">
        <ele>0.14</ele>
        <time>2019-05-27T12:38:31Z</time>
      </trkpt>
      <trkpt lat="43.02463" lon="6.15643">
        <ele>-1.3</ele>
        <time>2019-05-27T12:38:49Z</time>
      </trkpt>
      <trkpt lat="43.0242" lon="6.15591">
        <ele>-1.79</ele>
        <time>2019-05-27T12:39:07Z</time>
      </trkpt>
      <trkpt lat="43.02379" lon="6.15541">
        <ele>-1.79</ele>
        <time>2019-05-27T12:39:24Z</time>
      </trkpt>
      <trkpt lat="43.02342" lon="6.1549">
        <ele>-1.3</ele>
        <time>2019-05-27T12:39:42Z</time>
      </trkpt>
      <trkpt lat="43.02309" lon="6.15444">
        <ele>-0.82</ele>
        <time>2019-05-27T12:39:59Z</time>
      </trkpt>
      <trkpt lat="43.02278" lon="6.15392">
        <ele>-1.3</ele>
        <time>2019-05-27T12:40:17Z</time>
      </trkpt>
      <trkpt lat="43.02251" lon="6.15351">
        <ele>-0.82</ele>
        <time>2019-05-27T12:40:32Z</time>
      </trkpt>
      <trkpt lat="43.0221" lon="6.15296">
        <ele>-1.3</ele>
        <time>2019-05-27T12:40:53Z</time>
      </trkpt>
      <trkpt lat="43.02174" lon="6.15252">
        <ele>-1.3</ele>
        <time>2019-05-27T12:41:10Z</time>
      </trkpt>
      <trkpt lat="43.02143" lon="6.15212">
        <ele>-1.3</ele>
        <time>2019-05-27T12:41:25Z</time>
      </trkpt>
      <trkpt lat="43.02114" lon="6.15172">
        <ele>-2.27</ele>
        <time>2019-05-27T12:41:39Z</time>
      </trkpt>
      <trkpt lat="43.02099" lon="6.15196">
        <ele>-2.27</ele>
        <time>2019-05-27T12:41:53Z</time>
      </trkpt>
      <trkpt lat="43.02085" lon="6.15237">
        <ele>-1.3</ele>
        <time>2019-05-27T12:42:09Z</time>
      </trkpt>
      <trkpt lat="43.02071" lon="6.15275">
        <ele>-1.3</ele>
        <time>2019-05-27T12:42:22Z</time>
      </trkpt>
      <trkpt lat="43.02062" lon="6.15273">
        <ele>-1.3</ele>
        <time>2019-05-27T12:42:28Z</time>
      </trkpt>
      <trkpt lat="43.02044" lon="6.15235">
        <ele>-0.82</ele>
        <time>2019-05-27T12:42:46Z</time>
      </trkpt>
      <trkpt lat="43.02026" lon="6.15206">
        <ele>-0.82</ele>
        <time>2019-05-27T12:42:59Z</time>
      </trkpt>
      <trkpt lat="43.01993" lon="6.15164">
        <ele>-0.82</ele>
        <time>2019-05-27T12:43:17Z</time>
      </trkpt>
      <trkpt lat="43.01962" lon="6.15124">
        <ele>-1.3</ele>
        <time>2019-05-27T12:43:33Z</time>
      </trkpt>
      <trkpt lat="43.0193" lon="6.15081">
        <ele>-0.82</ele>
        <time>2019-05-27T12:43:50Z</time>
      </trkpt>
      <trkpt lat="43.01904" lon="6.15044">
        <ele>0.14</ele>
        <time>2019-05-27T12:44:03Z</time>
      </trkpt>
      <trkpt lat="43.01873" lon="6.14997">
        <ele>0.62</ele>
        <time>2019-05-27T12:44:19Z</time>
      </trkpt>
      <trkpt lat="43.0184" lon="6.14955">
        <ele>0.14</ele>
        <time>2019-05-27T12:44:35Z</time>
      </trkpt>
      <trkpt lat="43.01807" lon="6.14909">
        <ele>-0.34</ele>
        <time>2019-05-27T12:44:52Z</time>
      </trkpt>
      <trkpt lat="43.01772" lon="6.14863">
        <ele>-1.79</ele>
        <time>2019-05-27T12:45:08Z</time>
      </trkpt>
      <trkpt lat="43.01745" lon="6.14816">
        <ele>-0.82</ele>
        <time>2019-05-27T12:45:22Z</time>
      </trkpt>
      <trkpt lat="43.01711" lon="6.14764">
        <ele>-0.82</ele>
        <time>2019-05-27T12:45:38Z</time>
      </trkpt>
      <trkpt lat="43.01676" lon="6.14713">
        <ele>-1.3</ele>
        <time>2019-05-27T12:45:54Z</time>
      </trkpt>
      <trkpt lat="43.01652" lon="6.14687">
        <ele>-0.82</ele>
        <time>2019-05-27T12:46:05Z</time>
      </trkpt>
      <trkpt lat="43.0162" lon="6.14651">
        <ele>-0.82</ele>
        <time>2019-05-27T12:46:20Z</time>
      </trkpt>
      <trkpt lat="43.01591" lon="6.14619">
        <ele>-1.79</ele>
        <time>2019-05-27T12:46:34Z</time>
      </trkpt>
      <trkpt lat="43.01561" lon="6.14593">
        <ele>-1.3</ele>
        <time>2019-05-27T12:46:48Z</time>
      </trkpt>
      <trkpt lat="43.01533" lon="6.14566">
        <ele>-1.3</ele>
        <time>2019-05-27T12:47:02Z</time>
      </trkpt>
      <trkpt lat="43.01512" lon="6.14538">
        <ele>-0.82</ele>
        <time>2019-05-27T12:47:15Z</time>
      </trkpt>
      <trkpt lat="43.01491" lon="6.1451">
        <ele>-0.82</ele>
        <time>2019-05-27T12:47:27Z</time>
      </trkpt>
      <trkpt lat="43.01466" lon="6.14476">
        <ele>-1.3</ele>
        <time>2019-05-27T12:47:40Z</time>
      </trkpt>
      <trkpt lat="43.01446" lon="6.14443">
        <ele>-0.82</ele>
        <time>2019-05-27T12:47:53Z</time>
      </trkpt>
      <trkpt lat="43.01442" lon="6.14408">
        <ele>-0.82</ele>
        <time>2019-05-27T12:48:04Z</time>
      </trkpt>
      <trkpt lat="43.01443" lon="6.14366">
        <ele>-0.34</ele>
        <time>2019-05-27T12:48:17Z</time>
      </trkpt>
      <trkpt lat="43.01447" lon="6.14336">
        <ele>-0.34</ele>
        <time>2019-05-27T12:48:28Z</time>
      </trkpt>
      <trkpt lat="43.01453" lon="6.14303">
        <ele>0.14</ele>
        <time>2019-05-27T12:48:41Z</time>
      </trkpt>
      <trkpt lat="43.01457" lon="6.14276">
        <ele>-0.34</ele>
        <time>2019-05-27T12:48:51Z</time>
      </trkpt>
      <trkpt lat="43.01463" lon="6.1425">
        <ele>0.14</ele>
        <time>2019-05-27T12:49:02Z</time>
      </trkpt>
      <trkpt lat="43.01468" lon="6.14219">
        <ele>0.62</ele>
        <time>2019-05-27T12:49:14Z</time>
      </trkpt>
      <trkpt lat="43.01471" lon="6.14188">
        <ele>0.14</ele>
        <time>2019-05-27T12:49:26Z</time>
      </trkpt>
      <trkpt lat="43.01472" lon="6.14151">
        <ele>0.62</ele>
        <time>2019-05-27T12:49:39Z</time>
      </trkpt>
      <trkpt lat="43.01475" lon="6.14112">
        <ele>-0.34</ele>
        <time>2019-05-27T12:49:52Z</time>
      </trkpt>
      <trkpt lat="43.0148" lon="6.14069">
        <ele>-0.82</ele>
        <time>2019-05-27T12:50:06Z</time>
      </trkpt>
      <trkpt lat="43.01487" lon="6.14037">
        <ele>1.1</ele>
        <time>2019-05-27T12:50:17Z</time>
      </trkpt>
      <trkpt lat="43.01496" lon="6.14004">
        <ele>1.1</ele>
        <time>2019-05-27T12:50:29Z</time>
      </trkpt>
      <trkpt lat="43.01503" lon="6.13962">
        <ele>0.62</ele>
        <time>2019-05-27T12:50:43Z</time>
      </trkpt>
      <trkpt lat="43.01508" lon="6.13915">
        <ele>-0.34</ele>
        <time>2019-05-27T12:50:58Z</time>
      </trkpt>
      <trkpt lat="43.0151" lon="6.13871">
        <ele>-1.3</ele>
        <time>2019-05-27T12:51:12Z</time>
      </trkpt>
      <trkpt lat="43.01511" lon="6.13831">
        <ele>-0.82</ele>
        <time>2019-05-27T12:51:25Z</time>
      </trkpt>
      <trkpt lat="43.01509" lon="6.13794">
        <ele>1.1</ele>
        <time>2019-05-27T12:51:37Z</time>
      </trkpt>
      <trkpt lat="43.01507" lon="6.13746">
        <ele>1.58</ele>
        <time>2019-05-27T12:51:51Z</time>
      </trkpt>
      <trkpt lat="43.01505" lon="6.13691">
        <ele>1.1</ele>
        <time>2019-05-27T12:52:06Z</time>
      </trkpt>
      <trkpt lat="43.01505" lon="6.13651">
        <ele>-0.82</ele>
        <time>2019-05-27T12:52:17Z</time>
      </trkpt>
      <trkpt lat="43.01506" lon="6.13609">
        <ele>-0.34</ele>
        <time>2019-05-27T12:52:29Z</time>
      </trkpt>
      <trkpt lat="43.01508" lon="6.13592">
        <ele>-0.82</ele>
        <time>2019-05-27T12:52:34Z</time>
      </trkpt>
      <trkpt lat="43.01511" lon="6.13555">
        <ele>-1.3</ele>
        <time>2019-05-27T12:52:45Z</time>
      </trkpt>
      <trkpt lat="43.01512" lon="6.13511">
        <ele>0.62</ele>
        <time>2019-05-27T12:53:00Z</time>
      </trkpt>
      <trkpt lat="43.01511" lon="6.13472">
        <ele>-2.27</ele>
        <time>2019-05-27T12:53:13Z</time>
      </trkpt>
      <trkpt lat="43.01508" lon="6.13431">
        <ele>-5.63</ele>
        <time>2019-05-27T12:53:26Z</time>
      </trkpt>
      <trkpt lat="43.01507" lon="6.13382">
        <ele>-4.67</ele>
        <time>2019-05-27T12:53:41Z</time>
      </trkpt>
      <trkpt lat="43.01506" lon="6.13342">
        <ele>-2.75</ele>
        <time>2019-05-27T12:53:54Z</time>
      </trkpt>
      <trkpt lat="43.01507" lon="6.13305">
        <ele>-2.75</ele>
        <time>2019-05-27T12:54:06Z</time>
      </trkpt>
      <trkpt lat="43.01505" lon="6.13286">
        <ele>-3.71</ele>
        <time>2019-05-27T12:54:12Z</time>
      </trkpt>
      <trkpt lat="43.01503" lon="6.13249">
        <ele>-3.23</ele>
        <time>2019-05-27T12:54:24Z</time>
      </trkpt>
      <trkpt lat="43.01504" lon="6.13203">
        <ele>-1.79</ele>
        <time>2019-05-27T12:54:40Z</time>
      </trkpt>
      <trkpt lat="43.01504" lon="6.13159">
        <ele>-0.82</ele>
        <time>2019-05-27T12:54:55Z</time>
      </trkpt>
      <trkpt lat="43.01502" lon="6.13098">
        <ele>0.14</ele>
        <time>2019-05-27T12:55:13Z</time>
      </trkpt>
      <trkpt lat="43.01501" lon="6.13049">
        <ele>-0.34</ele>
        <time>2019-05-27T12:55:27Z</time>
      </trkpt>
      <trkpt lat="43.01503" lon="6.13002">
        <ele>-1.3</ele>
        <time>2019-05-27T12:55:40Z</time>
      </trkpt>
      <trkpt lat="43.01511" lon="6.12947">
        <ele>-0.82</ele>
        <time>2019-05-27T12:55:56Z</time>
      </trkpt>
      <trkpt lat="43.01517" lon="6.12907">
        <ele>-1.79</ele>
        <time>2019-05-27T12:56:10Z</time>
      </trkpt>
      <trkpt lat="43.0152" lon="6.12867">
        <ele>-1.3</ele>
        <time>2019-05-27T12:56:24Z</time>
      </trkpt>
      <trkpt lat="43.01526" lon="6.1282">
        <ele>-1.79</ele>
        <time>2019-05-27T12:56:40Z</time>
      </trkpt>
      <trkpt lat="43.01538" lon="6.12779">
        <ele>-1.3</ele>
        <time>2019-05-27T12:56:56Z</time>
      </trkpt>
      <trkpt lat="43.01541" lon="6.12747">
        <ele>-1.3</ele>
        <time>2019-05-27T12:57:09Z</time>
      </trkpt>
      <trkpt lat="43.01544" lon="6.12696">
        <ele>-0.82</ele>
        <time>2019-05-27T12:57:27Z</time>
      </trkpt>
      <trkpt lat="43.01549" lon="6.12645">
        <ele>1.1</ele>
        <time>2019-05-27T12:57:46Z</time>
      </trkpt>
      <trkpt lat="43.01552" lon="6.12601">
        <ele>1.58</ele>
        <time>2019-05-27T12:58:02Z</time>
      </trkpt>
      <trkpt lat="43.01553" lon="6.12559">
        <ele>3.5</ele>
        <time>2019-05-27T12:58:17Z</time>
      </trkpt>
      <trkpt lat="43.01554" lon="6.12522">
        <ele>2.54</ele>
        <time>2019-05-27T12:58:31Z</time>
      </trkpt>
      <trkpt lat="43.01555" lon="6.12486">
        <ele>-0.34</ele>
        <time>2019-05-27T12:58:45Z</time>
      </trkpt>
      <trkpt lat="43.01561" lon="6.12437">
        <ele>-0.82</ele>
        <time>2019-05-27T12:59:02Z</time>
      </trkpt>
      <trkpt lat="43.01561" lon="6.12391">
        <ele>0.62</ele>
        <time>2019-05-27T12:59:16Z</time>
      </trkpt>
      <trkpt lat="43.01562" lon="6.12345">
        <ele>1.1</ele>
        <time>2019-05-27T12:59:30Z</time>
      </trkpt>
      <trkpt lat="43.01561" lon="6.12294">
        <ele>-1.3</ele>
        <time>2019-05-27T12:59:45Z</time>
      </trkpt>
      <trkpt lat="43.01563" lon="6.12235">
        <ele>-1.79</ele>
        <time>2019-05-27T13:00:02Z</time>
      </trkpt>
      <trkpt lat="43.01566" lon="6.12163">
        <ele>-3.23</ele>
        <time>2019-05-27T13:00:23Z</time>
      </trkpt>
      <trkpt lat="43.01576" lon="6.1211">
        <ele>-5.15</ele>
        <time>2019-05-27T13:00:38Z</time>
      </trkpt>
      <trkpt lat="43.01581" lon="6.12049">
        <ele>-6.59</ele>
        <time>2019-05-27T13:00:56Z</time>
      </trkpt>
      <trkpt lat="43.01587" lon="6.11987">
        <ele>-3.23</ele>
        <time>2019-05-27T13:01:13Z</time>
      </trkpt>
      <trkpt lat="43.01591" lon="6.11935">
        <ele>-1.3</ele>
        <time>2019-05-27T13:01:28Z</time>
      </trkpt>
      <trkpt lat="43.01592" lon="6.11919">
        <ele>-1.3</ele>
        <time>2019-05-27T13:01:32Z</time>
      </trkpt>
      <trkpt lat="43.01594" lon="6.1187">
        <ele>-0.34</ele>
        <time>2019-05-27T13:01:45Z</time>
      </trkpt>
      <trkpt lat="43.01599" lon="6.11811">
        <ele>-0.34</ele>
        <time>2019-05-27T13:02:01Z</time>
      </trkpt>
      <trkpt lat="43.01601" lon="6.1176">
        <ele>-1.3</ele>
        <time>2019-05-27T13:02:15Z</time>
      </trkpt>
      <trkpt lat="43.01601" lon="6.11705">
        <ele>-0.82</ele>
        <time>2019-05-27T13:02:29Z</time>
      </trkpt>
      <trkpt lat="43.01601" lon="6.11644">
        <ele>-2.75</ele>
        <time>2019-05-27T13:02:44Z</time>
      </trkpt>
      <trkpt lat="43.01601" lon="6.11596">
        <ele>-4.19</ele>
        <time>2019-05-27T13:02:57Z</time>
      </trkpt>
      <trkpt lat="43.01603" lon="6.11543">
        <ele>-4.19</ele>
        <time>2019-05-27T13:03:10Z</time>
      </trkpt>
      <trkpt lat="43.01608" lon="6.11492">
        <ele>-2.27</ele>
        <time>2019-05-27T13:03:23Z</time>
      </trkpt>
      <trkpt lat="43.01612" lon="6.11452">
        <ele>-2.27</ele>
        <time>2019-05-27T13:03:34Z</time>
      </trkpt>
      <trkpt lat="43.01618" lon="6.11403">
        <ele>-2.75</ele>
        <time>2019-05-27T13:03:48Z</time>
      </trkpt>
      <trkpt lat="43.01627" lon="6.11346">
        <ele>-3.71</ele>
        <time>2019-05-27T13:04:04Z</time>
      </trkpt>
      <trkpt lat="43.0163" lon="6.11295">
        <ele>-7.07</ele>
        <time>2019-05-27T13:04:18Z</time>
      </trkpt>
      <trkpt lat="43.0163" lon="6.11292">
        <ele>-7.07</ele>
        <time>2019-05-27T13:04:19Z</time>
      </trkpt>
      <trkpt lat="43.01637" lon="6.11243">
        <ele>-7.55</ele>
        <time>2019-05-27T13:04:33Z</time>
      </trkpt>
      <trkpt lat="43.01649" lon="6.11187">
        <ele>-4.67</ele>
        <time>2019-05-27T13:04:50Z</time>
      </trkpt>
      <trkpt lat="43.01658" lon="6.11145">
        <ele>-2.75</ele>
        <time>2019-05-27T13:05:03Z</time>
      </trkpt>
      <trkpt lat="43.01667" lon="6.11107">
        <ele>-3.23</ele>
        <time>2019-05-27T13:05:15Z</time>
      </trkpt>
      <trkpt lat="43.01679" lon="6.11071">
        <ele>-2.27</ele>
        <time>2019-05-27T13:05:27Z</time>
      </trkpt>
      <trkpt lat="43.0169" lon="6.11031">
        <ele>-3.23</ele>
        <time>2019-05-27T13:05:41Z</time>
      </trkpt>
      <trkpt lat="43.01707" lon="6.10988">
        <ele>-3.23</ele>
        <time>2019-05-27T13:05:56Z</time>
      </trkpt>
      <trkpt lat="43.01722" lon="6.10946">
        <ele>-3.23</ele>
        <time>2019-05-27T13:06:11Z</time>
      </trkpt>
      <trkpt lat="43.01734" lon="6.10906">
        <ele>-3.23</ele>
        <time>2019-05-27T13:06:26Z</time>
      </trkpt>
      <trkpt lat="43.01743" lon="6.10871">
        <ele>-3.71</ele>
        <time>2019-05-27T13:06:38Z</time>
      </trkpt>
      <trkpt lat="43.01753" lon="6.10836">
        <ele>-3.23</ele>
        <time>2019-05-27T13:06:50Z</time>
      </trkpt>
      <trkpt lat="43.01766" lon="6.10799">
        <ele>-4.19</ele>
        <time>2019-05-27T13:07:02Z</time>
      </trkpt>
      <trkpt lat="43.01781" lon="6.10764">
        <ele>-6.11</ele>
        <time>2019-05-27T13:07:16Z</time>
      </trkpt>
      <trkpt lat="43.01796" lon="6.10728">
        <ele>-6.59</ele>
        <time>2019-05-27T13:07:30Z</time>
      </trkpt>
      <trkpt lat="43.01809" lon="6.10695">
        <ele>-6.11</ele>
        <time>2019-05-27T13:07:43Z</time>
      </trkpt>
      <trkpt lat="43.01822" lon="6.1065">
        <ele>-5.15</ele>
        <time>2019-05-27T13:07:59Z</time>
      </trkpt>
      <trkpt lat="43.01833" lon="6.10608">
        <ele>-3.23</ele>
        <time>2019-05-27T13:08:14Z</time>
      </trkpt>
      <trkpt lat="43.01844" lon="6.10566">
        <ele>-0.82</ele>
        <time>2019-05-27T13:08:28Z</time>
      </trkpt>
      <trkpt lat="43.01857" lon="6.1053">
        <ele>-0.82</ele>
        <time>2019-05-27T13:08:41Z</time>
      </trkpt>
      <trkpt lat="43.01868" lon="6.105">
        <ele>0.62</ele>
        <time>2019-05-27T13:08:52Z</time>
      </trkpt>
      <trkpt lat="43.01884" lon="6.10463">
        <ele>2.06</ele>
        <time>2019-05-27T13:09:07Z</time>
      </trkpt>
      <trkpt lat="43.01899" lon="6.10429">
        <ele>0.62</ele>
        <time>2019-05-27T13:09:21Z</time>
      </trkpt>
      <trkpt lat="43.0191" lon="6.10397">
        <ele>-0.82</ele>
        <time>2019-05-27T13:09:35Z</time>
      </trkpt>
      <trkpt lat="43.01919" lon="6.10373">
        <ele>-3.71</ele>
        <time>2019-05-27T13:09:46Z</time>
      </trkpt>
      <trkpt lat="43.01931" lon="6.10336">
        <ele>-4.67</ele>
        <time>2019-05-27T13:10:02Z</time>
      </trkpt>
      <trkpt lat="43.01943" lon="6.10293">
        <ele>-4.19</ele>
        <time>2019-05-27T13:10:18Z</time>
      </trkpt>
      <trkpt lat="43.01955" lon="6.1026">
        <ele>-3.71</ele>
        <time>2019-05-27T13:10:31Z</time>
      </trkpt>
      <trkpt lat="43.01968" lon="6.10227">
        <ele>-3.23</ele>
        <time>2019-05-27T13:10:44Z</time>
      </trkpt>
      <trkpt lat="43.01985" lon="6.10187">
        <ele>-3.71</ele>
        <time>2019-05-27T13:11:01Z</time>
      </trkpt>
      <trkpt lat="43.01997" lon="6.10156">
        <ele>-0.82</ele>
        <time>2019-05-27T13:11:14Z</time>
      </trkpt>
      <trkpt lat="43.02011" lon="6.10122">
        <ele>0.62</ele>
        <time>2019-05-27T13:11:30Z</time>
      </trkpt>
      <trkpt lat="43.0202" lon="6.10099">
        <ele>-0.82</ele>
        <time>2019-05-27T13:11:42Z</time>
      </trkpt>
      <trkpt lat="43.02023" lon="6.10091">
        <ele>-1.3</ele>
        <time>2019-05-27T13:11:46Z</time>
      </trkpt>
      <trkpt lat="43.02025" lon="6.10083">
        <ele>-1.79</ele>
        <time>2019-05-27T13:11:50Z</time>
      </trkpt>
      <trkpt lat="43.02034" lon="6.10062">
        <ele>-0.82</ele>
        <time>2019-05-27T13:12:02Z</time>
      </trkpt>
      <trkpt lat="43.02047" lon="6.10038">
        <ele>0.14</ele>
        <time>2019-05-27T13:12:17Z</time>
      </trkpt>
      <trkpt lat="43.02052" lon="6.10025">
        <ele>-2.27</ele>
        <time>2019-05-27T13:12:24Z</time>
      </trkpt>
      <trkpt lat="43.02054" lon="6.10023">
        <ele>-3.71</ele>
        <time>2019-05-27T13:12:26Z</time>
      </trkpt>
      <trkpt lat="43.02064" lon="6.09995">
        <ele>-6.11</ele>
        <time>2019-05-27T13:12:40Z</time>
      </trkpt>
      <trkpt lat="43.02069" lon="6.0998">
        <ele>-5.63</ele>
        <time>2019-05-27T13:12:47Z</time>
      </trkpt>
      <trkpt lat="43.02071" lon="6.09972">
        <ele>-5.15</ele>
        <time>2019-05-27T13:12:51Z</time>
      </trkpt>
      <trkpt lat="43.02084" lon="6.09938">
        <ele>-4.67</ele>
        <time>2019-05-27T13:13:06Z</time>
      </trkpt>
      <trkpt lat="43.02092" lon="6.09912">
        <ele>-5.15</ele>
        <time>2019-05-27T13:13:18Z</time>
      </trkpt>
      <trkpt lat="43.02109" lon="6.09873">
        <ele>-7.07</ele>
        <time>2019-05-27T13:13:37Z</time>
      </trkpt>
      <trkpt lat="43.02119" lon="6.09844">
        <ele>-6.11</ele>
        <time>2019-05-27T13:13:52Z</time>
      </trkpt>
      <trkpt lat="43.02121" lon="6.09837">
        <ele>-5.63</ele>
        <time>2019-05-27T13:13:55Z</time>
      </trkpt>
      <trkpt lat="43.02123" lon="6.09834">
        <ele>-5.15</ele>
        <time>2019-05-27T13:13:57Z</time>
      </trkpt>
      <trkpt lat="43.02132" lon="6.09809">
        <ele>-2.75</ele>
        <time>2019-05-27T13:14:10Z</time>
      </trkpt>
      <trkpt lat="43.02139" lon="6.09779">
        <ele>-2.27</ele>
        <time>2019-05-27T13:14:24Z</time>
      </trkpt>
      <trkpt lat="43.02147" lon="6.09743">
        <ele>-4.19</ele>
        <time>2019-05-27T13:14:39Z</time>
      </trkpt>
      <trkpt lat="43.02159" lon="6.09715">
        <ele>-5.15</ele>
        <time>2019-05-27T13:14:53Z</time>
      </trkpt>
      <trkpt lat="43.02171" lon="6.09687">
        <ele>-5.63</ele>
        <time>2019-05-27T13:15:08Z</time>
      </trkpt>
      <trkpt lat="43.02181" lon="6.09661">
        <ele>-5.63</ele>
        <time>2019-05-27T13:15:22Z</time>
      </trkpt>
      <trkpt lat="43.02193" lon="6.09637">
        <ele>-3.23</ele>
        <time>2019-05-27T13:15:36Z</time>
      </trkpt>
      <trkpt lat="43.02194" lon="6.09634">
        <ele>-2.75</ele>
        <time>2019-05-27T13:15:38Z</time>
      </trkpt>
      <trkpt lat="43.02197" lon="6.09626">
        <ele>-3.23</ele>
        <time>2019-05-27T13:15:42Z</time>
      </trkpt>
      <trkpt lat="43.02213" lon="6.0959">
        <ele>-5.63</ele>
        <time>2019-05-27T13:16:00Z</time>
      </trkpt>
      <trkpt lat="43.02229" lon="6.09554">
        <ele>-7.07</ele>
        <time>2019-05-27T13:16:16Z</time>
      </trkpt>
      <trkpt lat="43.02244" lon="6.09522">
        <ele>-8.51</ele>
        <time>2019-05-27T13:16:32Z</time>
      </trkpt>
      <trkpt lat="43.02257" lon="6.09493">
        <ele>-7.55</ele>
        <time>2019-05-27T13:16:45Z</time>
      </trkpt>
      <trkpt lat="43.02269" lon="6.09462">
        <ele>-4.19</ele>
        <time>2019-05-27T13:16:58Z</time>
      </trkpt>
      <trkpt lat="43.02285" lon="6.09422">
        <ele>-3.71</ele>
        <time>2019-05-27T13:17:13Z</time>
      </trkpt>
      <trkpt lat="43.02298" lon="6.09384">
        <ele>-2.75</ele>
        <time>2019-05-27T13:17:26Z</time>
      </trkpt>
      <trkpt lat="43.02314" lon="6.09346">
        <ele>-0.82</ele>
        <time>2019-05-27T13:17:40Z</time>
      </trkpt>
      <trkpt lat="43.02327" lon="6.09305">
        <ele>-0.82</ele>
        <time>2019-05-27T13:17:54Z</time>
      </trkpt>
      <trkpt lat="43.02341" lon="6.09272">
        <ele>0.14</ele>
        <time>2019-05-27T13:18:06Z</time>
      </trkpt>
      <trkpt lat="43.02362" lon="6.09232">
        <ele>0.62</ele>
        <time>2019-05-27T13:18:21Z</time>
      </trkpt>
      <trkpt lat="43.02378" lon="6.09194">
        <ele>0.14</ele>
        <time>2019-05-27T13:18:36Z</time>
      </trkpt>
      <trkpt lat="43.02404" lon="6.09142">
        <ele>-0.34</ele>
        <time>2019-05-27T13:18:56Z</time>
      </trkpt>
      <trkpt lat="43.02419" lon="6.09101">
        <ele>0.62</ele>
        <time>2019-05-27T13:19:11Z</time>
      </trkpt>
      <trkpt lat="43.02433" lon="6.09062">
        <ele>0.62</ele>
        <time>2019-05-27T13:19:25Z</time>
      </trkpt>
      <trkpt lat="43.02453" lon="6.09019">
        <ele>-0.34</ele>
        <time>2019-05-27T13:19:40Z</time>
      </trkpt>
      <trkpt lat="43.0247" lon="6.0898">
        <ele>-0.34</ele>
        <time>2019-05-27T13:19:54Z</time>
      </trkpt>
      <trkpt lat="43.02489" lon="6.08948">
        <ele>0.14</ele>
        <time>2019-05-27T13:20:08Z</time>
      </trkpt>
      <trkpt lat="43.02504" lon="6.08918">
        <ele>-0.34</ele>
        <time>2019-05-27T13:20:20Z</time>
      </trkpt>
      <trkpt lat="43.02509" lon="6.0891">
        <ele>-0.82</ele>
        <time>2019-05-27T13:20:24Z</time>
      </trkpt>
      <trkpt lat="43.02522" lon="6.08875">
        <ele>-1.3</ele>
        <time>2019-05-27T13:20:38Z</time>
      </trkpt>
      <trkpt lat="43.02538" lon="6.08845">
        <ele>-1.3</ele>
        <time>2019-05-27T13:20:51Z</time>
      </trkpt>
      <trkpt lat="43.02554" lon="6.08804">
        <ele>-1.3</ele>
        <time>2019-05-27T13:21:07Z</time>
      </trkpt>
      <trkpt lat="43.02568" lon="6.08765">
        <ele>-0.82</ele>
        <time>2019-05-27T13:21:21Z</time>
      </trkpt>
      <trkpt lat="43.02587" lon="6.08712">
        <ele>-0.34</ele>
        <time>2019-05-27T13:21:39Z</time>
      </trkpt>
      <trkpt lat="43.02607" lon="6.08673">
        <ele>-1.79</ele>
        <time>2019-05-27T13:21:53Z</time>
      </trkpt>
      <trkpt lat="43.02621" lon="6.08634">
        <ele>-1.79</ele>
        <time>2019-05-27T13:22:06Z</time>
      </trkpt>
      <trkpt lat="43.02638" lon="6.08594">
        <ele>-1.79</ele>
        <time>2019-05-27T13:22:20Z</time>
      </trkpt>
      <trkpt lat="43.02652" lon="6.08557">
        <ele>-2.27</ele>
        <time>2019-05-27T13:22:32Z</time>
      </trkpt>
      <trkpt lat="43.02673" lon="6.08513">
        <ele>-1.79</ele>
        <time>2019-05-27T13:22:47Z</time>
      </trkpt>
      <trkpt lat="43.0269" lon="6.08473">
        <ele>-2.27</ele>
        <time>2019-05-27T13:23:01Z</time>
      </trkpt>
      <trkpt lat="43.02709" lon="6.08437">
        <ele>-1.3</ele>
        <time>2019-05-27T13:23:15Z</time>
      </trkpt>
      <trkpt lat="43.02726" lon="6.08406">
        <ele>-1.79</ele>
        <time>2019-05-27T13:23:28Z</time>
      </trkpt>
      <trkpt lat="43.02746" lon="6.08374">
        <ele>-2.27</ele>
        <time>2019-05-27T13:23:41Z</time>
      </trkpt>
      <trkpt lat="43.02766" lon="6.08341">
        <ele>-0.82</ele>
        <time>2019-05-27T13:23:54Z</time>
      </trkpt>
      <trkpt lat="43.02781" lon="6.08309">
        <ele>-1.3</ele>
        <time>2019-05-27T13:24:06Z</time>
      </trkpt>
      <trkpt lat="43.02796" lon="6.08279">
        <ele>-2.75</ele>
        <time>2019-05-27T13:24:18Z</time>
      </trkpt>
      <trkpt lat="43.02811" lon="6.08251">
        <ele>-1.79</ele>
        <time>2019-05-27T13:24:30Z</time>
      </trkpt>
      <trkpt lat="43.02827" lon="6.08222">
        <ele>-2.27</ele>
        <time>2019-05-27T13:24:43Z</time>
      </trkpt>
      <trkpt lat="43.02843" lon="6.08189">
        <ele>-3.71</ele>
        <time>2019-05-27T13:24:56Z</time>
      </trkpt>
      <trkpt lat="43.02864" lon="6.08155">
        <ele>-2.75</ele>
        <time>2019-05-27T13:25:10Z</time>
      </trkpt>
      <trkpt lat="43.02882" lon="6.08118">
        <ele>-2.27</ele>
        <time>2019-05-27T13:25:24Z</time>
      </trkpt>
      <trkpt lat="43.02899" lon="6.08089">
        <ele>-1.79</ele>
        <time>2019-05-27T13:25:36Z</time>
      </trkpt>
      <trkpt lat="43.02919" lon="6.08055">
        <ele>-1.79</ele>
        <time>2019-05-27T13:25:50Z</time>
      </trkpt>
      <trkpt lat="43.0294" lon="6.08024">
        <ele>-1.79</ele>
        <time>2019-05-27T13:26:03Z</time>
      </trkpt>
      <trkpt lat="43.0296" lon="6.07992">
        <ele>-2.27</ele>
        <time>2019-05-27T13:26:16Z</time>
      </trkpt>
      <trkpt lat="43.02979" lon="6.07955">
        <ele>-0.82</ele>
        <time>2019-05-27T13:26:31Z</time>
      </trkpt>
      <trkpt lat="43.02996" lon="6.07928">
        <ele>-0.34</ele>
        <time>2019-05-27T13:26:43Z</time>
      </trkpt>
      <trkpt lat="43.03005" lon="6.07911">
        <ele>0.62</ele>
        <time>2019-05-27T13:26:50Z</time>
      </trkpt>
      <trkpt lat="43.03022" lon="6.07874">
        <ele>1.58</ele>
        <time>2019-05-27T13:27:05Z</time>
      </trkpt>
      <trkpt lat="43.03026" lon="6.07863">
        <ele>1.58</ele>
        <time>2019-05-27T13:27:09Z</time>
      </trkpt>
      <trkpt lat="43.0304" lon="6.07826">
        <ele>3.5</ele>
        <time>2019-05-27T13:27:24Z</time>
      </trkpt>
      <trkpt lat="43.03061" lon="6.07795">
        <ele>2.54</ele>
        <time>2019-05-27T13:27:39Z</time>
      </trkpt>
      <trkpt lat="43.03081" lon="6.07766">
        <ele>0.62</ele>
        <time>2019-05-27T13:27:54Z</time>
      </trkpt>
      <trkpt lat="43.03095" lon="6.07738">
        <ele>0.62</ele>
        <time>2019-05-27T13:28:06Z</time>
      </trkpt>
      <trkpt lat="43.03111" lon="6.07704">
        <ele>-0.34</ele>
        <time>2019-05-27T13:28:20Z</time>
      </trkpt>
      <trkpt lat="43.0313" lon="6.07665">
        <ele>-2.27</ele>
        <time>2019-05-27T13:28:35Z</time>
      </trkpt>
      <trkpt lat="43.03147" lon="6.0763">
        <ele>-2.27</ele>
        <time>2019-05-27T13:28:48Z</time>
      </trkpt>
      <trkpt lat="43.03164" lon="6.07594">
        <ele>-0.82</ele>
        <time>2019-05-27T13:29:02Z</time>
      </trkpt>
      <trkpt lat="43.03165" lon="6.07592">
        <ele>-0.82</ele>
        <time>2019-05-27T13:29:03Z</time>
      </trkpt>
      <trkpt lat="43.03171" lon="6.0758">
        <ele>-1.3</ele>
        <time>2019-05-27T13:29:08Z</time>
      </trkpt>
      <trkpt lat="43.03188" lon="6.07548">
        <ele>-1.3</ele>
        <time>2019-05-27T13:29:21Z</time>
      </trkpt>
      <trkpt lat="43.03206" lon="6.07514">
        <ele>-0.82</ele>
        <time>2019-05-27T13:29:34Z</time>
      </trkpt>
      <trkpt lat="43.03227" lon="6.07473">
        <ele>-0.34</ele>
        <time>2019-05-27T13:29:49Z</time>
      </trkpt>
      <trkpt lat="43.03244" lon="6.07436">
        <ele>-0.34</ele>
        <time>2019-05-27T13:30:02Z</time>
      </trkpt>
      <trkpt lat="43.03263" lon="6.07399">
        <ele>-0.34</ele>
        <time>2019-05-27T13:30:15Z</time>
      </trkpt>
      <trkpt lat="43.03283" lon="6.07362">
        <ele>-0.82</ele>
        <time>2019-05-27T13:30:29Z</time>
      </trkpt>
      <trkpt lat="43.03301" lon="6.07325">
        <ele>-0.34</ele>
        <time>2019-05-27T13:30:43Z</time>
      </trkpt>
      <trkpt lat="43.03319" lon="6.07288">
        <ele>0.14</ele>
        <time>2019-05-27T13:30:57Z</time>
      </trkpt>
      <trkpt lat="43.03335" lon="6.07257">
        <ele>-2.27</ele>
        <time>2019-05-27T13:31:10Z</time>
      </trkpt>
      <trkpt lat="43.03353" lon="6.07224">
        <ele>-2.75</ele>
        <time>2019-05-27T13:31:24Z</time>
      </trkpt>
      <trkpt lat="43.0337" lon="6.0719">
        <ele>-4.19</ele>
        <time>2019-05-27T13:31:37Z</time>
      </trkpt>
      <trkpt lat="43.03374" lon="6.07181">
        <ele>-4.67</ele>
        <time>2019-05-27T13:31:40Z</time>
      </trkpt>
      <trkpt lat="43.03388" lon="6.07157">
        <ele>-4.67</ele>
        <time>2019-05-27T13:31:51Z</time>
      </trkpt>
      <trkpt lat="43.03403" lon="6.07134">
        <ele>-5.15</ele>
        <time>2019-05-27T13:32:02Z</time>
      </trkpt>
      <trkpt lat="43.03419" lon="6.07107">
        <ele>-5.63</ele>
        <time>2019-05-27T13:32:14Z</time>
      </trkpt>
      <trkpt lat="43.03432" lon="6.07086">
        <ele>-6.11</ele>
        <time>2019-05-27T13:32:23Z</time>
      </trkpt>
      <trkpt lat="43.03439" lon="6.07072">
        <ele>-5.63</ele>
        <time>2019-05-27T13:32:29Z</time>
      </trkpt>
      <trkpt lat="43.03449" lon="6.07047">
        <ele>-5.63</ele>
        <time>2019-05-27T13:32:39Z</time>
      </trkpt>
      <trkpt lat="43.03459" lon="6.07029">
        <ele>-6.11</ele>
        <time>2019-05-27T13:32:47Z</time>
      </trkpt>
      <trkpt lat="43.03468" lon="6.07009">
        <ele>-4.67</ele>
        <time>2019-05-27T13:32:56Z</time>
      </trkpt>
      <trkpt lat="43.03471" lon="6.07004">
        <ele>-4.19</ele>
        <time>2019-05-27T13:32:58Z</time>
      </trkpt>
      <trkpt lat="43.03482" lon="6.06969">
        <ele>-4.19</ele>
        <time>2019-05-27T13:33:12Z</time>
      </trkpt>
      <trkpt lat="43.03496" lon="6.06935">
        <ele>-3.71</ele>
        <time>2019-05-27T13:33:25Z</time>
      </trkpt>
      <trkpt lat="43.03506" lon="6.06902">
        <ele>-2.75</ele>
        <time>2019-05-27T13:33:38Z</time>
      </trkpt>
      <trkpt lat="43.03521" lon="6.06867">
        <ele>-3.23</ele>
        <time>2019-05-27T13:33:51Z</time>
      </trkpt>
      <trkpt lat="43.03539" lon="6.06821">
        <ele>-2.75</ele>
        <time>2019-05-27T13:34:07Z</time>
      </trkpt>
      <trkpt lat="43.03558" lon="6.06782">
        <ele>-2.75</ele>
        <time>2019-05-27T13:34:21Z</time>
      </trkpt>
      <trkpt lat="43.03578" lon="6.06738">
        <ele>-2.75</ele>
        <time>2019-05-27T13:34:36Z</time>
      </trkpt>
      <trkpt lat="43.03593" lon="6.06702">
        <ele>-2.75</ele>
        <time>2019-05-27T13:34:49Z</time>
      </trkpt>
      <trkpt lat="43.03606" lon="6.06667">
        <ele>-2.27</ele>
        <time>2019-05-27T13:35:01Z</time>
      </trkpt>
      <trkpt lat="43.03617" lon="6.06642">
        <ele>-2.27</ele>
        <time>2019-05-27T13:35:09Z</time>
      </trkpt>
      <trkpt lat="43.03622" lon="6.06628">
        <ele>-1.79</ele>
        <time>2019-05-27T13:35:14Z</time>
      </trkpt>
      <trkpt lat="43.03643" lon="6.06593">
        <ele>-0.34</ele>
        <time>2019-05-27T13:35:29Z</time>
      </trkpt>
      <trkpt lat="43.03647" lon="6.06586">
        <ele>-0.34</ele>
        <time>2019-05-27T13:35:32Z</time>
      </trkpt>
      <trkpt lat="43.03664" lon="6.06564">
        <ele>-1.3</ele>
        <time>2019-05-27T13:35:43Z</time>
      </trkpt>
      <trkpt lat="43.03672" lon="6.06551">
        <ele>-1.3</ele>
        <time>2019-05-27T13:35:49Z</time>
      </trkpt>
      <trkpt lat="43.03692" lon="6.06531">
        <ele>-1.3</ele>
        <time>2019-05-27T13:36:02Z</time>
      </trkpt>
      <trkpt lat="43.03714" lon="6.06514">
        <ele>-0.34</ele>
        <time>2019-05-27T13:36:15Z</time>
      </trkpt>
      <trkpt lat="43.03739" lon="6.06493">
        <ele>-0.82</ele>
        <time>2019-05-27T13:36:30Z</time>
      </trkpt>
      <trkpt lat="43.03762" lon="6.06478">
        <ele>-2.27</ele>
        <time>2019-05-27T13:36:42Z</time>
      </trkpt>
      <trkpt lat="43.03784" lon="6.06459">
        <ele>-2.75</ele>
        <time>2019-05-27T13:36:53Z</time>
      </trkpt>
      <trkpt lat="43.03803" lon="6.06438">
        <ele>-1.79</ele>
        <time>2019-05-27T13:37:04Z</time>
      </trkpt>
      <trkpt lat="43.03828" lon="6.06416">
        <ele>-2.27</ele>
        <time>2019-05-27T13:37:17Z</time>
      </trkpt>
      <trkpt lat="43.03832" lon="6.06413">
        <ele>-2.27</ele>
        <time>2019-05-27T13:37:19Z</time>
      </trkpt>
      <trkpt lat="43.03845" lon="6.06404">
        <ele>-2.75</ele>
        <time>2019-05-27T13:37:26Z</time>
      </trkpt>
      <trkpt lat="43.03871" lon="6.06385">
        <ele>-3.71</ele>
        <time>2019-05-27T13:37:40Z</time>
      </trkpt>
      <trkpt lat="43.0389" lon="6.0637">
        <ele>-3.23</ele>
        <time>2019-05-27T13:37:50Z</time>
      </trkpt>
      <trkpt lat="43.03911" lon="6.06353">
        <ele>-2.75</ele>
        <time>2019-05-27T13:38:02Z</time>
      </trkpt>
      <trkpt lat="43.03937" lon="6.06333">
        <ele>-2.75</ele>
        <time>2019-05-27T13:38:17Z</time>
      </trkpt>
      <trkpt lat="43.0394" lon="6.0633">
        <ele>-2.75</ele>
        <time>2019-05-27T13:38:19Z</time>
      </trkpt>
      <trkpt lat="43.03944" lon="6.06326">
        <ele>-3.23</ele>
        <time>2019-05-27T13:38:22Z</time>
      </trkpt>
      <trkpt lat="43.03954" lon="6.06312">
        <ele>-2.75</ele>
        <time>2019-05-27T13:38:29Z</time>
      </trkpt>
      <trkpt lat="43.03976" lon="6.06292">
        <ele>-3.71</ele>
        <time>2019-05-27T13:38:42Z</time>
      </trkpt>
      <trkpt lat="43.03996" lon="6.06269">
        <ele>-3.71</ele>
        <time>2019-05-27T13:38:55Z</time>
      </trkpt>
      <trkpt lat="43.04019" lon="6.06245">
        <ele>-4.19</ele>
        <time>2019-05-27T13:39:08Z</time>
      </trkpt>
      <trkpt lat="43.04034" lon="6.0623">
        <ele>-4.67</ele>
        <time>2019-05-27T13:39:18Z</time>
      </trkpt>
      <trkpt lat="43.04043" lon="6.0622">
        <ele>-3.23</ele>
        <time>2019-05-27T13:39:24Z</time>
      </trkpt>
      <trkpt lat="43.04057" lon="6.06198">
        <ele>-2.27</ele>
        <time>2019-05-27T13:39:35Z</time>
      </trkpt>
      <trkpt lat="43.04065" lon="6.06185">
        <ele>-1.79</ele>
        <time>2019-05-27T13:39:41Z</time>
      </trkpt>
      <trkpt lat="43.04069" lon="6.06174">
        <ele>-0.82</ele>
        <time>2019-05-27T13:39:45Z</time>
      </trkpt>
      <trkpt lat="43.04076" lon="6.06156">
        <ele>-0.34</ele>
        <time>2019-05-27T13:39:53Z</time>
      </trkpt>
      <trkpt lat="43.04082" lon="6.0614">
        <ele>0.14</ele>
        <time>2019-05-27T13:39:59Z</time>
      </trkpt>
      <trkpt lat="43.04097" lon="6.06106">
        <ele>0.62</ele>
        <time>2019-05-27T13:40:11Z</time>
      </trkpt>
      <trkpt lat="43.04112" lon="6.06072">
        <ele>2.06</ele>
        <time>2019-05-27T13:40:24Z</time>
      </trkpt>
      <trkpt lat="43.04129" lon="6.06045">
        <ele>1.1</ele>
        <time>2019-05-27T13:40:36Z</time>
      </trkpt>
      <trkpt lat="43.04145" lon="6.06014">
        <ele>0.14</ele>
        <time>2019-05-27T13:40:49Z</time>
      </trkpt>
      <trkpt lat="43.04163" lon="6.05978">
        <ele>0.14</ele>
        <time>2019-05-27T13:41:03Z</time>
      </trkpt>
      <trkpt lat="43.04182" lon="6.05939">
        <ele>1.58</ele>
        <time>2019-05-27T13:41:19Z</time>
      </trkpt>
      <trkpt lat="43.04205" lon="6.05905">
        <ele>1.1</ele>
        <time>2019-05-27T13:41:36Z</time>
      </trkpt>
      <trkpt lat="43.0421" lon="6.05897">
        <ele>0.62</ele>
        <time>2019-05-27T13:41:40Z</time>
      </trkpt>
      <trkpt lat="43.04224" lon="6.05874">
        <ele>-0.82</ele>
        <time>2019-05-27T13:41:50Z</time>
      </trkpt>
      <trkpt lat="43.04231" lon="6.0586">
        <ele>-1.79</ele>
        <time>2019-05-27T13:41:56Z</time>
      </trkpt>
      <trkpt lat="43.04238" lon="6.05844">
        <ele>-1.79</ele>
        <time>2019-05-27T13:42:03Z</time>
      </trkpt>
      <trkpt lat="43.04245" lon="6.05828">
        <ele>-1.79</ele>
        <time>2019-05-27T13:42:10Z</time>
      </trkpt>
      <trkpt lat="43.04249" lon="6.05818">
        <ele>-2.75</ele>
        <time>2019-05-27T13:42:14Z</time>
      </trkpt>
      <trkpt lat="43.04252" lon="6.05814">
        <ele>-2.75</ele>
        <time>2019-05-27T13:42:16Z</time>
      </trkpt>
      <trkpt lat="43.04268" lon="6.0578">
        <ele>-3.23</ele>
        <time>2019-05-27T13:42:31Z</time>
      </trkpt>
      <trkpt lat="43.04279" lon="6.05757">
        <ele>-5.15</ele>
        <time>2019-05-27T13:42:42Z</time>
      </trkpt>
      <trkpt lat="43.04287" lon="6.0574">
        <ele>-5.15</ele>
        <time>2019-05-27T13:42:49Z</time>
      </trkpt>
      <trkpt lat="43.04299" lon="6.0571">
        <ele>-5.15</ele>
        <time>2019-05-27T13:43:01Z</time>
      </trkpt>
      <trkpt lat="43.04307" lon="6.05697">
        <ele>-6.11</ele>
        <time>2019-05-27T13:43:07Z</time>
      </trkpt>
      <trkpt lat="43.04319" lon="6.05682">
        <ele>-5.63</ele>
        <time>2019-05-27T13:43:15Z</time>
      </trkpt>
      <trkpt lat="43.04327" lon="6.05675">
        <ele>-6.11</ele>
        <time>2019-05-27T13:43:20Z</time>
      </trkpt>
      <trkpt lat="43.04338" lon="6.05667">
        <ele>-7.07</ele>
        <time>2019-05-27T13:43:27Z</time>
      </trkpt>
      <trkpt lat="43.04344" lon="6.0566">
        <ele>-5.63</ele>
        <time>2019-05-27T13:43:32Z</time>
      </trkpt>
      <trkpt lat="43.04369" lon="6.05645">
        <ele>-3.71</ele>
        <time>2019-05-27T13:43:45Z</time>
      </trkpt>
      <trkpt lat="43.04397" lon="6.0563">
        <ele>-4.19</ele>
        <time>2019-05-27T13:43:58Z</time>
      </trkpt>
      <trkpt lat="43.04427" lon="6.05612">
        <ele>-3.23</ele>
        <time>2019-05-27T13:44:13Z</time>
      </trkpt>
      <trkpt lat="43.04431" lon="6.05609">
        <ele>-2.75</ele>
        <time>2019-05-27T13:44:15Z</time>
      </trkpt>
      <trkpt lat="43.04445" lon="6.056">
        <ele>-2.27</ele>
        <time>2019-05-27T13:44:21Z</time>
      </trkpt>
      <trkpt lat="43.04472" lon="6.05582">
        <ele>-3.71</ele>
        <time>2019-05-27T13:44:34Z</time>
      </trkpt>
      <trkpt lat="43.04501" lon="6.05566">
        <ele>-2.75</ele>
        <time>2019-05-27T13:44:48Z</time>
      </trkpt>
      <trkpt lat="43.04528" lon="6.05546">
        <ele>-2.75</ele>
        <time>2019-05-27T13:45:02Z</time>
      </trkpt>
      <trkpt lat="43.04556" lon="6.05533">
        <ele>-3.71</ele>
        <time>2019-05-27T13:45:16Z</time>
      </trkpt>
      <trkpt lat="43.04581" lon="6.05523">
        <ele>-4.19</ele>
        <time>2019-05-27T13:45:28Z</time>
      </trkpt>
      <trkpt lat="43.04609" lon="6.05513">
        <ele>-5.15</ele>
        <time>2019-05-27T13:45:42Z</time>
      </trkpt>
      <trkpt lat="43.04639" lon="6.05503">
        <ele>-4.67</ele>
        <time>2019-05-27T13:45:57Z</time>
      </trkpt>
      <trkpt lat="43.04667" lon="6.05492">
        <ele>-3.23</ele>
        <time>2019-05-27T13:46:11Z</time>
      </trkpt>
      <trkpt lat="43.04691" lon="6.05482">
        <ele>-2.75</ele>
        <time>2019-05-27T13:46:23Z</time>
      </trkpt>
      <trkpt lat="43.04714" lon="6.0547">
        <ele>-3.23</ele>
        <time>2019-05-27T13:46:35Z</time>
      </trkpt>
      <trkpt lat="43.04724" lon="6.05465">
        <ele>-3.23</ele>
        <time>2019-05-27T13:46:40Z</time>
      </trkpt>
      <trkpt lat="43.04739" lon="6.05459">
        <ele>-2.27</ele>
        <time>2019-05-27T13:46:48Z</time>
      </trkpt>
      <trkpt lat="43.04763" lon="6.05448">
        <ele>-4.19</ele>
        <time>2019-05-27T13:47:00Z</time>
      </trkpt>
      <trkpt lat="43.04771" lon="6.05445">
        <ele>-3.71</ele>
        <time>2019-05-27T13:47:04Z</time>
      </trkpt>
      <trkpt lat="43.04777" lon="6.05443">
        <ele>-3.71</ele>
        <time>2019-05-27T13:47:07Z</time>
      </trkpt>
      <trkpt lat="43.04813" lon="6.05436">
        <ele>-1.3</ele>
        <time>2019-05-27T13:47:24Z</time>
      </trkpt>
      <trkpt lat="43.0483" lon="6.05432">
        <ele>-0.82</ele>
        <time>2019-05-27T13:47:34Z</time>
      </trkpt>
      <trkpt lat="43.04838" lon="6.05431">
        <ele>-1.79</ele>
        <time>2019-05-27T13:47:38Z</time>
      </trkpt>
      <trkpt lat="43.04868" lon="6.05428">
        <ele>-1.3</ele>
        <time>2019-05-27T13:47:53Z</time>
      </trkpt>
      <trkpt lat="43.04902" lon="6.05424">
        <ele>-0.34</ele>
        <time>2019-05-27T13:48:09Z</time>
      </trkpt>
      <trkpt lat="43.04933" lon="6.05415">
        <ele>0.14</ele>
        <time>2019-05-27T13:48:26Z</time>
      </trkpt>
      <trkpt lat="43.04961" lon="6.05415">
        <ele>0.62</ele>
        <time>2019-05-27T13:48:40Z</time>
      </trkpt>
      <trkpt lat="43.0499" lon="6.05418">
        <ele>-0.82</ele>
        <time>2019-05-27T13:48:54Z</time>
      </trkpt>
      <trkpt lat="43.05017" lon="6.0542">
        <ele>-0.82</ele>
        <time>2019-05-27T13:49:06Z</time>
      </trkpt>
      <trkpt lat="43.05026" lon="6.05415">
        <ele>-1.3</ele>
        <time>2019-05-27T13:49:11Z</time>
      </trkpt>
      <trkpt lat="43.0505" lon="6.0539">
        <ele>-2.27</ele>
        <time>2019-05-27T13:49:27Z</time>
      </trkpt>
      <trkpt lat="43.05067" lon="6.05359">
        <ele>-3.71</ele>
        <time>2019-05-27T13:49:40Z</time>
      </trkpt>
      <trkpt lat="43.05083" lon="6.05329">
        <ele>-3.71</ele>
        <time>2019-05-27T13:49:53Z</time>
      </trkpt>
      <trkpt lat="43.05099" lon="6.05293">
        <ele>-3.71</ele>
        <time>2019-05-27T13:50:07Z</time>
      </trkpt>
      <trkpt lat="43.05118" lon="6.05246">
        <ele>-3.71</ele>
        <time>2019-05-27T13:50:25Z</time>
      </trkpt>
      <trkpt lat="43.05139" lon="6.05205">
        <ele>-3.71</ele>
        <time>2019-05-27T13:50:41Z</time>
      </trkpt>
      <trkpt lat="43.05154" lon="6.05176">
        <ele>-2.75</ele>
        <time>2019-05-27T13:50:52Z</time>
      </trkpt>
      <trkpt lat="43.05172" lon="6.05134">
        <ele>-1.3</ele>
        <time>2019-05-27T13:51:07Z</time>
      </trkpt>
      <trkpt lat="43.05189" lon="6.05096">
        <ele>-0.34</ele>
        <time>2019-05-27T13:51:21Z</time>
      </trkpt>
      <trkpt lat="43.05205" lon="6.05058">
        <ele>-0.34</ele>
        <time>2019-05-27T13:51:35Z</time>
      </trkpt>
      <trkpt lat="43.0522" lon="6.05019">
        <ele>-0.34</ele>
        <time>2019-05-27T13:51:49Z</time>
      </trkpt>
      <trkpt lat="43.05235" lon="6.04987">
        <ele>0.14</ele>
        <time>2019-05-27T13:52:01Z</time>
      </trkpt>
      <trkpt lat="43.05252" lon="6.04947">
        <ele>-0.82</ele>
        <time>2019-05-27T13:52:15Z</time>
      </trkpt>
      <trkpt lat="43.05265" lon="6.04913">
        <ele>-0.34</ele>
        <time>2019-05-27T13:52:27Z</time>
      </trkpt>
      <trkpt lat="43.05278" lon="6.04872">
        <ele>0.62</ele>
        <time>2019-05-27T13:52:40Z</time>
      </trkpt>
      <trkpt lat="43.05295" lon="6.04827">
        <ele>-0.34</ele>
        <time>2019-05-27T13:52:54Z</time>
      </trkpt>
      <trkpt lat="43.05308" lon="6.04792">
        <ele>-1.79</ele>
        <time>2019-05-27T13:53:04Z</time>
      </trkpt>
      <trkpt lat="43.05321" lon="6.04758">
        <ele>-2.75</ele>
        <time>2019-05-27T13:53:14Z</time>
      </trkpt>
      <trkpt lat="43.05331" lon="6.04735">
        <ele>-3.71</ele>
        <time>2019-05-27T13:53:21Z</time>
      </trkpt>
      <trkpt lat="43.05347" lon="6.04701">
        <ele>-1.79</ele>
        <time>2019-05-27T13:53:33Z</time>
      </trkpt>
      <trkpt lat="43.05353" lon="6.04688">
        <ele>-1.3</ele>
        <time>2019-05-27T13:53:37Z</time>
      </trkpt>
      <trkpt lat="43.05372" lon="6.04645">
        <ele>-0.34</ele>
        <time>2019-05-27T13:53:51Z</time>
      </trkpt>
      <trkpt lat="43.05389" lon="6.04611">
        <ele>0.14</ele>
        <time>2019-05-27T13:54:03Z</time>
      </trkpt>
      <trkpt lat="43.05407" lon="6.04571">
        <ele>2.06</ele>
        <time>2019-05-27T13:54:17Z</time>
      </trkpt>
      <trkpt lat="43.0541" lon="6.04563">
        <ele>2.06</ele>
        <time>2019-05-27T13:54:20Z</time>
      </trkpt>
      <trkpt lat="43.05417" lon="6.04549">
        <ele>2.06</ele>
        <time>2019-05-27T13:54:25Z</time>
      </trkpt>
      <trkpt lat="43.05426" lon="6.0453">
        <ele>2.54</ele>
        <time>2019-05-27T13:54:32Z</time>
      </trkpt>
      <trkpt lat="43.05439" lon="6.04499">
        <ele>2.54</ele>
        <time>2019-05-27T13:54:43Z</time>
      </trkpt>
      <trkpt lat="43.05454" lon="6.0447">
        <ele>1.1</ele>
        <time>2019-05-27T13:54:54Z</time>
      </trkpt>
      <trkpt lat="43.05468" lon="6.04445">
        <ele>0.62</ele>
        <time>2019-05-27T13:55:04Z</time>
      </trkpt>
      <trkpt lat="43.05469" lon="6.04443">
        <ele>1.1</ele>
        <time>2019-05-27T13:55:05Z</time>
      </trkpt>
      <trkpt lat="43.0548" lon="6.04423">
        <ele>2.06</ele>
        <time>2019-05-27T13:55:13Z</time>
      </trkpt>
      <trkpt lat="43.0549" lon="6.04407">
        <ele>3.02</ele>
        <time>2019-05-27T13:55:20Z</time>
      </trkpt>
      <trkpt lat="43.05493" lon="6.04402">
        <ele>3.5</ele>
        <time>2019-05-27T13:55:22Z</time>
      </trkpt>
      <trkpt lat="43.05504" lon="6.04378">
        <ele>4.94</ele>
        <time>2019-05-27T13:55:31Z</time>
      </trkpt>
      <trkpt lat="43.0551" lon="6.04366">
        <ele>4.94</ele>
        <time>2019-05-27T13:55:35Z</time>
      </trkpt>
      <trkpt lat="43.05515" lon="6.04356">
        <ele>3.98</ele>
        <time>2019-05-27T13:55:39Z</time>
      </trkpt>
      <trkpt lat="43.0553" lon="6.04327">
        <ele>2.06</ele>
        <time>2019-05-27T13:55:50Z</time>
      </trkpt>
      <trkpt lat="43.05532" lon="6.04325">
        <ele>2.06</ele>
        <time>2019-05-27T13:55:51Z</time>
      </trkpt>
      <trkpt lat="43.05537" lon="6.04315">
        <ele>2.06</ele>
        <time>2019-05-27T13:55:55Z</time>
      </trkpt>
      <trkpt lat="43.05555" lon="6.04278">
        <ele>1.1</ele>
        <time>2019-05-27T13:56:09Z</time>
      </trkpt>
      <trkpt lat="43.05571" lon="6.04247">
        <ele>-1.3</ele>
        <time>2019-05-27T13:56:21Z</time>
      </trkpt>
      <trkpt lat="43.05579" lon="6.04229">
        <ele>0.14</ele>
        <time>2019-05-27T13:56:28Z</time>
      </trkpt>
      <trkpt lat="43.05584" lon="6.04215">
        <ele>0.14</ele>
        <time>2019-05-27T13:56:33Z</time>
      </trkpt>
      <trkpt lat="43.05597" lon="6.04182">
        <ele>0.14</ele>
        <time>2019-05-27T13:56:45Z</time>
      </trkpt>
      <trkpt lat="43.05615" lon="6.04144">
        <ele>-1.79</ele>
        <time>2019-05-27T13:56:59Z</time>
      </trkpt>
      <trkpt lat="43.05618" lon="6.04136">
        <ele>-0.82</ele>
        <time>2019-05-27T13:57:02Z</time>
      </trkpt>
      <trkpt lat="43.05625" lon="6.04119">
        <ele>-1.79</ele>
        <time>2019-05-27T13:57:08Z</time>
      </trkpt>
      <trkpt lat="43.05638" lon="6.04087">
        <ele>-3.23</ele>
        <time>2019-05-27T13:57:20Z</time>
      </trkpt>
      <trkpt lat="43.05654" lon="6.04054">
        <ele>-2.75</ele>
        <time>2019-05-27T13:57:33Z</time>
      </trkpt>
      <trkpt lat="43.05663" lon="6.04037">
        <ele>-1.3</ele>
        <time>2019-05-27T13:57:40Z</time>
      </trkpt>
      <trkpt lat="43.05668" lon="6.04026">
        <ele>-0.82</ele>
        <time>2019-05-27T13:57:45Z</time>
      </trkpt>
      <trkpt lat="43.05677" lon="6.04007">
        <ele>-0.34</ele>
        <time>2019-05-27T13:57:53Z</time>
      </trkpt>
      <trkpt lat="43.05683" lon="6.03994">
        <ele>0.62</ele>
        <time>2019-05-27T13:57:59Z</time>
      </trkpt>
      <trkpt lat="43.05694" lon="6.03968">
        <ele>2.06</ele>
        <time>2019-05-27T13:58:09Z</time>
      </trkpt>
      <trkpt lat="43.05705" lon="6.03947">
        <ele>0.62</ele>
        <time>2019-05-27T13:58:18Z</time>
      </trkpt>
      <trkpt lat="43.05728" lon="6.03904">
        <ele>-2.27</ele>
        <time>2019-05-27T13:58:36Z</time>
      </trkpt>
      <trkpt lat="43.0574" lon="6.03877">
        <ele>-4.19</ele>
        <time>2019-05-27T13:58:47Z</time>
      </trkpt>
      <trkpt lat="43.05752" lon="6.0385">
        <ele>-2.75</ele>
        <time>2019-05-27T13:58:58Z</time>
      </trkpt>
      <trkpt lat="43.05757" lon="6.03837">
        <ele>-1.79</ele>
        <time>2019-05-27T13:59:03Z</time>
      </trkpt>
      <trkpt lat="43.05761" lon="6.03826">
        <ele>-2.75</ele>
        <time>2019-05-27T13:59:07Z</time>
      </trkpt>
      <trkpt lat="43.05775" lon="6.03799">
        <ele>-2.75</ele>
        <time>2019-05-27T13:59:18Z</time>
      </trkpt>
      <trkpt lat="43.05779" lon="6.03789">
        <ele>-3.23</ele>
        <time>2019-05-27T13:59:22Z</time>
      </trkpt>
      <trkpt lat="43.05789" lon="6.03763">
        <ele>-2.27</ele>
        <time>2019-05-27T13:59:32Z</time>
      </trkpt>
      <trkpt lat="43.058" lon="6.03739">
        <ele>-3.71</ele>
        <time>2019-05-27T13:59:43Z</time>
      </trkpt>
      <trkpt lat="43.05806" lon="6.0372">
        <ele>-4.19</ele>
        <time>2019-05-27T13:59:50Z</time>
      </trkpt>
      <trkpt lat="43.05818" lon="6.03683">
        <ele>-3.23</ele>
        <time>2019-05-27T14:00:03Z</time>
      </trkpt>
      <trkpt lat="43.05832" lon="6.03645">
        <ele>-4.19</ele>
        <time>2019-05-27T14:00:17Z</time>
      </trkpt>
      <trkpt lat="43.05841" lon="6.03618">
        <ele>-3.23</ele>
        <time>2019-05-27T14:00:29Z</time>
      </trkpt>
      <trkpt lat="43.05852" lon="6.03581">
        <ele>-1.79</ele>
        <time>2019-05-27T14:00:43Z</time>
      </trkpt>
      <trkpt lat="43.05865" lon="6.03543">
        <ele>-2.27</ele>
        <time>2019-05-27T14:00:57Z</time>
      </trkpt>
      <trkpt lat="43.05867" lon="6.03538">
        <ele>-2.75</ele>
        <time>2019-05-27T14:00:59Z</time>
      </trkpt>
      <trkpt lat="43.05871" lon="6.03528">
        <ele>-2.75</ele>
        <time>2019-05-27T14:01:03Z</time>
      </trkpt>
      <trkpt lat="43.05889" lon="6.0349">
        <ele>-2.27</ele>
        <time>2019-05-27T14:01:19Z</time>
      </trkpt>
      <trkpt lat="43.05901" lon="6.03468">
        <ele>-1.3</ele>
        <time>2019-05-27T14:01:30Z</time>
      </trkpt>
      <trkpt lat="43.0591" lon="6.03449">
        <ele>-1.79</ele>
        <time>2019-05-27T14:01:39Z</time>
      </trkpt>
      <trkpt lat="43.05927" lon="6.03416">
        <ele>-1.79</ele>
        <time>2019-05-27T14:01:54Z</time>
      </trkpt>
      <trkpt lat="43.05942" lon="6.03385">
        <ele>-1.3</ele>
        <time>2019-05-27T14:02:08Z</time>
      </trkpt>
      <trkpt lat="43.0596" lon="6.03351">
        <ele>-0.34</ele>
        <time>2019-05-27T14:02:24Z</time>
      </trkpt>
      <trkpt lat="43.0598" lon="6.03312">
        <ele>-0.82</ele>
        <time>2019-05-27T14:02:42Z</time>
      </trkpt>
      <trkpt lat="43.05999" lon="6.03266">
        <ele>-2.75</ele>
        <time>2019-05-27T14:03:01Z</time>
      </trkpt>
      <trkpt lat="43.0601" lon="6.03232">
        <ele>-2.75</ele>
        <time>2019-05-27T14:03:14Z</time>
      </trkpt>
      <trkpt lat="43.06026" lon="6.03188">
        <ele>-3.23</ele>
        <time>2019-05-27T14:03:31Z</time>
      </trkpt>
      <trkpt lat="43.06044" lon="6.0315">
        <ele>-3.71</ele>
        <time>2019-05-27T14:03:47Z</time>
      </trkpt>
      <trkpt lat="43.06057" lon="6.03121">
        <ele>-4.19</ele>
        <time>2019-05-27T14:04:00Z</time>
      </trkpt>
      <trkpt lat="43.06073" lon="6.03077">
        <ele>-2.75</ele>
        <time>2019-05-27T14:04:18Z</time>
      </trkpt>
      <trkpt lat="43.06092" lon="6.03044">
        <ele>-2.27</ele>
        <time>2019-05-27T14:04:35Z</time>
      </trkpt>
      <trkpt lat="43.06115" lon="6.03023">
        <ele>-3.23</ele>
        <time>2019-05-27T14:04:51Z</time>
      </trkpt>
      <trkpt lat="43.06145" lon="6.02999">
        <ele>-3.23</ele>
        <time>2019-05-27T14:05:08Z</time>
      </trkpt>
      <trkpt lat="43.06179" lon="6.02974">
        <ele>-2.75</ele>
        <time>2019-05-27T14:05:27Z</time>
      </trkpt>
      <trkpt lat="43.06211" lon="6.0295">
        <ele>-2.75</ele>
        <time>2019-05-27T14:05:44Z</time>
      </trkpt>
      <trkpt lat="43.06239" lon="6.02931">
        <ele>-2.27</ele>
        <time>2019-05-27T14:06:00Z</time>
      </trkpt>
      <trkpt lat="43.06269" lon="6.02911">
        <ele>-0.82</ele>
        <time>2019-05-27T14:06:18Z</time>
      </trkpt>
      <trkpt lat="43.06293" lon="6.02895">
        <ele>-0.34</ele>
        <time>2019-05-27T14:06:33Z</time>
      </trkpt>
      <trkpt lat="43.06317" lon="6.02878">
        <ele>0.14</ele>
        <time>2019-05-27T14:06:48Z</time>
      </trkpt>
      <trkpt lat="43.06347" lon="6.02853">
        <ele>0.62</ele>
        <time>2019-05-27T14:07:07Z</time>
      </trkpt>
      <trkpt lat="43.06379" lon="6.02827">
        <ele>1.1</ele>
        <time>2019-05-27T14:07:27Z</time>
      </trkpt>
      <trkpt lat="43.06406" lon="6.02805">
        <ele>0.62</ele>
        <time>2019-05-27T14:07:44Z</time>
      </trkpt>
      <trkpt lat="43.06428" lon="6.02783">
        <ele>0.14</ele>
        <time>2019-05-27T14:07:59Z</time>
      </trkpt>
      <trkpt lat="43.06454" lon="6.02759">
        <ele>-0.34</ele>
        <time>2019-05-27T14:08:16Z</time>
      </trkpt>
      <trkpt lat="43.06475" lon="6.02737">
        <ele>0.14</ele>
        <time>2019-05-27T14:08:30Z</time>
      </trkpt>
      <trkpt lat="43.065" lon="6.02714">
        <ele>0.14</ele>
        <time>2019-05-27T14:08:46Z</time>
      </trkpt>
      <trkpt lat="43.0653" lon="6.02686">
        <ele>0.14</ele>
        <time>2019-05-27T14:09:05Z</time>
      </trkpt>
      <trkpt lat="43.06553" lon="6.02669">
        <ele>-0.34</ele>
        <time>2019-05-27T14:09:19Z</time>
      </trkpt>
      <trkpt lat="43.06573" lon="6.02651">
        <ele>0.62</ele>
        <time>2019-05-27T14:09:32Z</time>
      </trkpt>
      <trkpt lat="43.06598" lon="6.02628">
        <ele>-0.34</ele>
        <time>2019-05-27T14:09:48Z</time>
      </trkpt>
      <trkpt lat="43.06622" lon="6.0261">
        <ele>-0.82</ele>
        <time>2019-05-27T14:10:03Z</time>
      </trkpt>
      <trkpt lat="43.06646" lon="6.02587">
        <ele>-0.82</ele>
        <time>2019-05-27T14:10:19Z</time>
      </trkpt>
      <trkpt lat="43.0665" lon="6.02582">
        <ele>-1.3</ele>
        <time>2019-05-27T14:10:22Z</time>
      </trkpt>
      <trkpt lat="43.0666" lon="6.0257">
        <ele>-0.82</ele>
        <time>2019-05-27T14:10:29Z</time>
      </trkpt>
      <trkpt lat="43.06689" lon="6.02542">
        <ele>-0.82</ele>
        <time>2019-05-27T14:10:49Z</time>
      </trkpt>
      <trkpt lat="43.06691" lon="6.02541">
        <ele>-0.82</ele>
        <time>2019-05-27T14:10:50Z</time>
      </trkpt>
      <trkpt lat="43.0671" lon="6.02512">
        <ele>-2.27</ele>
        <time>2019-05-27T14:11:06Z</time>
      </trkpt>
      <trkpt lat="43.06728" lon="6.0249">
        <ele>-3.23</ele>
        <time>2019-05-27T14:11:20Z</time>
      </trkpt>
      <trkpt lat="43.06744" lon="6.02475">
        <ele>-3.23</ele>
        <time>2019-05-27T14:11:32Z</time>
      </trkpt>
      <trkpt lat="43.06761" lon="6.0246">
        <ele>-3.23</ele>
        <time>2019-05-27T14:11:43Z</time>
      </trkpt>
      <trkpt lat="43.06762" lon="6.02458">
        <ele>-3.23</ele>
        <time>2019-05-27T14:11:44Z</time>
      </trkpt>
      <trkpt lat="43.06775" lon="6.02445">
        <ele>-4.67</ele>
        <time>2019-05-27T14:11:53Z</time>
      </trkpt>
      <trkpt lat="43.0678" lon="6.02438">
        <ele>-5.15</ele>
        <time>2019-05-27T14:11:57Z</time>
      </trkpt>
      <trkpt lat="43.06786" lon="6.02432">
        <ele>-5.15</ele>
        <time>2019-05-27T14:12:01Z</time>
      </trkpt>
      <trkpt lat="43.06809" lon="6.0241">
        <ele>-4.19</ele>
        <time>2019-05-27T14:12:15Z</time>
      </trkpt>
      <trkpt lat="43.06826" lon="6.02392">
        <ele>-4.19</ele>
        <time>2019-05-27T14:12:26Z</time>
      </trkpt>
      <trkpt lat="43.06845" lon="6.02367">
        <ele>-3.71</ele>
        <time>2019-05-27T14:12:39Z</time>
      </trkpt>
      <trkpt lat="43.06872" lon="6.0234">
        <ele>-2.27</ele>
        <time>2019-05-27T14:12:57Z</time>
      </trkpt>
      <trkpt lat="43.06895" lon="6.02319">
        <ele>-2.27</ele>
        <time>2019-05-27T14:13:12Z</time>
      </trkpt>
      <trkpt lat="43.06924" lon="6.02292">
        <ele>-1.79</ele>
        <time>2019-05-27T14:13:30Z</time>
      </trkpt>
      <trkpt lat="43.06947" lon="6.02273">
        <ele>-2.27</ele>
        <time>2019-05-27T14:13:44Z</time>
      </trkpt>
      <trkpt lat="43.06971" lon="6.02253">
        <ele>-2.75</ele>
        <time>2019-05-27T14:13:58Z</time>
      </trkpt>
      <trkpt lat="43.06995" lon="6.02234">
        <ele>-4.19</ele>
        <time>2019-05-27T14:14:12Z</time>
      </trkpt>
      <trkpt lat="43.06999" lon="6.02232">
        <ele>-4.19</ele>
        <time>2019-05-27T14:14:14Z</time>
      </trkpt>
      <trkpt lat="43.07022" lon="6.02214">
        <ele>-2.75</ele>
        <time>2019-05-27T14:14:28Z</time>
      </trkpt>
      <trkpt lat="43.07041" lon="6.02195">
        <ele>-2.75</ele>
        <time>2019-05-27T14:14:41Z</time>
      </trkpt>
      <trkpt lat="43.07063" lon="6.02176">
        <ele>-2.27</ele>
        <time>2019-05-27T14:14:55Z</time>
      </trkpt>
      <trkpt lat="43.07085" lon="6.02156">
        <ele>-2.75</ele>
        <time>2019-05-27T14:15:09Z</time>
      </trkpt>
      <trkpt lat="43.07109" lon="6.02139">
        <ele>-4.19</ele>
        <time>2019-05-27T14:15:23Z</time>
      </trkpt>
      <trkpt lat="43.07131" lon="6.02121">
        <ele>-3.71</ele>
        <time>2019-05-27T14:15:36Z</time>
      </trkpt>
      <trkpt lat="43.07159" lon="6.02104">
        <ele>-3.23</ele>
        <time>2019-05-27T14:15:51Z</time>
      </trkpt>
      <trkpt lat="43.07182" lon="6.02084">
        <ele>-2.75</ele>
        <time>2019-05-27T14:16:04Z</time>
      </trkpt>
      <trkpt lat="43.07207" lon="6.02065">
        <ele>-2.27</ele>
        <time>2019-05-27T14:16:18Z</time>
      </trkpt>
      <trkpt lat="43.07242" lon="6.02041">
        <ele>-2.27</ele>
        <time>2019-05-27T14:16:37Z</time>
      </trkpt>
      <trkpt lat="43.0727" lon="6.02019">
        <ele>-1.79</ele>
        <time>2019-05-27T14:16:52Z</time>
      </trkpt>
      <trkpt lat="43.07306" lon="6.01988">
        <ele>-1.3</ele>
        <time>2019-05-27T14:17:12Z</time>
      </trkpt>
      <trkpt lat="43.07326" lon="6.01971">
        <ele>-1.79</ele>
        <time>2019-05-27T14:17:24Z</time>
      </trkpt>
      <trkpt lat="43.07355" lon="6.0195">
        <ele>-2.27</ele>
        <time>2019-05-27T14:17:40Z</time>
      </trkpt>
      <trkpt lat="43.07383" lon="6.01927">
        <ele>-1.79</ele>
        <time>2019-05-27T14:17:57Z</time>
      </trkpt>
      <trkpt lat="43.07416" lon="6.01905">
        <ele>-1.79</ele>
        <time>2019-05-27T14:18:15Z</time>
      </trkpt>
      <trkpt lat="43.0745" lon="6.01879">
        <ele>-1.3</ele>
        <time>2019-05-27T14:18:34Z</time>
      </trkpt>
      <trkpt lat="43.07483" lon="6.0186">
        <ele>-1.3</ele>
        <time>2019-05-27T14:18:52Z</time>
      </trkpt>
      <trkpt lat="43.07516" lon="6.01838">
        <ele>-1.3</ele>
        <time>2019-05-27T14:19:10Z</time>
      </trkpt>
      <trkpt lat="43.07544" lon="6.01819">
        <ele>-1.79</ele>
        <time>2019-05-27T14:19:25Z</time>
      </trkpt>
      <trkpt lat="43.0758" lon="6.01802">
        <ele>-0.82</ele>
        <time>2019-05-27T14:19:43Z</time>
      </trkpt>
      <trkpt lat="43.0761" lon="6.01784">
        <ele>-0.82</ele>
        <time>2019-05-27T14:19:58Z</time>
      </trkpt>
      <trkpt lat="43.07633" lon="6.01749">
        <ele>-0.34</ele>
        <time>2019-05-27T14:20:15Z</time>
      </trkpt>
      <trkpt lat="43.07646" lon="6.01719">
        <ele>0.14</ele>
        <time>2019-05-27T14:20:27Z</time>
      </trkpt>
      <trkpt lat="43.07667" lon="6.01675">
        <ele>0.14</ele>
        <time>2019-05-27T14:20:44Z</time>
      </trkpt>
      <trkpt lat="43.07688" lon="6.01609">
        <ele>-0.34</ele>
        <time>2019-05-27T14:21:06Z</time>
      </trkpt>
      <trkpt lat="43.07712" lon="6.01537">
        <ele>-1.3</ele>
        <time>2019-05-27T14:21:30Z</time>
      </trkpt>
      <trkpt lat="43.07724" lon="6.0149">
        <ele>-1.3</ele>
        <time>2019-05-27T14:21:44Z</time>
      </trkpt>
      <trkpt lat="43.07742" lon="6.01442">
        <ele>-2.27</ele>
        <time>2019-05-27T14:22:00Z</time>
      </trkpt>
      <trkpt lat="43.07767" lon="6.01386">
        <ele>-1.79</ele>
        <time>2019-05-27T14:22:19Z</time>
      </trkpt>
      <trkpt lat="43.07785" lon="6.01336">
        <ele>-3.71</ele>
        <time>2019-05-27T14:22:36Z</time>
      </trkpt>
      <trkpt lat="43.07804" lon="6.01284">
        <ele>-1.79</ele>
        <time>2019-05-27T14:22:54Z</time>
      </trkpt>
      <trkpt lat="43.07818" lon="6.01245">
        <ele>-2.75</ele>
        <time>2019-05-27T14:23:08Z</time>
      </trkpt>
      <trkpt lat="43.07833" lon="6.01203">
        <ele>-2.75</ele>
        <time>2019-05-27T14:23:23Z</time>
      </trkpt>
      <trkpt lat="43.07847" lon="6.0116">
        <ele>-2.75</ele>
        <time>2019-05-27T14:23:38Z</time>
      </trkpt>
      <trkpt lat="43.07865" lon="6.01114">
        <ele>-2.75</ele>
        <time>2019-05-27T14:23:55Z</time>
      </trkpt>
      <trkpt lat="43.0788" lon="6.01072">
        <ele>-3.23</ele>
        <time>2019-05-27T14:24:09Z</time>
      </trkpt>
      <trkpt lat="43.07894" lon="6.01032">
        <ele>-2.75</ele>
        <time>2019-05-27T14:24:22Z</time>
      </trkpt>
      <trkpt lat="43.0791" lon="6.00993">
        <ele>-1.79</ele>
        <time>2019-05-27T14:24:35Z</time>
      </trkpt>
      <trkpt lat="43.07924" lon="6.00947">
        <ele>-2.75</ele>
        <time>2019-05-27T14:24:50Z</time>
      </trkpt>
      <trkpt lat="43.07939" lon="6.00908">
        <ele>-1.79</ele>
        <time>2019-05-27T14:25:04Z</time>
      </trkpt>
      <trkpt lat="43.07954" lon="6.00866">
        <ele>-2.27</ele>
        <time>2019-05-27T14:25:19Z</time>
      </trkpt>
      <trkpt lat="43.07969" lon="6.00825">
        <ele>-2.75</ele>
        <time>2019-05-27T14:25:33Z</time>
      </trkpt>
      <trkpt lat="43.07982" lon="6.0078">
        <ele>-0.82</ele>
        <time>2019-05-27T14:25:47Z</time>
      </trkpt>
      <trkpt lat="43.07997" lon="6.00739">
        <ele>-1.79</ele>
        <time>2019-05-27T14:26:01Z</time>
      </trkpt>
      <trkpt lat="43.08012" lon="6.00694">
        <ele>-1.79</ele>
        <time>2019-05-27T14:26:16Z</time>
      </trkpt>
      <trkpt lat="43.08027" lon="6.00653">
        <ele>-2.27</ele>
        <time>2019-05-27T14:26:31Z</time>
      </trkpt>
      <trkpt lat="43.0804" lon="6.00609">
        <ele>-2.27</ele>
        <time>2019-05-27T14:26:46Z</time>
      </trkpt>
      <trkpt lat="43.08058" lon="6.00563">
        <ele>-1.79</ele>
        <time>2019-05-27T14:27:03Z</time>
      </trkpt>
      <trkpt lat="43.0807" lon="6.00531">
        <ele>-2.27</ele>
        <time>2019-05-27T14:27:15Z</time>
      </trkpt>
      <trkpt lat="43.0808" lon="6.00492">
        <ele>-3.23</ele>
        <time>2019-05-27T14:27:28Z</time>
      </trkpt>
      <trkpt lat="43.08097" lon="6.00443">
        <ele>-1.3</ele>
        <time>2019-05-27T14:27:45Z</time>
      </trkpt>
      <trkpt lat="43.08117" lon="6.00391">
        <ele>-2.27</ele>
        <time>2019-05-27T14:28:03Z</time>
      </trkpt>
      <trkpt lat="43.08133" lon="6.0034">
        <ele>-2.75</ele>
        <time>2019-05-27T14:28:20Z</time>
      </trkpt>
      <trkpt lat="43.08148" lon="6.00303">
        <ele>2.54</ele>
        <time>2019-05-27T14:28:34Z</time>
      </trkpt>
      <trkpt lat="43.08166" lon="6.00266">
        <ele>4.94</ele>
        <time>2019-05-27T14:28:50Z</time>
      </trkpt>
      <trkpt lat="43.082" lon="6.00235">
        <ele>3.98</ele>
        <time>2019-05-27T14:29:12Z</time>
      </trkpt>
      <trkpt lat="43.08222" lon="6.00213">
        <ele>-0.82</ele>
        <time>2019-05-27T14:29:25Z</time>
      </trkpt>
      <trkpt lat="43.0825" lon="6.00182">
        <ele>-1.79</ele>
        <time>2019-05-27T14:29:42Z</time>
      </trkpt>
      <trkpt lat="43.08275" lon="6.00154">
        <ele>-1.79</ele>
        <time>2019-05-27T14:29:57Z</time>
      </trkpt>
      <trkpt lat="43.08292" lon="6.0014">
        <ele>-1.79</ele>
        <time>2019-05-27T14:30:07Z</time>
      </trkpt>
      <trkpt lat="43.08312" lon="6.00123">
        <ele>-2.27</ele>
        <time>2019-05-27T14:30:18Z</time>
      </trkpt>
      <trkpt lat="43.08334" lon="6.00102">
        <ele>-1.79</ele>
        <time>2019-05-27T14:30:30Z</time>
      </trkpt>
      <trkpt lat="43.08358" lon="6.00077">
        <ele>-0.82</ele>
        <time>2019-05-27T14:30:43Z</time>
      </trkpt>
      <trkpt lat="43.08385" lon="6.00055">
        <ele>-1.3</ele>
        <time>2019-05-27T14:30:56Z</time>
      </trkpt>
      <trkpt lat="43.08416" lon="6.00031">
        <ele>-1.79</ele>
        <time>2019-05-27T14:31:11Z</time>
      </trkpt>
      <trkpt lat="43.08442" lon="6.00011">
        <ele>-2.27</ele>
        <time>2019-05-27T14:31:24Z</time>
      </trkpt>
      <trkpt lat="43.08449" lon="6.00003">
        <ele>-2.75</ele>
        <time>2019-05-27T14:31:28Z</time>
      </trkpt>
      <trkpt lat="43.08482" lon="5.9997">
        <ele>-2.75</ele>
        <time>2019-05-27T14:31:46Z</time>
      </trkpt>
      <trkpt lat="43.08512" lon="5.99931">
        <ele>-1.79</ele>
        <time>2019-05-27T14:32:03Z</time>
      </trkpt>
      <trkpt lat="43.08544" lon="5.99901">
        <ele>-1.79</ele>
        <time>2019-05-27T14:32:19Z</time>
      </trkpt>
      <trkpt lat="43.08576" lon="5.99865">
        <ele>-0.82</ele>
        <time>2019-05-27T14:32:37Z</time>
      </trkpt>
      <trkpt lat="43.08607" lon="5.99828">
        <ele>-1.3</ele>
        <time>2019-05-27T14:32:55Z</time>
      </trkpt>
      <trkpt lat="43.08638" lon="5.99796">
        <ele>-0.82</ele>
        <time>2019-05-27T14:33:11Z</time>
      </trkpt>
      <trkpt lat="43.08673" lon="5.99755">
        <ele>-0.34</ele>
        <time>2019-05-27T14:33:31Z</time>
      </trkpt>
      <trkpt lat="43.08701" lon="5.99724">
        <ele>-0.34</ele>
        <time>2019-05-27T14:33:47Z</time>
      </trkpt>
      <trkpt lat="43.08724" lon="5.99695">
        <ele>-1.3</ele>
        <time>2019-05-27T14:34:01Z</time>
      </trkpt>
      <trkpt lat="43.08753" lon="5.99657">
        <ele>-0.82</ele>
        <time>2019-05-27T14:34:19Z</time>
      </trkpt>
      <trkpt lat="43.08777" lon="5.99629">
        <ele>-0.34</ele>
        <time>2019-05-27T14:34:33Z</time>
      </trkpt>
      <trkpt lat="43.08803" lon="5.996">
        <ele>-1.3</ele>
        <time>2019-05-27T14:34:48Z</time>
      </trkpt>
      <trkpt lat="43.08828" lon="5.99568">
        <ele>-1.79</ele>
        <time>2019-05-27T14:35:03Z</time>
      </trkpt>
      <trkpt lat="43.08852" lon="5.9954">
        <ele>-1.79</ele>
        <time>2019-05-27T14:35:18Z</time>
      </trkpt>
      <trkpt lat="43.08873" lon="5.99511">
        <ele>-0.82</ele>
        <time>2019-05-27T14:35:32Z</time>
      </trkpt>
      <trkpt lat="43.08886" lon="5.99488">
        <ele>0.14</ele>
        <time>2019-05-27T14:35:42Z</time>
      </trkpt>
      <trkpt lat="43.08892" lon="5.99476">
        <ele>0.14</ele>
        <time>2019-05-27T14:35:47Z</time>
      </trkpt>
      <trkpt lat="43.08906" lon="5.99438">
        <ele>-0.82</ele>
        <time>2019-05-27T14:36:02Z</time>
      </trkpt>
      <trkpt lat="43.0892" lon="5.99402">
        <ele>-0.34</ele>
        <time>2019-05-27T14:36:16Z</time>
      </trkpt>
      <trkpt lat="43.08934" lon="5.99365">
        <ele>-0.34</ele>
        <time>2019-05-27T14:36:31Z</time>
      </trkpt>
      <trkpt lat="43.08948" lon="5.99316">
        <ele>-0.34</ele>
        <time>2019-05-27T14:36:50Z</time>
      </trkpt>
      <trkpt lat="43.0896" lon="5.99283">
        <ele>0.62</ele>
        <time>2019-05-27T14:37:04Z</time>
      </trkpt>
      <trkpt lat="43.08973" lon="5.99245">
        <ele>0.14</ele>
        <time>2019-05-27T14:37:19Z</time>
      </trkpt>
      <trkpt lat="43.08985" lon="5.99206">
        <ele>-0.34</ele>
        <time>2019-05-27T14:37:34Z</time>
      </trkpt>
      <trkpt lat="43.08998" lon="5.9917">
        <ele>0.62</ele>
        <time>2019-05-27T14:37:49Z</time>
      </trkpt>
      <trkpt lat="43.0901" lon="5.99129">
        <ele>0.14</ele>
        <time>2019-05-27T14:38:04Z</time>
      </trkpt>
      <trkpt lat="43.0902" lon="5.99081">
        <ele>0.14</ele>
        <time>2019-05-27T14:38:21Z</time>
      </trkpt>
      <trkpt lat="43.09027" lon="5.99048">
        <ele>0.62</ele>
        <time>2019-05-27T14:38:33Z</time>
      </trkpt>
      <trkpt lat="43.09042" lon="5.99005">
        <ele>1.58</ele>
        <time>2019-05-27T14:38:48Z</time>
      </trkpt>
      <trkpt lat="43.09057" lon="5.98956">
        <ele>2.06</ele>
        <time>2019-05-27T14:39:05Z</time>
      </trkpt>
      <trkpt lat="43.09067" lon="5.98916">
        <ele>1.1</ele>
        <time>2019-05-27T14:39:19Z</time>
      </trkpt>
      <trkpt lat="43.09079" lon="5.98873">
        <ele>0.62</ele>
        <time>2019-05-27T14:39:34Z</time>
      </trkpt>
      <trkpt lat="43.09095" lon="5.9883">
        <ele>0.62</ele>
        <time>2019-05-27T14:39:51Z</time>
      </trkpt>
      <trkpt lat="43.09112" lon="5.98782">
        <ele>0.62</ele>
        <time>2019-05-27T14:40:11Z</time>
      </trkpt>
      <trkpt lat="43.09125" lon="5.98722">
        <ele>0.14</ele>
        <time>2019-05-27T14:40:33Z</time>
      </trkpt>
      <trkpt lat="43.09138" lon="5.98667">
        <ele>0.14</ele>
        <time>2019-05-27T14:40:53Z</time>
      </trkpt>
      <trkpt lat="43.09148" lon="5.98627">
        <ele>0.14</ele>
        <time>2019-05-27T14:41:08Z</time>
      </trkpt>
      <trkpt lat="43.09165" lon="5.98581">
        <ele>-0.34</ele>
        <time>2019-05-27T14:41:27Z</time>
      </trkpt>
      <trkpt lat="43.09178" lon="5.98535">
        <ele>-0.34</ele>
        <time>2019-05-27T14:41:45Z</time>
      </trkpt>
      <trkpt lat="43.09193" lon="5.98488">
        <ele>1.1</ele>
        <time>2019-05-27T14:42:04Z</time>
      </trkpt>
      <trkpt lat="43.09205" lon="5.98446">
        <ele>0.14</ele>
        <time>2019-05-27T14:42:21Z</time>
      </trkpt>
      <trkpt lat="43.09217" lon="5.9841">
        <ele>1.1</ele>
        <time>2019-05-27T14:42:36Z</time>
      </trkpt>
      <trkpt lat="43.09229" lon="5.98363">
        <ele>2.06</ele>
        <time>2019-05-27T14:42:56Z</time>
      </trkpt>
      <trkpt lat="43.09242" lon="5.98327">
        <ele>1.1</ele>
        <time>2019-05-27T14:43:13Z</time>
      </trkpt>
      <trkpt lat="43.09253" lon="5.98291">
        <ele>0.14</ele>
        <time>2019-05-27T14:43:30Z</time>
      </trkpt>
      <trkpt lat="43.09265" lon="5.98254">
        <ele>-0.34</ele>
        <time>2019-05-27T14:43:48Z</time>
      </trkpt>
      <trkpt lat="43.09275" lon="5.98221">
        <ele>-0.82</ele>
        <time>2019-05-27T14:44:03Z</time>
      </trkpt>
      <trkpt lat="43.09286" lon="5.98171">
        <ele>-0.34</ele>
        <time>2019-05-27T14:44:22Z</time>
      </trkpt>
      <trkpt lat="43.09295" lon="5.98136">
        <ele>-1.3</ele>
        <time>2019-05-27T14:44:36Z</time>
      </trkpt>
      <trkpt lat="43.09303" lon="5.98097">
        <ele>-0.34</ele>
        <time>2019-05-27T14:44:52Z</time>
      </trkpt>
      <trkpt lat="43.09312" lon="5.98059">
        <ele>-0.82</ele>
        <time>2019-05-27T14:45:07Z</time>
      </trkpt>
      <trkpt lat="43.09324" lon="5.98024">
        <ele>0.14</ele>
        <time>2019-05-27T14:45:23Z</time>
      </trkpt>
      <trkpt lat="43.09335" lon="5.97989">
        <ele>0.14</ele>
        <time>2019-05-27T14:45:40Z</time>
      </trkpt>
      <trkpt lat="43.09345" lon="5.97958">
        <ele>0.62</ele>
        <time>2019-05-27T14:45:55Z</time>
      </trkpt>
      <trkpt lat="43.09352" lon="5.97926">
        <ele>0.62</ele>
        <time>2019-05-27T14:46:09Z</time>
      </trkpt>
      <trkpt lat="43.09359" lon="5.97893">
        <ele>-0.34</ele>
        <time>2019-05-27T14:46:22Z</time>
      </trkpt>
      <trkpt lat="43.09368" lon="5.9786">
        <ele>-0.34</ele>
        <time>2019-05-27T14:46:36Z</time>
      </trkpt>
      <trkpt lat="43.09377" lon="5.97832">
        <ele>-1.3</ele>
        <time>2019-05-27T14:46:48Z</time>
      </trkpt>
      <trkpt lat="43.09381" lon="5.97821">
        <ele>-1.79</ele>
        <time>2019-05-27T14:46:53Z</time>
      </trkpt>
      <trkpt lat="43.09392" lon="5.9779">
        <ele>-0.82</ele>
        <time>2019-05-27T14:47:07Z</time>
      </trkpt>
      <trkpt lat="43.09402" lon="5.97758">
        <ele>-0.82</ele>
        <time>2019-05-27T14:47:21Z</time>
      </trkpt>
      <trkpt lat="43.09408" lon="5.97729">
        <ele>-1.3</ele>
        <time>2019-05-27T14:47:33Z</time>
      </trkpt>
      <trkpt lat="43.09416" lon="5.97696">
        <ele>-1.3</ele>
        <time>2019-05-27T14:47:47Z</time>
      </trkpt>
      <trkpt lat="43.0942" lon="5.97683">
        <ele>-1.3</ele>
        <time>2019-05-27T14:47:53Z</time>
      </trkpt>
      <trkpt lat="43.09424" lon="5.97673">
        <ele>-0.82</ele>
        <time>2019-05-27T14:47:58Z</time>
      </trkpt>
      <trkpt lat="43.09432" lon="5.97632">
        <ele>0.14</ele>
        <time>2019-05-27T14:48:15Z</time>
      </trkpt>
      <trkpt lat="43.09442" lon="5.97604">
        <ele>0.14</ele>
        <time>2019-05-27T14:48:27Z</time>
      </trkpt>
      <trkpt lat="43.09448" lon="5.97573">
        <ele>-0.82</ele>
        <time>2019-05-27T14:48:40Z</time>
      </trkpt>
      <trkpt lat="43.09455" lon="5.97546">
        <ele>-1.79</ele>
        <time>2019-05-27T14:48:52Z</time>
      </trkpt>
      <trkpt lat="43.09462" lon="5.97507">
        <ele>-1.3</ele>
        <time>2019-05-27T14:49:08Z</time>
      </trkpt>
      <trkpt lat="43.0947" lon="5.97472">
        <ele>-0.82</ele>
        <time>2019-05-27T14:49:22Z</time>
      </trkpt>
      <trkpt lat="43.09476" lon="5.97434">
        <ele>-0.82</ele>
        <time>2019-05-27T14:49:37Z</time>
      </trkpt>
      <trkpt lat="43.09483" lon="5.97404">
        <ele>-0.82</ele>
        <time>2019-05-27T14:49:49Z</time>
      </trkpt>
      <trkpt lat="43.09492" lon="5.97363">
        <ele>-0.34</ele>
        <time>2019-05-27T14:50:05Z</time>
      </trkpt>
      <trkpt lat="43.09504" lon="5.9732">
        <ele>0.14</ele>
        <time>2019-05-27T14:50:23Z</time>
      </trkpt>
      <trkpt lat="43.09514" lon="5.97294">
        <ele>0.62</ele>
        <time>2019-05-27T14:50:36Z</time>
      </trkpt>
      <trkpt lat="43.09524" lon="5.97258">
        <ele>0.62</ele>
        <time>2019-05-27T14:50:53Z</time>
      </trkpt>
      <trkpt lat="43.09534" lon="5.97224">
        <ele>0.62</ele>
        <time>2019-05-27T14:51:09Z</time>
      </trkpt>
      <trkpt lat="43.09542" lon="5.97191">
        <ele>1.1</ele>
        <time>2019-05-27T14:51:24Z</time>
      </trkpt>
      <trkpt lat="43.09545" lon="5.97175">
        <ele>1.58</ele>
        <time>2019-05-27T14:51:31Z</time>
      </trkpt>
      <trkpt lat="43.09552" lon="5.97146">
        <ele>0.62</ele>
        <time>2019-05-27T14:51:44Z</time>
      </trkpt>
      <trkpt lat="43.0956" lon="5.97106">
        <ele>0.14</ele>
        <time>2019-05-27T14:52:02Z</time>
      </trkpt>
      <trkpt lat="43.09568" lon="5.97075">
        <ele>0.14</ele>
        <time>2019-05-27T14:52:16Z</time>
      </trkpt>
      <trkpt lat="43.09574" lon="5.97048">
        <ele>0.62</ele>
        <time>2019-05-27T14:52:28Z</time>
      </trkpt>
      <trkpt lat="43.09577" lon="5.97034">
        <ele>0.62</ele>
        <time>2019-05-27T14:52:34Z</time>
      </trkpt>
      <trkpt lat="43.09582" lon="5.97012">
        <ele>1.1</ele>
        <time>2019-05-27T14:52:45Z</time>
      </trkpt>
      <trkpt lat="43.09583" lon="5.9701">
        <ele>1.1</ele>
        <time>2019-05-27T14:52:46Z</time>
      </trkpt>
      <trkpt lat="43.0959" lon="5.9699">
        <ele>0.62</ele>
        <time>2019-05-27T14:52:56Z</time>
      </trkpt>
      <trkpt lat="43.09601" lon="5.96961">
        <ele>0.14</ele>
        <time>2019-05-27T14:53:11Z</time>
      </trkpt>
      <trkpt lat="43.09604" lon="5.96955">
        <ele>0.14</ele>
        <time>2019-05-27T14:53:14Z</time>
      </trkpt>
      <trkpt lat="43.09607" lon="5.96947">
        <ele>0.62</ele>
        <time>2019-05-27T14:53:18Z</time>
      </trkpt>
      <trkpt lat="43.09616" lon="5.96922">
        <ele>1.1</ele>
        <time>2019-05-27T14:53:30Z</time>
      </trkpt>
      <trkpt lat="43.09627" lon="5.96882">
        <ele>0.62</ele>
        <time>2019-05-27T14:53:47Z</time>
      </trkpt>
      <trkpt lat="43.09635" lon="5.96851">
        <ele>-0.82</ele>
        <time>2019-05-27T14:54:00Z</time>
      </trkpt>
      <trkpt lat="43.09647" lon="5.96808">
        <ele>-0.82</ele>
        <time>2019-05-27T14:54:19Z</time>
      </trkpt>
      <trkpt lat="43.09658" lon="5.96765">
        <ele>-0.82</ele>
        <time>2019-05-27T14:54:39Z</time>
      </trkpt>
      <trkpt lat="43.09668" lon="5.96737">
        <ele>-0.82</ele>
        <time>2019-05-27T14:54:54Z</time>
      </trkpt>
      <trkpt lat="43.09677" lon="5.9671">
        <ele>-0.34</ele>
        <time>2019-05-27T14:55:08Z</time>
      </trkpt>
      <trkpt lat="43.09681" lon="5.96694">
        <ele>-1.79</ele>
        <time>2019-05-27T14:55:17Z</time>
      </trkpt>
      <trkpt lat="43.09683" lon="5.96687">
        <ele>-2.27</ele>
        <time>2019-05-27T14:55:21Z</time>
      </trkpt>
      <trkpt lat="43.09687" lon="5.96671">
        <ele>-2.75</ele>
        <time>2019-05-27T14:55:29Z</time>
      </trkpt>
      <trkpt lat="43.09697" lon="5.96634">
        <ele>-2.27</ele>
        <time>2019-05-27T14:55:46Z</time>
      </trkpt>
      <trkpt lat="43.09706" lon="5.96602">
        <ele>-1.3</ele>
        <time>2019-05-27T14:56:00Z</time>
      </trkpt>
      <trkpt lat="43.09719" lon="5.96562">
        <ele>-1.79</ele>
        <time>2019-05-27T14:56:18Z</time>
      </trkpt>
      <trkpt lat="43.09726" lon="5.96522">
        <ele>-2.27</ele>
        <time>2019-05-27T14:56:34Z</time>
      </trkpt>
      <trkpt lat="43.09729" lon="5.96483">
        <ele>-2.27</ele>
        <time>2019-05-27T14:56:48Z</time>
      </trkpt>
      <trkpt lat="43.09737" lon="5.96441">
        <ele>-2.75</ele>
        <time>2019-05-27T14:57:03Z</time>
      </trkpt>
      <trkpt lat="43.09748" lon="5.96406">
        <ele>-2.75</ele>
        <time>2019-05-27T14:57:18Z</time>
      </trkpt>
      <trkpt lat="43.09763" lon="5.9637">
        <ele>-1.79</ele>
        <time>2019-05-27T14:57:35Z</time>
      </trkpt>
      <trkpt lat="43.09766" lon="5.96359">
        <ele>-1.3</ele>
        <time>2019-05-27T14:57:40Z</time>
      </trkpt>
      <trkpt lat="43.09777" lon="5.96325">
        <ele>-0.34</ele>
        <time>2019-05-27T14:57:56Z</time>
      </trkpt>
      <trkpt lat="43.09786" lon="5.96279">
        <ele>0.14</ele>
        <time>2019-05-27T14:58:17Z</time>
      </trkpt>
      <trkpt lat="43.09797" lon="5.96243">
        <ele>-2.27</ele>
        <time>2019-05-27T14:58:35Z</time>
      </trkpt>
      <trkpt lat="43.09805" lon="5.96214">
        <ele>-4.67</ele>
        <time>2019-05-27T14:58:50Z</time>
      </trkpt>
      <trkpt lat="43.09813" lon="5.96182">
        <ele>-5.63</ele>
        <time>2019-05-27T14:59:05Z</time>
      </trkpt>
      <trkpt lat="43.09825" lon="5.96138">
        <ele>-3.71</ele>
        <time>2019-05-27T14:59:25Z</time>
      </trkpt>
      <trkpt lat="43.09834" lon="5.96093">
        <ele>-4.67</ele>
        <time>2019-05-27T14:59:43Z</time>
      </trkpt>
      <trkpt lat="43.09844" lon="5.96044">
        <ele>-3.71</ele>
        <time>2019-05-27T15:00:02Z</time>
      </trkpt>
      <trkpt lat="43.09851" lon="5.96008">
        <ele>-4.19</ele>
        <time>2019-05-27T15:00:15Z</time>
      </trkpt>
      <trkpt lat="43.09861" lon="5.95962">
        <ele>-3.71</ele>
        <time>2019-05-27T15:00:32Z</time>
      </trkpt>
      <trkpt lat="43.09867" lon="5.95932">
        <ele>-3.23</ele>
        <time>2019-05-27T15:00:43Z</time>
      </trkpt>
      <trkpt lat="43.09872" lon="5.95896">
        <ele>-4.19</ele>
        <time>2019-05-27T15:00:56Z</time>
      </trkpt>
      <trkpt lat="43.09878" lon="5.95864">
        <ele>-3.23</ele>
        <time>2019-05-27T15:01:08Z</time>
      </trkpt>
      <trkpt lat="43.09888" lon="5.9582">
        <ele>-3.71</ele>
        <time>2019-05-27T15:01:25Z</time>
      </trkpt>
      <trkpt lat="43.09897" lon="5.9579">
        <ele>-3.71</ele>
        <time>2019-05-27T15:01:38Z</time>
      </trkpt>
      <trkpt lat="43.0991" lon="5.95751">
        <ele>-3.23</ele>
        <time>2019-05-27T15:01:55Z</time>
      </trkpt>
      <trkpt lat="43.09921" lon="5.95717">
        <ele>-1.79</ele>
        <time>2019-05-27T15:02:10Z</time>
      </trkpt>
      <trkpt lat="43.09929" lon="5.95686">
        <ele>-1.3</ele>
        <time>2019-05-27T15:02:23Z</time>
      </trkpt>
      <trkpt lat="43.0994" lon="5.95652">
        <ele>-0.34</ele>
        <time>2019-05-27T15:02:39Z</time>
      </trkpt>
      <trkpt lat="43.09956" lon="5.95619">
        <ele>-0.34</ele>
        <time>2019-05-27T15:02:57Z</time>
      </trkpt>
      <trkpt lat="43.09972" lon="5.95594">
        <ele>1.1</ele>
        <time>2019-05-27T15:03:13Z</time>
      </trkpt>
      <trkpt lat="43.09985" lon="5.95565">
        <ele>2.54</ele>
        <time>2019-05-27T15:03:28Z</time>
      </trkpt>
      <trkpt lat="43.09999" lon="5.95532">
        <ele>2.06</ele>
        <time>2019-05-27T15:03:46Z</time>
      </trkpt>
      <trkpt lat="43.10013" lon="5.95499">
        <ele>0.14</ele>
        <time>2019-05-27T15:04:04Z</time>
      </trkpt>
      <trkpt lat="43.10022" lon="5.95469">
        <ele>-1.3</ele>
        <time>2019-05-27T15:04:19Z</time>
      </trkpt>
      <trkpt lat="43.10031" lon="5.95436">
        <ele>-3.71</ele>
        <time>2019-05-27T15:04:36Z</time>
      </trkpt>
      <trkpt lat="43.10037" lon="5.95413">
        <ele>-5.15</ele>
        <time>2019-05-27T15:04:49Z</time>
      </trkpt>
      <trkpt lat="43.10044" lon="5.95384">
        <ele>-6.59</ele>
        <time>2019-05-27T15:05:03Z</time>
      </trkpt>
      <trkpt lat="43.1005" lon="5.95353">
        <ele>-7.55</ele>
        <time>2019-05-27T15:05:17Z</time>
      </trkpt>
      <trkpt lat="43.10056" lon="5.95327">
        <ele>-8.03</ele>
        <time>2019-05-27T15:05:29Z</time>
      </trkpt>
      <trkpt lat="43.10058" lon="5.95317">
        <ele>-8.51</ele>
        <time>2019-05-27T15:05:34Z</time>
      </trkpt>
      <trkpt lat="43.10067" lon="5.95287">
        <ele>-9</ele>
        <time>2019-05-27T15:05:49Z</time>
      </trkpt>
      <trkpt lat="43.10072" lon="5.95272">
        <ele>-9.96</ele>
        <time>2019-05-27T15:05:56Z</time>
      </trkpt>
      <trkpt lat="43.10082" lon="5.95243">
        <ele>-9.96</ele>
        <time>2019-05-27T15:06:10Z</time>
      </trkpt>
      <trkpt lat="43.10083" lon="5.95239">
        <ele>-9.96</ele>
        <time>2019-05-27T15:06:12Z</time>
      </trkpt>
      <trkpt lat="43.10086" lon="5.9523">
        <ele>-9.48</ele>
        <time>2019-05-27T15:06:16Z</time>
      </trkpt>
      <trkpt lat="43.10091" lon="5.95216">
        <ele>-9.48</ele>
        <time>2019-05-27T15:06:23Z</time>
      </trkpt>
      <trkpt lat="43.10096" lon="5.952">
        <ele>-9</ele>
        <time>2019-05-27T15:06:31Z</time>
      </trkpt>
      <trkpt lat="43.10098" lon="5.9519">
        <ele>-9.48</ele>
        <time>2019-05-27T15:06:36Z</time>
      </trkpt>
      <trkpt lat="43.10104" lon="5.95163">
        <ele>-10.92</ele>
        <time>2019-05-27T15:06:48Z</time>
      </trkpt>
      <trkpt lat="43.10112" lon="5.95136">
        <ele>-9.96</ele>
        <time>2019-05-27T15:07:01Z</time>
      </trkpt>
      <trkpt lat="43.10114" lon="5.95127">
        <ele>-9.48</ele>
        <time>2019-05-27T15:07:05Z</time>
      </trkpt>
      <trkpt lat="43.10124" lon="5.95102">
        <ele>-7.07</ele>
        <time>2019-05-27T15:07:18Z</time>
      </trkpt>
      <trkpt lat="43.10127" lon="5.95085">
        <ele>-7.55</ele>
        <time>2019-05-27T15:07:26Z</time>
      </trkpt>
      <trkpt lat="43.10136" lon="5.95065">
        <ele>-6.59</ele>
        <time>2019-05-27T15:07:37Z</time>
      </trkpt>
      <trkpt lat="43.10143" lon="5.95044">
        <ele>-6.11</ele>
        <time>2019-05-27T15:07:48Z</time>
      </trkpt>
      <trkpt lat="43.10146" lon="5.95034">
        <ele>-5.63</ele>
        <time>2019-05-27T15:07:53Z</time>
      </trkpt>
      <trkpt lat="43.10147" lon="5.95029">
        <ele>-5.63</ele>
        <time>2019-05-27T15:07:55Z</time>
      </trkpt>
      <trkpt lat="43.10152" lon="5.95007">
        <ele>-6.59</ele>
        <time>2019-05-27T15:08:05Z</time>
      </trkpt>
      <trkpt lat="43.10154" lon="5.95">
        <ele>-7.07</ele>
        <time>2019-05-27T15:08:08Z</time>
      </trkpt>
      <trkpt lat="43.10163" lon="5.94972">
        <ele>-6.59</ele>
        <time>2019-05-27T15:08:21Z</time>
      </trkpt>
      <trkpt lat="43.10173" lon="5.94943">
        <ele>-6.11</ele>
        <time>2019-05-27T15:08:35Z</time>
      </trkpt>
      <trkpt lat="43.10179" lon="5.94916">
        <ele>-7.55</ele>
        <time>2019-05-27T15:08:48Z</time>
      </trkpt>
      <trkpt lat="43.10186" lon="5.94891">
        <ele>-7.55</ele>
        <time>2019-05-27T15:09:00Z</time>
      </trkpt>
      <trkpt lat="43.10197" lon="5.94857">
        <ele>-7.07</ele>
        <time>2019-05-27T15:09:17Z</time>
      </trkpt>
      <trkpt lat="43.10206" lon="5.94828">
        <ele>-6.11</ele>
        <time>2019-05-27T15:09:32Z</time>
      </trkpt>
      <trkpt lat="43.10221" lon="5.94785">
        <ele>-4.19</ele>
        <time>2019-05-27T15:09:53Z</time>
      </trkpt>
      <trkpt lat="43.10224" lon="5.94774">
        <ele>-4.67</ele>
        <time>2019-05-27T15:09:58Z</time>
      </trkpt>
      <trkpt lat="43.10227" lon="5.94763">
        <ele>-4.19</ele>
        <time>2019-05-27T15:10:03Z</time>
      </trkpt>
      <trkpt lat="43.10232" lon="5.94747">
        <ele>-3.71</ele>
        <time>2019-05-27T15:10:11Z</time>
      </trkpt>
      <trkpt lat="43.10235" lon="5.94739">
        <ele>-3.71</ele>
        <time>2019-05-27T15:10:15Z</time>
      </trkpt>
      <trkpt lat="43.10243" lon="5.94711">
        <ele>-3.71</ele>
        <time>2019-05-27T15:10:29Z</time>
      </trkpt>
      <trkpt lat="43.1025" lon="5.94683">
        <ele>-4.19</ele>
        <time>2019-05-27T15:10:43Z</time>
      </trkpt>
      <trkpt lat="43.10257" lon="5.94659">
        <ele>-5.15</ele>
        <time>2019-05-27T15:10:56Z</time>
      </trkpt>
      <trkpt lat="43.1026" lon="5.94647">
        <ele>-5.15</ele>
        <time>2019-05-27T15:11:02Z</time>
      </trkpt>
      <trkpt lat="43.10261" lon="5.94642">
        <ele>-5.15</ele>
        <time>2019-05-27T15:11:05Z</time>
      </trkpt>
      <trkpt lat="43.10269" lon="5.94623">
        <ele>-5.15</ele>
        <time>2019-05-27T15:11:17Z</time>
      </trkpt>
      <trkpt lat="43.1027" lon="5.94621">
        <ele>-5.15</ele>
        <time>2019-05-27T15:11:18Z</time>
      </trkpt>
      <trkpt lat="43.1028" lon="5.94593">
        <ele>-4.67</ele>
        <time>2019-05-27T15:11:35Z</time>
      </trkpt>
      <trkpt lat="43.10288" lon="5.94563">
        <ele>-4.67</ele>
        <time>2019-05-27T15:11:52Z</time>
      </trkpt>
      <trkpt lat="43.10291" lon="5.94556">
        <ele>-4.19</ele>
        <time>2019-05-27T15:11:56Z</time>
      </trkpt>
      <trkpt lat="43.10307" lon="5.94515">
        <ele>-4.19</ele>
        <time>2019-05-27T15:12:19Z</time>
      </trkpt>
      <trkpt lat="43.10318" lon="5.94477">
        <ele>-4.19</ele>
        <time>2019-05-27T15:12:38Z</time>
      </trkpt>
      <trkpt lat="43.10324" lon="5.94447">
        <ele>-3.71</ele>
        <time>2019-05-27T15:12:51Z</time>
      </trkpt>
      <trkpt lat="43.10331" lon="5.94402">
        <ele>-3.23</ele>
        <time>2019-05-27T15:13:09Z</time>
      </trkpt>
      <trkpt lat="43.10333" lon="5.94378">
        <ele>-3.23</ele>
        <time>2019-05-27T15:13:19Z</time>
      </trkpt>
      <trkpt lat="43.10333" lon="5.94369">
        <ele>-3.23</ele>
        <time>2019-05-27T15:13:23Z</time>
      </trkpt>
      <trkpt lat="43.10333" lon="5.94353">
        <ele>-2.27</ele>
        <time>2019-05-27T15:13:29Z</time>
      </trkpt>
      <trkpt lat="43.10332" lon="5.94333">
        <ele>-1.79</ele>
        <time>2019-05-27T15:13:38Z</time>
      </trkpt>
      <trkpt lat="43.10326" lon="5.94312">
        <ele>-2.75</ele>
        <time>2019-05-27T15:13:47Z</time>
      </trkpt>
      <trkpt lat="43.10319" lon="5.94279">
        <ele>-3.23</ele>
        <time>2019-05-27T15:14:02Z</time>
      </trkpt>
      <trkpt lat="43.10321" lon="5.94252">
        <ele>-3.71</ele>
        <time>2019-05-27T15:14:15Z</time>
      </trkpt>
      <trkpt lat="43.10325" lon="5.94219">
        <ele>-3.71</ele>
        <time>2019-05-27T15:14:29Z</time>
      </trkpt>
      <trkpt lat="43.10315" lon="5.9419">
        <ele>-3.71</ele>
        <time>2019-05-27T15:14:41Z</time>
      </trkpt>
      <trkpt lat="43.10299" lon="5.94173">
        <ele>-3.23</ele>
        <time>2019-05-27T15:14:52Z</time>
      </trkpt>
      <trkpt lat="43.10277" lon="5.94166">
        <ele>-3.23</ele>
        <time>2019-05-27T15:15:06Z</time>
      </trkpt>
      <trkpt lat="43.10254" lon="5.9417">
        <ele>-4.19</ele>
        <time>2019-05-27T15:15:22Z</time>
      </trkpt>
      <trkpt lat="43.10238" lon="5.94185">
        <ele>-5.15</ele>
        <time>2019-05-27T15:15:35Z</time>
      </trkpt>
      <trkpt lat="43.10208" lon="5.94206">
        <ele>-5.15</ele>
        <time>2019-05-27T15:15:52Z</time>
      </trkpt>
      <trkpt lat="43.10186" lon="5.94213">
        <ele>-5.63</ele>
        <time>2019-05-27T15:16:05Z</time>
      </trkpt>
      <trkpt lat="43.10169" lon="5.94221">
        <ele>-6.11</ele>
        <time>2019-05-27T15:16:20Z</time>
      </trkpt>
      <trkpt lat="43.10158" lon="5.9423">
        <ele>-5.63</ele>
        <time>2019-05-27T15:16:36Z</time>
      </trkpt>
      <trkpt lat="43.10148" lon="5.94238">
        <ele>-5.15</ele>
        <time>2019-05-27T15:16:52Z</time>
      </trkpt>
      <trkpt lat="43.10138" lon="5.94243">
        <ele>-5.15</ele>
        <time>2019-05-27T15:17:10Z</time>
      </trkpt>
      <trkpt lat="43.1013" lon="5.94246">
        <ele>-4.67</ele>
        <time>2019-05-27T15:17:23Z</time>
      </trkpt>
      <trkpt lat="43.10119" lon="5.94253">
        <ele>-5.63</ele>
        <time>2019-05-27T15:17:34Z</time>
      </trkpt>
      <trkpt lat="43.10099" lon="5.94233">
        <ele>-5.15</ele>
        <time>2019-05-27T15:17:47Z</time>
      </trkpt>
      <trkpt lat="43.10098" lon="5.9423">
        <ele>-5.15</ele>
        <time>2019-05-27T15:17:48Z</time>
      </trkpt>
      <trkpt lat="43.10076" lon="5.94195">
        <ele>-6.11</ele>
        <time>2019-05-27T15:18:00Z</time>
      </trkpt>
      <trkpt lat="43.10038" lon="5.94154">
        <ele>-5.15</ele>
        <time>2019-05-27T15:18:16Z</time>
      </trkpt>
      <trkpt lat="43.10004" lon="5.94118">
        <ele>-5.15</ele>
        <time>2019-05-27T15:18:30Z</time>
      </trkpt>
      <trkpt lat="43.09968" lon="5.94074">
        <ele>-5.63</ele>
        <time>2019-05-27T15:18:46Z</time>
      </trkpt>
      <trkpt lat="43.09939" lon="5.94044">
        <ele>-5.15</ele>
        <time>2019-05-27T15:18:58Z</time>
      </trkpt>
      <trkpt lat="43.09907" lon="5.94006">
        <ele>-5.63</ele>
        <time>2019-05-27T15:19:12Z</time>
      </trkpt>
      <trkpt lat="43.09871" lon="5.93961">
        <ele>-5.63</ele>
        <time>2019-05-27T15:19:28Z</time>
      </trkpt>
      <trkpt lat="43.09862" lon="5.93945">
        <ele>-5.63</ele>
        <time>2019-05-27T15:19:33Z</time>
      </trkpt>
      <trkpt lat="43.09833" lon="5.93915">
        <ele>-7.07</ele>
        <time>2019-05-27T15:19:45Z</time>
      </trkpt>
      <trkpt lat="43.09788" lon="5.93866">
        <ele>-6.59</ele>
        <time>2019-05-27T15:20:04Z</time>
      </trkpt>
      <trkpt lat="43.09763" lon="5.93835">
        <ele>-5.15</ele>
        <time>2019-05-27T15:20:15Z</time>
      </trkpt>
      <trkpt lat="43.09725" lon="5.93788">
        <ele>-6.11</ele>
        <time>2019-05-27T15:20:32Z</time>
      </trkpt>
      <trkpt lat="43.09688" lon="5.93739">
        <ele>-4.67</ele>
        <time>2019-05-27T15:20:49Z</time>
      </trkpt>
      <trkpt lat="43.09662" lon="5.93698">
        <ele>-4.67</ele>
        <time>2019-05-27T15:21:02Z</time>
      </trkpt>
      <trkpt lat="43.09636" lon="5.93666">
        <ele>-4.67</ele>
        <time>2019-05-27T15:21:14Z</time>
      </trkpt>
      <trkpt lat="43.09597" lon="5.93637">
        <ele>-3.23</ele>
        <time>2019-05-27T15:21:29Z</time>
      </trkpt>
      <trkpt lat="43.09567" lon="5.93592">
        <ele>-3.71</ele>
        <time>2019-05-27T15:21:44Z</time>
      </trkpt>
      <trkpt lat="43.09529" lon="5.93555">
        <ele>-4.67</ele>
        <time>2019-05-27T15:21:59Z</time>
      </trkpt>
      <trkpt lat="43.09492" lon="5.93512">
        <ele>-3.71</ele>
        <time>2019-05-27T15:22:15Z</time>
      </trkpt>
      <trkpt lat="43.09462" lon="5.93471">
        <ele>-3.23</ele>
        <time>2019-05-27T15:22:29Z</time>
      </trkpt>
      <trkpt lat="43.09424" lon="5.93423">
        <ele>-3.71</ele>
        <time>2019-05-27T15:22:46Z</time>
      </trkpt>
      <trkpt lat="43.09392" lon="5.93384">
        <ele>-4.19</ele>
        <time>2019-05-27T15:23:00Z</time>
      </trkpt>
      <trkpt lat="43.09366" lon="5.93352">
        <ele>-4.19</ele>
        <time>2019-05-27T15:23:12Z</time>
      </trkpt>
      <trkpt lat="43.09346" lon="5.93328">
        <ele>-3.71</ele>
        <time>2019-05-27T15:23:25Z</time>
      </trkpt>
      <trkpt lat="43.09329" lon="5.93305">
        <ele>-3.71</ele>
        <time>2019-05-27T15:23:40Z</time>
      </trkpt>
      <trkpt lat="43.09316" lon="5.9329">
        <ele>-2.75</ele>
        <time>2019-05-27T15:23:53Z</time>
      </trkpt>
      <trkpt lat="43.09307" lon="5.93279">
        <ele>-2.27</ele>
        <time>2019-05-27T15:24:04Z</time>
      </trkpt>
      <trkpt lat="43.09296" lon="5.93267">
        <ele>-0.82</ele>
        <time>2019-05-27T15:24:17Z</time>
      </trkpt>
      <trkpt lat="43.09292" lon="5.93262">
        <ele>-0.82</ele>
        <time>2019-05-27T15:24:22Z</time>
      </trkpt>
      <trkpt lat="43.09283" lon="5.9325">
        <ele>-0.34</ele>
        <time>2019-05-27T15:24:33Z</time>
      </trkpt>
      <trkpt lat="43.0928" lon="5.93247">
        <ele>-0.82</ele>
        <time>2019-05-27T15:24:36Z</time>
      </trkpt>
      <trkpt lat="43.09267" lon="5.93232">
        <ele>-2.27</ele>
        <time>2019-05-27T15:24:50Z</time>
      </trkpt>
      <trkpt lat="43.09262" lon="5.93223">
        <ele>-2.27</ele>
        <time>2019-05-27T15:24:58Z</time>
      </trkpt>
      <trkpt lat="43.09249" lon="5.93208">
        <ele>-2.27</ele>
        <time>2019-05-27T15:25:13Z</time>
      </trkpt>
      <trkpt lat="43.0923" lon="5.93186">
        <ele>-3.71</ele>
        <time>2019-05-27T15:25:29Z</time>
      </trkpt>
      <trkpt lat="43.09214" lon="5.93167">
        <ele>-3.71</ele>
        <time>2019-05-27T15:25:42Z</time>
      </trkpt>
      <trkpt lat="43.09196" lon="5.93146">
        <ele>-3.71</ele>
        <time>2019-05-27T15:25:55Z</time>
      </trkpt>
      <trkpt lat="43.09176" lon="5.93127">
        <ele>-4.67</ele>
        <time>2019-05-27T15:26:08Z</time>
      </trkpt>
      <trkpt lat="43.09151" lon="5.931">
        <ele>-5.63</ele>
        <time>2019-05-27T15:26:25Z</time>
      </trkpt>
      <trkpt lat="43.0913" lon="5.93077">
        <ele>-6.11</ele>
        <time>2019-05-27T15:26:40Z</time>
      </trkpt>
      <trkpt lat="43.09109" lon="5.93056">
        <ele>-5.15</ele>
        <time>2019-05-27T15:26:54Z</time>
      </trkpt>
      <trkpt lat="43.09088" lon="5.93039">
        <ele>-4.19</ele>
        <time>2019-05-27T15:27:07Z</time>
      </trkpt>
      <trkpt lat="43.09061" lon="5.93017">
        <ele>-3.71</ele>
        <time>2019-05-27T15:27:24Z</time>
      </trkpt>
      <trkpt lat="43.09035" lon="5.92995">
        <ele>-4.67</ele>
        <time>2019-05-27T15:27:40Z</time>
      </trkpt>
      <trkpt lat="43.09014" lon="5.92977">
        <ele>-4.67</ele>
        <time>2019-05-27T15:27:53Z</time>
      </trkpt>
      <trkpt lat="43.08994" lon="5.92958">
        <ele>-4.67</ele>
        <time>2019-05-27T15:28:06Z</time>
      </trkpt>
      <trkpt lat="43.08964" lon="5.92932">
        <ele>-5.15</ele>
        <time>2019-05-27T15:28:24Z</time>
      </trkpt>
      <trkpt lat="43.08955" lon="5.92925">
        <ele>-5.15</ele>
        <time>2019-05-27T15:28:29Z</time>
      </trkpt>
      <trkpt lat="43.08919" lon="5.92896">
        <ele>-5.15</ele>
        <time>2019-05-27T15:28:48Z</time>
      </trkpt>
      <trkpt lat="43.08888" lon="5.92872">
        <ele>-7.07</ele>
        <time>2019-05-27T15:29:04Z</time>
      </trkpt>
      <trkpt lat="43.08854" lon="5.92845">
        <ele>-6.59</ele>
        <time>2019-05-27T15:29:21Z</time>
      </trkpt>
      <trkpt lat="43.0882" lon="5.92818">
        <ele>-8.03</ele>
        <time>2019-05-27T15:29:39Z</time>
      </trkpt>
      <trkpt lat="43.08787" lon="5.92794">
        <ele>-7.55</ele>
        <time>2019-05-27T15:29:56Z</time>
      </trkpt>
      <trkpt lat="43.08745" lon="5.92765">
        <ele>-5.15</ele>
        <time>2019-05-27T15:30:17Z</time>
      </trkpt>
      <trkpt lat="43.08714" lon="5.92745">
        <ele>-5.63</ele>
        <time>2019-05-27T15:30:32Z</time>
      </trkpt>
      <trkpt lat="43.08677" lon="5.92721">
        <ele>-6.11</ele>
        <time>2019-05-27T15:30:50Z</time>
      </trkpt>
      <trkpt lat="43.08635" lon="5.92695">
        <ele>-6.59</ele>
        <time>2019-05-27T15:31:11Z</time>
      </trkpt>
      <trkpt lat="43.08588" lon="5.92666">
        <ele>-7.55</ele>
        <time>2019-05-27T15:31:34Z</time>
      </trkpt>
      <trkpt lat="43.08547" lon="5.92641">
        <ele>-6.59</ele>
        <time>2019-05-27T15:31:54Z</time>
      </trkpt>
      <trkpt lat="43.08506" lon="5.92609">
        <ele>-4.19</ele>
        <time>2019-05-27T15:32:15Z</time>
      </trkpt>
      <trkpt lat="43.0847" lon="5.92578">
        <ele>-4.67</ele>
        <time>2019-05-27T15:32:34Z</time>
      </trkpt>
      <trkpt lat="43.08433" lon="5.92553">
        <ele>-4.67</ele>
        <time>2019-05-27T15:32:56Z</time>
      </trkpt>
      <trkpt lat="43.08407" lon="5.92536">
        <ele>-5.15</ele>
        <time>2019-05-27T15:33:13Z</time>
      </trkpt>
      <trkpt lat="43.08368" lon="5.92517">
        <ele>-4.19</ele>
        <time>2019-05-27T15:33:39Z</time>
      </trkpt>
      <trkpt lat="43.08337" lon="5.92505">
        <ele>-3.71</ele>
        <time>2019-05-27T15:33:59Z</time>
      </trkpt>
      <trkpt lat="43.083" lon="5.92497">
        <ele>-3.23</ele>
        <time>2019-05-27T15:34:23Z</time>
      </trkpt>
      <trkpt lat="43.0828" lon="5.92495">
        <ele>-3.71</ele>
        <time>2019-05-27T15:34:37Z</time>
      </trkpt>
      <trkpt lat="43.08252" lon="5.92491">
        <ele>-3.71</ele>
        <time>2019-05-27T15:35:03Z</time>
      </trkpt>
      <trkpt lat="43.08234" lon="5.92489">
        <ele>-3.71</ele>
        <time>2019-05-27T15:35:20Z</time>
      </trkpt>
      <trkpt lat="43.08208" lon="5.9249">
        <ele>-3.23</ele>
        <time>2019-05-27T15:35:46Z</time>
      </trkpt>
      <trkpt lat="43.08184" lon="5.92488">
        <ele>-4.19</ele>
        <time>2019-05-27T15:36:10Z</time>
      </trkpt>
      <trkpt lat="43.08151" lon="5.9249">
        <ele>-3.23</ele>
        <time>2019-05-27T15:36:44Z</time>
      </trkpt>
      <trkpt lat="43.08129" lon="5.92489">
        <ele>-2.27</ele>
        <time>2019-05-27T15:37:07Z</time>
      </trkpt>
      <trkpt lat="43.08106" lon="5.92487">
        <ele>-3.23</ele>
        <time>2019-05-27T15:37:33Z</time>
      </trkpt>
      <trkpt lat="43.08083" lon="5.9249">
        <ele>-2.75</ele>
        <time>2019-05-27T15:37:59Z</time>
      </trkpt>
      <trkpt lat="43.0806" lon="5.92493">
        <ele>-3.23</ele>
        <time>2019-05-27T15:38:25Z</time>
      </trkpt>
      <trkpt lat="43.08046" lon="5.92493">
        <ele>-2.75</ele>
        <time>2019-05-27T15:38:44Z</time>
      </trkpt>
      <trkpt lat="43.0804" lon="5.92493">
        <ele>-3.23</ele>
        <time>2019-05-27T15:38:57Z</time>
      </trkpt>
      <trkpt lat="43.08035" lon="5.92494">
        <ele>-4.19</ele>
        <time>2019-05-27T15:39:18Z</time>
      </trkpt>
      <trkpt lat="43.08033" lon="5.92494">
        <ele>-2.27</ele>
        <time>2019-05-27T15:39:34Z</time>
      </trkpt>
      <trkpt lat="43.08037" lon="5.92493">
        <ele>-1.79</ele>
        <time>2019-05-27T15:39:57Z</time>
      </trkpt>
      <trkpt lat="43.08027" lon="5.92501">
        <ele>-0.82</ele>
        <time>2019-05-27T15:40:14Z</time>
      </trkpt>
      <trkpt lat="43.08022" lon="5.92507">
        <ele>-1.79</ele>
        <time>2019-05-27T15:40:34Z</time>
      </trkpt>
      <trkpt lat="43.08024" lon="5.92506">
        <ele>-5.15</ele>
        <time>2019-05-27T15:40:51Z</time>
      </trkpt>
      <trkpt lat="43.08027" lon="5.92496">
        <ele>-4.67</ele>
        <time>2019-05-27T15:41:03Z</time>
      </trkpt>
      <trkpt lat="43.08029" lon="5.92491">
        <ele>-4.67</ele>
        <time>2019-05-27T15:41:09Z</time>
      </trkpt>
      <trkpt lat="43.08031" lon="5.92487">
        <ele>-3.71</ele>
        <time>2019-05-27T15:41:12Z</time>
      </trkpt>
      <trkpt lat="43.08043" lon="5.92469">
        <ele>-4.19</ele>
        <time>2019-05-27T15:41:30Z</time>
      </trkpt>
      <trkpt lat="43.08043" lon="5.92468">
        <ele>-4.19</ele>
        <time>2019-05-27T15:41:31Z</time>
      </trkpt>
      <trkpt lat="43.08046" lon="5.92463">
        <ele>-4.19</ele>
        <time>2019-05-27T15:41:43Z</time>
      </trkpt>
      <trkpt lat="43.08046" lon="5.92464">
        <ele>-3.71</ele>
        <time>2019-05-27T15:42:01Z</time>
      </trkpt>
      <trkpt lat="43.08047" lon="5.92465">
        <ele>-3.23</ele>
        <time>2019-05-27T15:42:18Z</time>
      </trkpt>
      <trkpt lat="43.08047" lon="5.92466">
        <ele>-3.23</ele>
        <time>2019-05-27T15:42:33Z</time>
      </trkpt>
      <trkpt lat="43.08048" lon="5.92467">
        <ele>-2.75</ele>
        <time>2019-05-27T15:42:47Z</time>
      </trkpt>
      <trkpt lat="43.08048" lon="5.92467">
        <ele>-2.75</ele>
        <time>2019-05-27T15:43:06Z</time>
      </trkpt>
      <trkpt lat="43.08048" lon="5.92468">
        <ele>-2.27</ele>
        <time>2019-05-27T15:43:27Z</time>
      </trkpt>
      <trkpt lat="43.08048" lon="5.92468">
        <ele>-2.27</ele>
        <time>2019-05-27T15:43:43Z</time>
      </trkpt>
      <trkpt lat="43.08048" lon="5.92468">
        <ele>-2.27</ele>
        <time>2019-05-27T15:43:59Z</time>
      </trkpt>
      <trkpt lat="43.08048" lon="5.92467">
        <ele>-2.75</ele>
        <time>2019-05-27T15:44:13Z</time>
      </trkpt>
      <trkpt lat="43.08048" lon="5.92462">
        <ele>-3.23</ele>
        <time>2019-05-27T15:44:36Z</time>
      </trkpt>
      <trkpt lat="43.08047" lon="5.92459">
        <ele>-3.71</ele>
        <time>2019-05-27T15:44:51Z</time>
      </trkpt>
      <trkpt lat="43.08047" lon="5.92458">
        <ele>-3.71</ele>
        <time>2019-05-27T15:45:14Z</time>
      </trkpt>
      <trkpt lat="43.08047" lon="5.92457">
        <ele>-4.19</ele>
        <time>2019-05-27T15:45:34Z</time>
      </trkpt>
      <trkpt lat="43.08047" lon="5.92458">
        <ele>-3.71</ele>
        <time>2019-05-27T15:45:56Z</time>
      </trkpt>
      <trkpt lat="43.08047" lon="5.92458">
        <ele>-4.67</ele>
        <time>2019-05-27T15:46:11Z</time>
      </trkpt>
      <trkpt lat="43.08047" lon="5.92459">
        <ele>-4.19</ele>
        <time>2019-05-27T15:46:27Z</time>
      </trkpt>
      <trkpt lat="43.08047" lon="5.92458">
        <ele>-3.71</ele>
        <time>2019-05-27T15:46:41Z</time>
      </trkpt>
      <trkpt lat="43.08047" lon="5.92458">
        <ele>-3.71</ele>
        <time>2019-05-27T15:46:42Z</time>
      </trkpt>
    </trkseg>
  </trk>
</gpx>